<?xml version="1.0" encoding="UTF-8" standalone="no" ?>
<gpx xmlns="http://www.topografix.com/GPX/1/1" xmlns:xsi="http://www.w3.org/2001/XMLSchema-instance" xsi:schemaLocation="http://www.topografix.com/GPX/1/1 http://www.topografix.com/GPX/1/1/gpx.xsd" version="1.1" creator="VisuGPX - https://www.visugpx.com">
  <metadata>
    <name>Saint-Lyphard 02092021</name>
    <desc><![CDATA[Sortie Kerhinet retour jeudi 02 septembre 2021]]></desc>
  </metadata>
  <trk>
    <name><![CDATA[Saint-Lyphard Cyclisme]]></name>
    <trkseg>
      <trkpt lat="47.36349" lon="-2.35098">
        <ele>10</ele>
        <time>2021-09-02T12:42:57.000Z</time>
      </trkpt>
      <trkpt lat="47.3635" lon="-2.35097">
        <ele>10</ele>
        <time>2021-09-02T12:42:59.000Z</time>
      </trkpt>
      <trkpt lat="47.36368" lon="-2.35007">
        <ele>-0.20000000298023</ele>
        <time>2021-09-02T12:47:20.000Z</time>
      </trkpt>
      <trkpt lat="47.36366" lon="-2.35004">
        <ele>-0.20000000298023</ele>
        <time>2021-09-02T12:47:22.000Z</time>
      </trkpt>
      <trkpt lat="47.36357" lon="-2.34989">
        <ele>-0.20000000298023</ele>
        <time>2021-09-02T12:47:31.000Z</time>
      </trkpt>
      <trkpt lat="47.36357" lon="-2.34989">
        <ele>-0.20000000298023</ele>
        <time>2021-09-02T12:47:32.000Z</time>
      </trkpt>
      <trkpt lat="47.36352" lon="-2.34981">
        <ele>-0.20000000298023</ele>
        <time>2021-09-02T12:47:44.000Z</time>
      </trkpt>
      <trkpt lat="47.36349" lon="-2.34979">
        <ele>-0.20000000298023</ele>
        <time>2021-09-02T12:47:46.000Z</time>
      </trkpt>
      <trkpt lat="47.36347" lon="-2.34979">
        <ele>-0.20000000298023</ele>
        <time>2021-09-02T12:47:47.000Z</time>
      </trkpt>
      <trkpt lat="47.36339" lon="-2.34984">
        <ele>-0.20000000298023</ele>
        <time>2021-09-02T12:47:51.000Z</time>
      </trkpt>
      <trkpt lat="47.36328" lon="-2.34995">
        <ele>-0.20000000298023</ele>
        <time>2021-09-02T12:47:57.000Z</time>
      </trkpt>
      <trkpt lat="47.36315" lon="-2.35007">
        <ele>-0.20000000298023</ele>
        <time>2021-09-02T12:48:04.000Z</time>
      </trkpt>
      <trkpt lat="47.36306" lon="-2.35007">
        <ele>-0.20000000298023</ele>
        <time>2021-09-02T12:48:10.000Z</time>
      </trkpt>
      <trkpt lat="47.36296" lon="-2.34999">
        <ele>-0.20000000298023</ele>
        <time>2021-09-02T12:48:16.000Z</time>
      </trkpt>
      <trkpt lat="47.36289" lon="-2.34976">
        <ele>-0.20000000298023</ele>
        <time>2021-09-02T12:48:22.000Z</time>
      </trkpt>
      <trkpt lat="47.36281" lon="-2.34935">
        <ele>-0.20000000298023</ele>
        <time>2021-09-02T12:48:32.000Z</time>
      </trkpt>
      <trkpt lat="47.36279" lon="-2.34932">
        <ele>-0.20000000298023</ele>
        <time>2021-09-02T12:48:33.000Z</time>
      </trkpt>
      <trkpt lat="47.36277" lon="-2.34929">
        <ele>0.20000000298023</ele>
        <time>2021-09-02T12:48:34.000Z</time>
      </trkpt>
      <trkpt lat="47.36274" lon="-2.34928">
        <ele>0.60000002384186</ele>
        <time>2021-09-02T12:48:35.000Z</time>
      </trkpt>
      <trkpt lat="47.36271" lon="-2.3493">
        <ele>1</ele>
        <time>2021-09-02T12:48:36.000Z</time>
      </trkpt>
      <trkpt lat="47.36269" lon="-2.34933">
        <ele>1.3999999761581</ele>
        <time>2021-09-02T12:48:37.000Z</time>
      </trkpt>
      <trkpt lat="47.36267" lon="-2.34936">
        <ele>2</ele>
        <time>2021-09-02T12:48:38.000Z</time>
      </trkpt>
      <trkpt lat="47.36264" lon="-2.34943">
        <ele>2</ele>
        <time>2021-09-02T12:48:40.000Z</time>
      </trkpt>
      <trkpt lat="47.36262" lon="-2.34947">
        <ele>2</ele>
        <time>2021-09-02T12:48:41.000Z</time>
      </trkpt>
      <trkpt lat="47.36248" lon="-2.34981">
        <ele>2</ele>
        <time>2021-09-02T12:48:50.000Z</time>
      </trkpt>
      <trkpt lat="47.36234" lon="-2.35013">
        <ele>2</ele>
        <time>2021-09-02T12:48:58.000Z</time>
      </trkpt>
      <trkpt lat="47.36218" lon="-2.35045">
        <ele>2</ele>
        <time>2021-09-02T12:49:06.000Z</time>
      </trkpt>
      <trkpt lat="47.36196" lon="-2.3507">
        <ele>2</ele>
        <time>2021-09-02T12:49:13.000Z</time>
      </trkpt>
      <trkpt lat="47.36176" lon="-2.3509">
        <ele>2</ele>
        <time>2021-09-02T12:49:19.000Z</time>
      </trkpt>
      <trkpt lat="47.3614" lon="-2.3513">
        <ele>2</ele>
        <time>2021-09-02T12:49:30.000Z</time>
      </trkpt>
      <trkpt lat="47.36134" lon="-2.35137">
        <ele>2</ele>
        <time>2021-09-02T12:49:32.000Z</time>
      </trkpt>
      <trkpt lat="47.36121" lon="-2.35152">
        <ele>2</ele>
        <time>2021-09-02T12:49:36.000Z</time>
      </trkpt>
      <trkpt lat="47.36099" lon="-2.35173">
        <ele>2</ele>
        <time>2021-09-02T12:49:42.000Z</time>
      </trkpt>
      <trkpt lat="47.36095" lon="-2.35172">
        <ele>2</ele>
        <time>2021-09-02T12:49:43.000Z</time>
      </trkpt>
      <trkpt lat="47.3609" lon="-2.35159">
        <ele>2</ele>
        <time>2021-09-02T12:49:46.000Z</time>
      </trkpt>
      <trkpt lat="47.36091" lon="-2.35145">
        <ele>2</ele>
        <time>2021-09-02T12:49:48.000Z</time>
      </trkpt>
      <trkpt lat="47.36092" lon="-2.35115">
        <ele>2</ele>
        <time>2021-09-02T12:49:52.000Z</time>
      </trkpt>
      <trkpt lat="47.36096" lon="-2.35058">
        <ele>2</ele>
        <time>2021-09-02T12:50:00.000Z</time>
      </trkpt>
      <trkpt lat="47.36097" lon="-2.35008">
        <ele>2</ele>
        <time>2021-09-02T12:50:07.000Z</time>
      </trkpt>
      <trkpt lat="47.3609" lon="-2.34969">
        <ele>2</ele>
        <time>2021-09-02T12:50:13.000Z</time>
      </trkpt>
      <trkpt lat="47.36084" lon="-2.34911">
        <ele>2</ele>
        <time>2021-09-02T12:50:22.000Z</time>
      </trkpt>
      <trkpt lat="47.36084" lon="-2.34885">
        <ele>2</ele>
        <time>2021-09-02T12:50:26.000Z</time>
      </trkpt>
      <trkpt lat="47.36082" lon="-2.3488">
        <ele>2</ele>
        <time>2021-09-02T12:50:27.000Z</time>
      </trkpt>
      <trkpt lat="47.36071" lon="-2.34875">
        <ele>2.4000000953674</ele>
        <time>2021-09-02T12:50:30.000Z</time>
      </trkpt>
      <trkpt lat="47.36067" lon="-2.34876">
        <ele>2.7999999523163</ele>
        <time>2021-09-02T12:50:31.000Z</time>
      </trkpt>
      <trkpt lat="47.36062" lon="-2.34876">
        <ele>3.2000000476837</ele>
        <time>2021-09-02T12:50:32.000Z</time>
      </trkpt>
      <trkpt lat="47.36058" lon="-2.34875">
        <ele>3.5999999046326</ele>
        <time>2021-09-02T12:50:33.000Z</time>
      </trkpt>
      <trkpt lat="47.36054" lon="-2.34875">
        <ele>4</ele>
        <time>2021-09-02T12:50:34.000Z</time>
      </trkpt>
      <trkpt lat="47.36046" lon="-2.34874">
        <ele>4</ele>
        <time>2021-09-02T12:50:36.000Z</time>
      </trkpt>
      <trkpt lat="47.36041" lon="-2.34873">
        <ele>4</ele>
        <time>2021-09-02T12:50:37.000Z</time>
      </trkpt>
      <trkpt lat="47.36013" lon="-2.34872">
        <ele>4</ele>
        <time>2021-09-02T12:50:43.000Z</time>
      </trkpt>
      <trkpt lat="47.35994" lon="-2.3487">
        <ele>4</ele>
        <time>2021-09-02T12:50:47.000Z</time>
      </trkpt>
      <trkpt lat="47.3598" lon="-2.34868">
        <ele>4</ele>
        <time>2021-09-02T12:50:50.000Z</time>
      </trkpt>
      <trkpt lat="47.35966" lon="-2.34867">
        <ele>4</ele>
        <time>2021-09-02T12:50:53.000Z</time>
      </trkpt>
      <trkpt lat="47.35943" lon="-2.34864">
        <ele>4</ele>
        <time>2021-09-02T12:50:58.000Z</time>
      </trkpt>
      <trkpt lat="47.35921" lon="-2.34856">
        <ele>4</ele>
        <time>2021-09-02T12:51:04.000Z</time>
      </trkpt>
      <trkpt lat="47.35912" lon="-2.34843">
        <ele>4</ele>
        <time>2021-09-02T12:51:09.000Z</time>
      </trkpt>
      <trkpt lat="47.3591" lon="-2.3484">
        <ele>4</ele>
        <time>2021-09-02T12:51:13.000Z</time>
      </trkpt>
      <trkpt lat="47.35908" lon="-2.34833">
        <ele>2</ele>
        <time>2021-09-02T12:53:03.000Z</time>
      </trkpt>
      <trkpt lat="47.35905" lon="-2.34827">
        <ele>2</ele>
        <time>2021-09-02T12:53:06.000Z</time>
      </trkpt>
      <trkpt lat="47.35899" lon="-2.3481">
        <ele>2</ele>
        <time>2021-09-02T12:53:13.000Z</time>
      </trkpt>
      <trkpt lat="47.35889" lon="-2.34788">
        <ele>2</ele>
        <time>2021-09-02T12:53:20.000Z</time>
      </trkpt>
      <trkpt lat="47.35875" lon="-2.34753">
        <ele>2</ele>
        <time>2021-09-02T12:53:28.000Z</time>
      </trkpt>
      <trkpt lat="47.35857" lon="-2.34708">
        <ele>2</ele>
        <time>2021-09-02T12:53:37.000Z</time>
      </trkpt>
      <trkpt lat="47.35844" lon="-2.34677">
        <ele>2</ele>
        <time>2021-09-02T12:53:43.000Z</time>
      </trkpt>
      <trkpt lat="47.35826" lon="-2.34638">
        <ele>2</ele>
        <time>2021-09-02T12:53:51.000Z</time>
      </trkpt>
      <trkpt lat="47.35816" lon="-2.34614">
        <ele>2</ele>
        <time>2021-09-02T12:53:56.000Z</time>
      </trkpt>
      <trkpt lat="47.358" lon="-2.34576">
        <ele>2</ele>
        <time>2021-09-02T12:54:03.000Z</time>
      </trkpt>
      <trkpt lat="47.35794" lon="-2.34537">
        <ele>2</ele>
        <time>2021-09-02T12:54:09.000Z</time>
      </trkpt>
      <trkpt lat="47.35792" lon="-2.34519">
        <ele>2.4000000953674</ele>
        <time>2021-09-02T12:54:12.000Z</time>
      </trkpt>
      <trkpt lat="47.35791" lon="-2.34513">
        <ele>2.7999999523163</ele>
        <time>2021-09-02T12:54:13.000Z</time>
      </trkpt>
      <trkpt lat="47.35791" lon="-2.34507">
        <ele>3.2000000476837</ele>
        <time>2021-09-02T12:54:14.000Z</time>
      </trkpt>
      <trkpt lat="47.3579" lon="-2.34501">
        <ele>3.5999999046326</ele>
        <time>2021-09-02T12:54:15.000Z</time>
      </trkpt>
      <trkpt lat="47.35789" lon="-2.34495">
        <ele>4</ele>
        <time>2021-09-02T12:54:16.000Z</time>
      </trkpt>
      <trkpt lat="47.35787" lon="-2.34481">
        <ele>4</ele>
        <time>2021-09-02T12:54:18.000Z</time>
      </trkpt>
      <trkpt lat="47.35781" lon="-2.3443">
        <ele>4</ele>
        <time>2021-09-02T12:54:26.000Z</time>
      </trkpt>
      <trkpt lat="47.35774" lon="-2.34371">
        <ele>4</ele>
        <time>2021-09-02T12:54:36.000Z</time>
      </trkpt>
      <trkpt lat="47.35767" lon="-2.34322">
        <ele>4</ele>
        <time>2021-09-02T12:54:45.000Z</time>
      </trkpt>
      <trkpt lat="47.35763" lon="-2.3429">
        <ele>4.4000000953674</ele>
        <time>2021-09-02T12:54:51.000Z</time>
      </trkpt>
      <trkpt lat="47.35763" lon="-2.34286">
        <ele>4.8000001907349</ele>
        <time>2021-09-02T12:54:52.000Z</time>
      </trkpt>
      <trkpt lat="47.35763" lon="-2.34281">
        <ele>5.1999998092651</ele>
        <time>2021-09-02T12:54:53.000Z</time>
      </trkpt>
      <trkpt lat="47.35763" lon="-2.34276">
        <ele>5.5999999046326</ele>
        <time>2021-09-02T12:54:54.000Z</time>
      </trkpt>
      <trkpt lat="47.35763" lon="-2.34271">
        <ele>6</ele>
        <time>2021-09-02T12:54:55.000Z</time>
      </trkpt>
      <trkpt lat="47.35763" lon="-2.34251">
        <ele>6</ele>
        <time>2021-09-02T12:54:59.000Z</time>
      </trkpt>
      <trkpt lat="47.35764" lon="-2.34231">
        <ele>6</ele>
        <time>2021-09-02T12:55:03.000Z</time>
      </trkpt>
      <trkpt lat="47.35763" lon="-2.34212">
        <ele>6</ele>
        <time>2021-09-02T12:55:07.000Z</time>
      </trkpt>
      <trkpt lat="47.35762" lon="-2.34208">
        <ele>6</ele>
        <time>2021-09-02T12:55:08.000Z</time>
      </trkpt>
      <trkpt lat="47.35755" lon="-2.34204">
        <ele>6</ele>
        <time>2021-09-02T12:55:10.000Z</time>
      </trkpt>
      <trkpt lat="47.35743" lon="-2.34205">
        <ele>6</ele>
        <time>2021-09-02T12:55:13.000Z</time>
      </trkpt>
      <trkpt lat="47.35739" lon="-2.34206">
        <ele>6</ele>
        <time>2021-09-02T12:55:14.000Z</time>
      </trkpt>
      <trkpt lat="47.3571" lon="-2.34213">
        <ele>6</ele>
        <time>2021-09-02T12:55:20.000Z</time>
      </trkpt>
      <trkpt lat="47.35675" lon="-2.34206">
        <ele>6</ele>
        <time>2021-09-02T12:55:26.000Z</time>
      </trkpt>
      <trkpt lat="47.35635" lon="-2.34195">
        <ele>5.5999999046326</ele>
        <time>2021-09-02T12:55:33.000Z</time>
      </trkpt>
      <trkpt lat="47.3563" lon="-2.34194">
        <ele>5.1999998092651</ele>
        <time>2021-09-02T12:55:34.000Z</time>
      </trkpt>
      <trkpt lat="47.35624" lon="-2.34192">
        <ele>4.4000000953674</ele>
        <time>2021-09-02T12:55:35.000Z</time>
      </trkpt>
      <trkpt lat="47.35618" lon="-2.34191">
        <ele>4</ele>
        <time>2021-09-02T12:55:36.000Z</time>
      </trkpt>
      <trkpt lat="47.35595" lon="-2.34187">
        <ele>4</ele>
        <time>2021-09-02T12:55:40.000Z</time>
      </trkpt>
      <trkpt lat="47.35573" lon="-2.34186">
        <ele>4</ele>
        <time>2021-09-02T12:55:44.000Z</time>
      </trkpt>
      <trkpt lat="47.35569" lon="-2.34189">
        <ele>4</ele>
        <time>2021-09-02T12:55:45.000Z</time>
      </trkpt>
      <trkpt lat="47.35566" lon="-2.34196">
        <ele>3.5999999046326</ele>
        <time>2021-09-02T12:55:46.000Z</time>
      </trkpt>
      <trkpt lat="47.35564" lon="-2.34204">
        <ele>3.2000000476837</ele>
        <time>2021-09-02T12:55:47.000Z</time>
      </trkpt>
      <trkpt lat="47.35564" lon="-2.34213">
        <ele>2.7999999523163</ele>
        <time>2021-09-02T12:55:48.000Z</time>
      </trkpt>
      <trkpt lat="47.35564" lon="-2.34221">
        <ele>2.4000000953674</ele>
        <time>2021-09-02T12:55:49.000Z</time>
      </trkpt>
      <trkpt lat="47.35564" lon="-2.3423">
        <ele>2</ele>
        <time>2021-09-02T12:55:50.000Z</time>
      </trkpt>
      <trkpt lat="47.35561" lon="-2.34273">
        <ele>2</ele>
        <time>2021-09-02T12:55:55.000Z</time>
      </trkpt>
      <trkpt lat="47.3556" lon="-2.34291">
        <ele>1.6000000238419</ele>
        <time>2021-09-02T12:55:57.000Z</time>
      </trkpt>
      <trkpt lat="47.35559" lon="-2.343">
        <ele>1</ele>
        <time>2021-09-02T12:55:58.000Z</time>
      </trkpt>
      <trkpt lat="47.35558" lon="-2.3431">
        <ele>0.60000002384186</ele>
        <time>2021-09-02T12:55:59.000Z</time>
      </trkpt>
      <trkpt lat="47.35557" lon="-2.3432">
        <ele>-0.20000000298023</ele>
        <time>2021-09-02T12:56:00.000Z</time>
      </trkpt>
      <trkpt lat="47.35555" lon="-2.34339">
        <ele>-0.20000000298023</ele>
        <time>2021-09-02T12:56:02.000Z</time>
      </trkpt>
      <trkpt lat="47.35543" lon="-2.34397">
        <ele>-0.20000000298023</ele>
        <time>2021-09-02T12:56:08.000Z</time>
      </trkpt>
      <trkpt lat="47.35533" lon="-2.34451">
        <ele>-0.20000000298023</ele>
        <time>2021-09-02T12:56:14.000Z</time>
      </trkpt>
      <trkpt lat="47.35528" lon="-2.34493">
        <ele>-0.60000002384186</ele>
        <time>2021-09-02T12:56:18.000Z</time>
      </trkpt>
      <trkpt lat="47.35526" lon="-2.34504">
        <ele>-1.2000000476837</ele>
        <time>2021-09-02T12:56:19.000Z</time>
      </trkpt>
      <trkpt lat="47.35524" lon="-2.34515">
        <ele>-1.6000000238419</ele>
        <time>2021-09-02T12:56:20.000Z</time>
      </trkpt>
      <trkpt lat="47.35522" lon="-2.34525">
        <ele>-2</ele>
        <time>2021-09-02T12:56:21.000Z</time>
      </trkpt>
      <trkpt lat="47.3552" lon="-2.34535">
        <ele>-2.5999999046326</ele>
        <time>2021-09-02T12:56:22.000Z</time>
      </trkpt>
      <trkpt lat="47.35517" lon="-2.34545">
        <ele>-2.5999999046326</ele>
        <time>2021-09-02T12:56:23.000Z</time>
      </trkpt>
      <trkpt lat="47.3551" lon="-2.34562">
        <ele>-2.5999999046326</ele>
        <time>2021-09-02T12:56:25.000Z</time>
      </trkpt>
      <trkpt lat="47.35483" lon="-2.34619">
        <ele>-2.5999999046326</ele>
        <time>2021-09-02T12:56:32.000Z</time>
      </trkpt>
      <trkpt lat="47.35463" lon="-2.34669">
        <ele>-2.5999999046326</ele>
        <time>2021-09-02T12:56:38.000Z</time>
      </trkpt>
      <trkpt lat="47.35451" lon="-2.34701">
        <ele>-2.5999999046326</ele>
        <time>2021-09-02T12:56:42.000Z</time>
      </trkpt>
      <trkpt lat="47.35446" lon="-2.34705">
        <ele>-2.5999999046326</ele>
        <time>2021-09-02T12:56:43.000Z</time>
      </trkpt>
      <trkpt lat="47.35436" lon="-2.34702">
        <ele>-2.2000000476837</ele>
        <time>2021-09-02T12:56:45.000Z</time>
      </trkpt>
      <trkpt lat="47.35432" lon="-2.34696">
        <ele>-1.6000000238419</ele>
        <time>2021-09-02T12:56:46.000Z</time>
      </trkpt>
      <trkpt lat="47.35429" lon="-2.3469">
        <ele>-1.2000000476837</ele>
        <time>2021-09-02T12:56:47.000Z</time>
      </trkpt>
      <trkpt lat="47.35426" lon="-2.34683">
        <ele>-0.80000001192093</ele>
        <time>2021-09-02T12:56:48.000Z</time>
      </trkpt>
      <trkpt lat="47.35423" lon="-2.34677">
        <ele>-0.40000000596046</ele>
        <time>2021-09-02T12:56:49.000Z</time>
      </trkpt>
      <trkpt lat="47.35409" lon="-2.34638">
        <ele>-0.40000000596046</ele>
        <time>2021-09-02T12:56:54.000Z</time>
      </trkpt>
      <trkpt lat="47.35389" lon="-2.34582">
        <ele>-0.40000000596046</ele>
        <time>2021-09-02T12:57:01.000Z</time>
      </trkpt>
      <trkpt lat="47.3537" lon="-2.34539">
        <ele>-0.40000000596046</ele>
        <time>2021-09-02T12:57:07.000Z</time>
      </trkpt>
      <trkpt lat="47.35361" lon="-2.34521">
        <ele>-0.40000000596046</ele>
        <time>2021-09-02T12:57:10.000Z</time>
      </trkpt>
      <trkpt lat="47.35353" lon="-2.34511">
        <ele>-0.40000000596046</ele>
        <time>2021-09-02T12:57:12.000Z</time>
      </trkpt>
      <trkpt lat="47.35349" lon="-2.34506">
        <ele>-0.40000000596046</ele>
        <time>2021-09-02T12:57:13.000Z</time>
      </trkpt>
      <trkpt lat="47.35336" lon="-2.34493">
        <ele>-0.40000000596046</ele>
        <time>2021-09-02T12:57:16.000Z</time>
      </trkpt>
      <trkpt lat="47.35331" lon="-2.3449">
        <ele>-0.40000000596046</ele>
        <time>2021-09-02T12:57:17.000Z</time>
      </trkpt>
      <trkpt lat="47.35298" lon="-2.34472">
        <ele>-0.40000000596046</ele>
        <time>2021-09-02T12:57:24.000Z</time>
      </trkpt>
      <trkpt lat="47.35274" lon="-2.34475">
        <ele>-0.40000000596046</ele>
        <time>2021-09-02T12:57:28.000Z</time>
      </trkpt>
      <trkpt lat="47.35268" lon="-2.34477">
        <ele>-0.40000000596046</ele>
        <time>2021-09-02T12:57:29.000Z</time>
      </trkpt>
      <trkpt lat="47.35226" lon="-2.34495">
        <ele>-0.40000000596046</ele>
        <time>2021-09-02T12:57:36.000Z</time>
      </trkpt>
      <trkpt lat="47.3522" lon="-2.34497">
        <ele>-0.40000000596046</ele>
        <time>2021-09-02T12:57:37.000Z</time>
      </trkpt>
      <trkpt lat="47.35174" lon="-2.34515">
        <ele>-0.40000000596046</ele>
        <time>2021-09-02T12:57:45.000Z</time>
      </trkpt>
      <trkpt lat="47.35135" lon="-2.34532">
        <ele>-0.40000000596046</ele>
        <time>2021-09-02T12:57:53.000Z</time>
      </trkpt>
      <trkpt lat="47.35099" lon="-2.34545">
        <ele>-0.40000000596046</ele>
        <time>2021-09-02T12:58:01.000Z</time>
      </trkpt>
      <trkpt lat="47.35089" lon="-2.34546">
        <ele>-0.40000000596046</ele>
        <time>2021-09-02T12:58:05.000Z</time>
      </trkpt>
      <trkpt lat="47.35085" lon="-2.34545">
        <ele>-0.40000000596046</ele>
        <time>2021-09-02T12:58:11.000Z</time>
      </trkpt>
      <trkpt lat="47.35084" lon="-2.34541">
        <ele>-0.40000000596046</ele>
        <time>2021-09-02T12:58:14.000Z</time>
      </trkpt>
      <trkpt lat="47.35082" lon="-2.34534">
        <ele>-0.40000000596046</ele>
        <time>2021-09-02T12:58:17.000Z</time>
      </trkpt>
      <trkpt lat="47.35078" lon="-2.34524">
        <ele>-0.40000000596046</ele>
        <time>2021-09-02T12:58:20.000Z</time>
      </trkpt>
      <trkpt lat="47.35074" lon="-2.34516">
        <ele>-0.80000001192093</ele>
        <time>2021-09-02T12:58:22.000Z</time>
      </trkpt>
      <trkpt lat="47.35073" lon="-2.34513">
        <ele>-1.2000000476837</ele>
        <time>2021-09-02T12:58:23.000Z</time>
      </trkpt>
      <trkpt lat="47.35071" lon="-2.34509">
        <ele>-1.6000000238419</ele>
        <time>2021-09-02T12:58:24.000Z</time>
      </trkpt>
      <trkpt lat="47.3507" lon="-2.34507">
        <ele>-2</ele>
        <time>2021-09-02T12:58:25.000Z</time>
      </trkpt>
      <trkpt lat="47.35068" lon="-2.34505">
        <ele>-2.4000000953674</ele>
        <time>2021-09-02T12:58:26.000Z</time>
      </trkpt>
      <trkpt lat="47.35067" lon="-2.34503">
        <ele>-2.4000000953674</ele>
        <time>2021-09-02T12:58:27.000Z</time>
      </trkpt>
      <trkpt lat="47.35066" lon="-2.34502">
        <ele>-3.2000000476837</ele>
        <time>2021-09-02T12:58:28.000Z</time>
      </trkpt>
      <trkpt lat="47.35064" lon="-2.34501">
        <ele>-3.5999999046326</ele>
        <time>2021-09-02T12:58:29.000Z</time>
      </trkpt>
      <trkpt lat="47.35063" lon="-2.345">
        <ele>-4</ele>
        <time>2021-09-02T12:58:30.000Z</time>
      </trkpt>
      <trkpt lat="47.35062" lon="-2.34499">
        <ele>-4.4000000953674</ele>
        <time>2021-09-02T12:58:31.000Z</time>
      </trkpt>
      <trkpt lat="47.35062" lon="-2.34498">
        <ele>-4.4000000953674</ele>
        <time>2021-09-02T12:58:33.000Z</time>
      </trkpt>
      <trkpt lat="47.3504" lon="-2.3449">
        <ele>-6.4000000953674</ele>
        <time>2021-09-02T13:00:05.000Z</time>
      </trkpt>
      <trkpt lat="47.35037" lon="-2.34484">
        <ele>-6.4000000953674</ele>
        <time>2021-09-02T13:00:08.000Z</time>
      </trkpt>
      <trkpt lat="47.35028" lon="-2.34475">
        <ele>-6.4000000953674</ele>
        <time>2021-09-02T13:00:13.000Z</time>
      </trkpt>
      <trkpt lat="47.35025" lon="-2.34474">
        <ele>-6.4000000953674</ele>
        <time>2021-09-02T13:00:14.000Z</time>
      </trkpt>
      <trkpt lat="47.35019" lon="-2.34472">
        <ele>-6</ele>
        <time>2021-09-02T13:00:17.000Z</time>
      </trkpt>
      <trkpt lat="47.35017" lon="-2.34471">
        <ele>-5.5999999046326</ele>
        <time>2021-09-02T13:00:18.000Z</time>
      </trkpt>
      <trkpt lat="47.35015" lon="-2.34469">
        <ele>-5.1999998092651</ele>
        <time>2021-09-02T13:00:19.000Z</time>
      </trkpt>
      <trkpt lat="47.35013" lon="-2.34468">
        <ele>-4.8000001907349</ele>
        <time>2021-09-02T13:00:20.000Z</time>
      </trkpt>
      <trkpt lat="47.35011" lon="-2.34466">
        <ele>-4.4000000953674</ele>
        <time>2021-09-02T13:00:21.000Z</time>
      </trkpt>
      <trkpt lat="47.35006" lon="-2.34456">
        <ele>-4.4000000953674</ele>
        <time>2021-09-02T13:00:25.000Z</time>
      </trkpt>
      <trkpt lat="47.35006" lon="-2.34443">
        <ele>-4.4000000953674</ele>
        <time>2021-09-02T13:00:31.000Z</time>
      </trkpt>
      <trkpt lat="47.35007" lon="-2.34442">
        <ele>-4</ele>
        <time>2021-09-02T13:00:33.000Z</time>
      </trkpt>
      <trkpt lat="47.35007" lon="-2.34442">
        <ele>-3.5999999046326</ele>
        <time>2021-09-02T13:00:34.000Z</time>
      </trkpt>
      <trkpt lat="47.35002" lon="-2.34433">
        <ele>-2.2000000476837</ele>
        <time>2021-09-02T13:01:22.000Z</time>
      </trkpt>
      <trkpt lat="47.34998" lon="-2.34413">
        <ele>-2.2000000476837</ele>
        <time>2021-09-02T13:01:29.000Z</time>
      </trkpt>
      <trkpt lat="47.34995" lon="-2.34399">
        <ele>-1.7999999523163</ele>
        <time>2021-09-02T13:01:35.000Z</time>
      </trkpt>
      <trkpt lat="47.34994" lon="-2.34397">
        <ele>-1.3999999761581</ele>
        <time>2021-09-02T13:01:36.000Z</time>
      </trkpt>
      <trkpt lat="47.34994" lon="-2.34395">
        <ele>-1</ele>
        <time>2021-09-02T13:01:37.000Z</time>
      </trkpt>
      <trkpt lat="47.34994" lon="-2.34393">
        <ele>-0.60000002384186</ele>
        <time>2021-09-02T13:01:38.000Z</time>
      </trkpt>
      <trkpt lat="47.34993" lon="-2.34391">
        <ele>-0.20000000298023</ele>
        <time>2021-09-02T13:01:39.000Z</time>
      </trkpt>
      <trkpt lat="47.3499" lon="-2.34383">
        <ele>-0.20000000298023</ele>
        <time>2021-09-02T13:01:43.000Z</time>
      </trkpt>
      <trkpt lat="47.34994" lon="-2.34371">
        <ele>-0.20000000298023</ele>
        <time>2021-09-02T13:01:48.000Z</time>
      </trkpt>
      <trkpt lat="47.35004" lon="-2.34366">
        <ele>-0.20000000298023</ele>
        <time>2021-09-02T13:01:53.000Z</time>
      </trkpt>
      <trkpt lat="47.35017" lon="-2.3436">
        <ele>-0.20000000298023</ele>
        <time>2021-09-02T13:01:59.000Z</time>
      </trkpt>
      <trkpt lat="47.35021" lon="-2.34357">
        <ele>-0.20000000298023</ele>
        <time>2021-09-02T13:02:02.000Z</time>
      </trkpt>
      <trkpt lat="47.35021" lon="-2.34355">
        <ele>-0.20000000298023</ele>
        <time>2021-09-02T13:02:04.000Z</time>
      </trkpt>
      <trkpt lat="47.35019" lon="-2.3435">
        <ele>-0.20000000298023</ele>
        <time>2021-09-02T13:02:06.000Z</time>
      </trkpt>
      <trkpt lat="47.35016" lon="-2.34339">
        <ele>-0.20000000298023</ele>
        <time>2021-09-02T13:02:10.000Z</time>
      </trkpt>
      <trkpt lat="47.35014" lon="-2.34333">
        <ele>-0.20000000298023</ele>
        <time>2021-09-02T13:02:12.000Z</time>
      </trkpt>
      <trkpt lat="47.3501" lon="-2.34318">
        <ele>-0.20000000298023</ele>
        <time>2021-09-02T13:02:17.000Z</time>
      </trkpt>
      <trkpt lat="47.35005" lon="-2.343">
        <ele>0.20000000298023</ele>
        <time>2021-09-02T13:02:23.000Z</time>
      </trkpt>
      <trkpt lat="47.35003" lon="-2.34297">
        <ele>0.60000002384186</ele>
        <time>2021-09-02T13:02:24.000Z</time>
      </trkpt>
      <trkpt lat="47.35002" lon="-2.34295">
        <ele>1</ele>
        <time>2021-09-02T13:02:25.000Z</time>
      </trkpt>
      <trkpt lat="47.35002" lon="-2.34291">
        <ele>1.3999999761581</ele>
        <time>2021-09-02T13:02:26.000Z</time>
      </trkpt>
      <trkpt lat="47.35001" lon="-2.34288">
        <ele>1.7999999523163</ele>
        <time>2021-09-02T13:02:27.000Z</time>
      </trkpt>
      <trkpt lat="47.34993" lon="-2.3427">
        <ele>1.7999999523163</ele>
        <time>2021-09-02T13:02:32.000Z</time>
      </trkpt>
      <trkpt lat="47.34989" lon="-2.34252">
        <ele>2.2000000476837</ele>
        <time>2021-09-02T13:02:37.000Z</time>
      </trkpt>
      <trkpt lat="47.34988" lon="-2.34247">
        <ele>2.5999999046326</ele>
        <time>2021-09-02T13:02:38.000Z</time>
      </trkpt>
      <trkpt lat="47.34987" lon="-2.34243">
        <ele>3</ele>
        <time>2021-09-02T13:02:39.000Z</time>
      </trkpt>
      <trkpt lat="47.34986" lon="-2.34238">
        <ele>3.4000000953674</ele>
        <time>2021-09-02T13:02:40.000Z</time>
      </trkpt>
      <trkpt lat="47.34985" lon="-2.34234">
        <ele>3.7999999523163</ele>
        <time>2021-09-02T13:02:41.000Z</time>
      </trkpt>
      <trkpt lat="47.34982" lon="-2.3422">
        <ele>3.7999999523163</ele>
        <time>2021-09-02T13:02:45.000Z</time>
      </trkpt>
      <trkpt lat="47.34976" lon="-2.34207">
        <ele>4.1999998092651</ele>
        <time>2021-09-02T13:02:50.000Z</time>
      </trkpt>
      <trkpt lat="47.34975" lon="-2.34205">
        <ele>4.5999999046326</ele>
        <time>2021-09-02T13:02:51.000Z</time>
      </trkpt>
      <trkpt lat="47.34973" lon="-2.34202">
        <ele>5</ele>
        <time>2021-09-02T13:02:52.000Z</time>
      </trkpt>
      <trkpt lat="47.34971" lon="-2.34199">
        <ele>5.4000000953674</ele>
        <time>2021-09-02T13:02:53.000Z</time>
      </trkpt>
      <trkpt lat="47.34969" lon="-2.34197">
        <ele>6</ele>
        <time>2021-09-02T13:02:54.000Z</time>
      </trkpt>
      <trkpt lat="47.34967" lon="-2.34197">
        <ele>6</ele>
        <time>2021-09-02T13:02:55.000Z</time>
      </trkpt>
      <trkpt lat="47.34951" lon="-2.34198">
        <ele>6</ele>
        <time>2021-09-02T13:03:01.000Z</time>
      </trkpt>
      <trkpt lat="47.3494" lon="-2.34202">
        <ele>6.4000000953674</ele>
        <time>2021-09-02T13:03:05.000Z</time>
      </trkpt>
      <trkpt lat="47.34938" lon="-2.34203">
        <ele>6.8000001907349</ele>
        <time>2021-09-02T13:03:06.000Z</time>
      </trkpt>
      <trkpt lat="47.34935" lon="-2.34205">
        <ele>7.1999998092651</ele>
        <time>2021-09-02T13:03:07.000Z</time>
      </trkpt>
      <trkpt lat="47.34933" lon="-2.34207">
        <ele>7.8000001907349</ele>
        <time>2021-09-02T13:03:08.000Z</time>
      </trkpt>
      <trkpt lat="47.3493" lon="-2.3421">
        <ele>8.1999998092651</ele>
        <time>2021-09-02T13:03:09.000Z</time>
      </trkpt>
      <trkpt lat="47.34918" lon="-2.34211">
        <ele>8.1999998092651</ele>
        <time>2021-09-02T13:03:13.000Z</time>
      </trkpt>
      <trkpt lat="47.34903" lon="-2.34207">
        <ele>8.6000003814697</ele>
        <time>2021-09-02T13:03:18.000Z</time>
      </trkpt>
      <trkpt lat="47.349" lon="-2.34206">
        <ele>9</ele>
        <time>2021-09-02T13:03:19.000Z</time>
      </trkpt>
      <trkpt lat="47.34897" lon="-2.34206">
        <ele>9.6000003814697</ele>
        <time>2021-09-02T13:03:20.000Z</time>
      </trkpt>
      <trkpt lat="47.34895" lon="-2.34206">
        <ele>10</ele>
        <time>2021-09-02T13:03:21.000Z</time>
      </trkpt>
      <trkpt lat="47.34893" lon="-2.34206">
        <ele>10.39999961853</ele>
        <time>2021-09-02T13:03:22.000Z</time>
      </trkpt>
      <trkpt lat="47.3489" lon="-2.34207">
        <ele>10.39999961853</ele>
        <time>2021-09-02T13:03:24.000Z</time>
      </trkpt>
      <trkpt lat="47.34888" lon="-2.34208">
        <ele>11.199999809265</ele>
        <time>2021-09-02T13:03:26.000Z</time>
      </trkpt>
      <trkpt lat="47.34887" lon="-2.34209">
        <ele>11.800000190735</ele>
        <time>2021-09-02T13:03:27.000Z</time>
      </trkpt>
      <trkpt lat="47.34886" lon="-2.3421">
        <ele>12.199999809265</ele>
        <time>2021-09-02T13:03:28.000Z</time>
      </trkpt>
      <trkpt lat="47.34884" lon="-2.34211">
        <ele>12.60000038147</ele>
        <time>2021-09-02T13:03:29.000Z</time>
      </trkpt>
      <trkpt lat="47.34882" lon="-2.34211">
        <ele>12.60000038147</ele>
        <time>2021-09-02T13:03:30.000Z</time>
      </trkpt>
      <trkpt lat="47.34878" lon="-2.34214">
        <ele>12.60000038147</ele>
        <time>2021-09-02T13:03:33.000Z</time>
      </trkpt>
      <trkpt lat="47.34876" lon="-2.34217">
        <ele>12.60000038147</ele>
        <time>2021-09-02T13:03:34.000Z</time>
      </trkpt>
      <trkpt lat="47.3487" lon="-2.34228">
        <ele>12</ele>
        <time>2021-09-02T13:03:37.000Z</time>
      </trkpt>
      <trkpt lat="47.34869" lon="-2.3423">
        <ele>11.60000038147</ele>
        <time>2021-09-02T13:03:38.000Z</time>
      </trkpt>
      <trkpt lat="47.34866" lon="-2.34232">
        <ele>11.199999809265</ele>
        <time>2021-09-02T13:03:39.000Z</time>
      </trkpt>
      <trkpt lat="47.34864" lon="-2.34235">
        <ele>10.800000190735</ele>
        <time>2021-09-02T13:03:40.000Z</time>
      </trkpt>
      <trkpt lat="47.34862" lon="-2.34236">
        <ele>10.199999809265</ele>
        <time>2021-09-02T13:03:41.000Z</time>
      </trkpt>
      <trkpt lat="47.34856" lon="-2.34235">
        <ele>9.8000001907349</ele>
        <time>2021-09-02T13:03:44.000Z</time>
      </trkpt>
      <trkpt lat="47.34854" lon="-2.34234">
        <ele>9.3999996185303</ele>
        <time>2021-09-02T13:03:45.000Z</time>
      </trkpt>
      <trkpt lat="47.34851" lon="-2.34233">
        <ele>9</ele>
        <time>2021-09-02T13:03:46.000Z</time>
      </trkpt>
      <trkpt lat="47.34848" lon="-2.34231">
        <ele>8.6000003814697</ele>
        <time>2021-09-02T13:03:47.000Z</time>
      </trkpt>
      <trkpt lat="47.34844" lon="-2.3423">
        <ele>8.1999998092651</ele>
        <time>2021-09-02T13:03:48.000Z</time>
      </trkpt>
      <trkpt lat="47.34841" lon="-2.34229">
        <ele>8.1999998092651</ele>
        <time>2021-09-02T13:03:49.000Z</time>
      </trkpt>
      <trkpt lat="47.34825" lon="-2.34229">
        <ele>7.8000001907349</ele>
        <time>2021-09-02T13:03:53.000Z</time>
      </trkpt>
      <trkpt lat="47.3482" lon="-2.34229">
        <ele>7.4000000953674</ele>
        <time>2021-09-02T13:03:54.000Z</time>
      </trkpt>
      <trkpt lat="47.34815" lon="-2.34229">
        <ele>7</ele>
        <time>2021-09-02T13:03:55.000Z</time>
      </trkpt>
      <trkpt lat="47.34809" lon="-2.34229">
        <ele>6.4000000953674</ele>
        <time>2021-09-02T13:03:56.000Z</time>
      </trkpt>
      <trkpt lat="47.34804" lon="-2.3423">
        <ele>6</ele>
        <time>2021-09-02T13:03:57.000Z</time>
      </trkpt>
      <trkpt lat="47.34788" lon="-2.34234">
        <ele>6</ele>
        <time>2021-09-02T13:04:00.000Z</time>
      </trkpt>
      <trkpt lat="47.34772" lon="-2.34238">
        <ele>5.5999999046326</ele>
        <time>2021-09-02T13:04:03.000Z</time>
      </trkpt>
      <trkpt lat="47.34767" lon="-2.3424">
        <ele>5.1999998092651</ele>
        <time>2021-09-02T13:04:04.000Z</time>
      </trkpt>
      <trkpt lat="47.34761" lon="-2.34243">
        <ele>4.8000001907349</ele>
        <time>2021-09-02T13:04:05.000Z</time>
      </trkpt>
      <trkpt lat="47.34756" lon="-2.34245">
        <ele>4.4000000953674</ele>
        <time>2021-09-02T13:04:06.000Z</time>
      </trkpt>
      <trkpt lat="47.3475" lon="-2.34246">
        <ele>4</ele>
        <time>2021-09-02T13:04:07.000Z</time>
      </trkpt>
      <trkpt lat="47.34745" lon="-2.34247">
        <ele>4</ele>
        <time>2021-09-02T13:04:08.000Z</time>
      </trkpt>
      <trkpt lat="47.34699" lon="-2.34257">
        <ele>3.5999999046326</ele>
        <time>2021-09-02T13:04:16.000Z</time>
      </trkpt>
      <trkpt lat="47.34693" lon="-2.34258">
        <ele>3.2000000476837</ele>
        <time>2021-09-02T13:04:17.000Z</time>
      </trkpt>
      <trkpt lat="47.34688" lon="-2.34259">
        <ele>2.5999999046326</ele>
        <time>2021-09-02T13:04:18.000Z</time>
      </trkpt>
      <trkpt lat="47.34682" lon="-2.3426">
        <ele>2.2000000476837</ele>
        <time>2021-09-02T13:04:19.000Z</time>
      </trkpt>
      <trkpt lat="47.34677" lon="-2.34261">
        <ele>1.7999999523163</ele>
        <time>2021-09-02T13:04:20.000Z</time>
      </trkpt>
      <trkpt lat="47.34661" lon="-2.34262">
        <ele>1.7999999523163</ele>
        <time>2021-09-02T13:04:23.000Z</time>
      </trkpt>
      <trkpt lat="47.34657" lon="-2.34263">
        <ele>1.7999999523163</ele>
        <time>2021-09-02T13:04:24.000Z</time>
      </trkpt>
      <trkpt lat="47.34647" lon="-2.34272">
        <ele>1.7999999523163</ele>
        <time>2021-09-02T13:04:27.000Z</time>
      </trkpt>
      <trkpt lat="47.34634" lon="-2.34288">
        <ele>1.7999999523163</ele>
        <time>2021-09-02T13:04:33.000Z</time>
      </trkpt>
      <trkpt lat="47.34625" lon="-2.34297">
        <ele>1.7999999523163</ele>
        <time>2021-09-02T13:04:38.000Z</time>
      </trkpt>
      <trkpt lat="47.34623" lon="-2.34296">
        <ele>1.7999999523163</ele>
        <time>2021-09-02T13:04:39.000Z</time>
      </trkpt>
      <trkpt lat="47.34613" lon="-2.34296">
        <ele>1.7999999523163</ele>
        <time>2021-09-02T13:04:45.000Z</time>
      </trkpt>
      <trkpt lat="47.34605" lon="-2.34296">
        <ele>2.2000000476837</ele>
        <time>2021-09-02T13:04:47.000Z</time>
      </trkpt>
      <trkpt lat="47.34601" lon="-2.34296">
        <ele>2.5999999046326</ele>
        <time>2021-09-02T13:04:48.000Z</time>
      </trkpt>
      <trkpt lat="47.34596" lon="-2.34296">
        <ele>3</ele>
        <time>2021-09-02T13:04:49.000Z</time>
      </trkpt>
      <trkpt lat="47.34592" lon="-2.34298">
        <ele>3.4000000953674</ele>
        <time>2021-09-02T13:04:50.000Z</time>
      </trkpt>
      <trkpt lat="47.34587" lon="-2.343">
        <ele>3.7999999523163</ele>
        <time>2021-09-02T13:04:51.000Z</time>
      </trkpt>
      <trkpt lat="47.34575" lon="-2.34306">
        <ele>3.7999999523163</ele>
        <time>2021-09-02T13:04:54.000Z</time>
      </trkpt>
      <trkpt lat="47.34559" lon="-2.34314">
        <ele>4.1999998092651</ele>
        <time>2021-09-02T13:04:58.000Z</time>
      </trkpt>
      <trkpt lat="47.34556" lon="-2.34317">
        <ele>4.5999999046326</ele>
        <time>2021-09-02T13:04:59.000Z</time>
      </trkpt>
      <trkpt lat="47.34553" lon="-2.3432">
        <ele>5.1999998092651</ele>
        <time>2021-09-02T13:05:00.000Z</time>
      </trkpt>
      <trkpt lat="47.34549" lon="-2.34323">
        <ele>5.5999999046326</ele>
        <time>2021-09-02T13:05:01.000Z</time>
      </trkpt>
      <trkpt lat="47.34545" lon="-2.34326">
        <ele>6</ele>
        <time>2021-09-02T13:05:02.000Z</time>
      </trkpt>
      <trkpt lat="47.34535" lon="-2.34338">
        <ele>6</ele>
        <time>2021-09-02T13:05:05.000Z</time>
      </trkpt>
      <trkpt lat="47.34528" lon="-2.34346">
        <ele>6</ele>
        <time>2021-09-02T13:05:07.000Z</time>
      </trkpt>
      <trkpt lat="47.34504" lon="-2.34371">
        <ele>6</ele>
        <time>2021-09-02T13:05:13.000Z</time>
      </trkpt>
      <trkpt lat="47.34489" lon="-2.34386">
        <ele>6</ele>
        <time>2021-09-02T13:05:17.000Z</time>
      </trkpt>
      <trkpt lat="47.3448" lon="-2.34391">
        <ele>6</ele>
        <time>2021-09-02T13:05:19.000Z</time>
      </trkpt>
      <trkpt lat="47.34455" lon="-2.344">
        <ele>6.4000000953674</ele>
        <time>2021-09-02T13:05:24.000Z</time>
      </trkpt>
      <trkpt lat="47.3445" lon="-2.34402">
        <ele>6.8000001907349</ele>
        <time>2021-09-02T13:05:25.000Z</time>
      </trkpt>
      <trkpt lat="47.34445" lon="-2.34404">
        <ele>7.1999998092651</ele>
        <time>2021-09-02T13:05:26.000Z</time>
      </trkpt>
      <trkpt lat="47.3444" lon="-2.34406">
        <ele>7.5999999046326</ele>
        <time>2021-09-02T13:05:27.000Z</time>
      </trkpt>
      <trkpt lat="47.34435" lon="-2.34407">
        <ele>8</ele>
        <time>2021-09-02T13:05:28.000Z</time>
      </trkpt>
      <trkpt lat="47.34416" lon="-2.34416">
        <ele>8</ele>
        <time>2021-09-02T13:05:32.000Z</time>
      </trkpt>
      <trkpt lat="47.34385" lon="-2.34431">
        <ele>8</ele>
        <time>2021-09-02T13:05:39.000Z</time>
      </trkpt>
      <trkpt lat="47.34381" lon="-2.34434">
        <ele>8</ele>
        <time>2021-09-02T13:05:40.000Z</time>
      </trkpt>
      <trkpt lat="47.34351" lon="-2.34452">
        <ele>8</ele>
        <time>2021-09-02T13:05:47.000Z</time>
      </trkpt>
      <trkpt lat="47.34342" lon="-2.34456">
        <ele>8</ele>
        <time>2021-09-02T13:05:49.000Z</time>
      </trkpt>
      <trkpt lat="47.34326" lon="-2.34464">
        <ele>8</ele>
        <time>2021-09-02T13:05:53.000Z</time>
      </trkpt>
      <trkpt lat="47.34317" lon="-2.34466">
        <ele>8</ele>
        <time>2021-09-02T13:05:55.000Z</time>
      </trkpt>
      <trkpt lat="47.34298" lon="-2.34468">
        <ele>8</ele>
        <time>2021-09-02T13:05:59.000Z</time>
      </trkpt>
      <trkpt lat="47.34268" lon="-2.34471">
        <ele>8</ele>
        <time>2021-09-02T13:06:06.000Z</time>
      </trkpt>
      <trkpt lat="47.34241" lon="-2.34483">
        <ele>8</ele>
        <time>2021-09-02T13:06:12.000Z</time>
      </trkpt>
      <trkpt lat="47.34233" lon="-2.34488">
        <ele>8</ele>
        <time>2021-09-02T13:06:14.000Z</time>
      </trkpt>
      <trkpt lat="47.34198" lon="-2.34505">
        <ele>8</ele>
        <time>2021-09-02T13:06:22.000Z</time>
      </trkpt>
      <trkpt lat="47.34175" lon="-2.34515">
        <ele>8</ele>
        <time>2021-09-02T13:06:27.000Z</time>
      </trkpt>
      <trkpt lat="47.34167" lon="-2.34517">
        <ele>8</ele>
        <time>2021-09-02T13:06:29.000Z</time>
      </trkpt>
      <trkpt lat="47.3415" lon="-2.34522">
        <ele>8.3999996185303</ele>
        <time>2021-09-02T13:06:33.000Z</time>
      </trkpt>
      <trkpt lat="47.34146" lon="-2.34524">
        <ele>8.8000001907349</ele>
        <time>2021-09-02T13:06:34.000Z</time>
      </trkpt>
      <trkpt lat="47.34143" lon="-2.34525">
        <ele>9.1999998092651</ele>
        <time>2021-09-02T13:06:35.000Z</time>
      </trkpt>
      <trkpt lat="47.34139" lon="-2.34527">
        <ele>9.6000003814697</ele>
        <time>2021-09-02T13:06:36.000Z</time>
      </trkpt>
      <trkpt lat="47.34136" lon="-2.34529">
        <ele>10</ele>
        <time>2021-09-02T13:06:37.000Z</time>
      </trkpt>
      <trkpt lat="47.34118" lon="-2.34539">
        <ele>10</ele>
        <time>2021-09-02T13:06:42.000Z</time>
      </trkpt>
      <trkpt lat="47.3409" lon="-2.34555">
        <ele>10</ele>
        <time>2021-09-02T13:06:49.000Z</time>
      </trkpt>
      <trkpt lat="47.34066" lon="-2.34575">
        <ele>10</ele>
        <time>2021-09-02T13:06:56.000Z</time>
      </trkpt>
      <trkpt lat="47.34053" lon="-2.34588">
        <ele>10</ele>
        <time>2021-09-02T13:07:01.000Z</time>
      </trkpt>
      <trkpt lat="47.3403" lon="-2.34599">
        <ele>10</ele>
        <time>2021-09-02T13:07:07.000Z</time>
      </trkpt>
      <trkpt lat="47.34009" lon="-2.34599">
        <ele>10</ele>
        <time>2021-09-02T13:07:12.000Z</time>
      </trkpt>
      <trkpt lat="47.34001" lon="-2.34598">
        <ele>10.60000038147</ele>
        <time>2021-09-02T13:07:14.000Z</time>
      </trkpt>
      <trkpt lat="47.33996" lon="-2.34597">
        <ele>11</ele>
        <time>2021-09-02T13:07:15.000Z</time>
      </trkpt>
      <trkpt lat="47.33992" lon="-2.34596">
        <ele>11.39999961853</ele>
        <time>2021-09-02T13:07:16.000Z</time>
      </trkpt>
      <trkpt lat="47.33988" lon="-2.34595">
        <ele>11.800000190735</ele>
        <time>2021-09-02T13:07:17.000Z</time>
      </trkpt>
      <trkpt lat="47.33984" lon="-2.34595">
        <ele>12.199999809265</ele>
        <time>2021-09-02T13:07:18.000Z</time>
      </trkpt>
      <trkpt lat="47.33958" lon="-2.3459">
        <ele>12.199999809265</ele>
        <time>2021-09-02T13:07:24.000Z</time>
      </trkpt>
      <trkpt lat="47.33931" lon="-2.34589">
        <ele>12.199999809265</ele>
        <time>2021-09-02T13:07:30.000Z</time>
      </trkpt>
      <trkpt lat="47.33911" lon="-2.3459">
        <ele>12.199999809265</ele>
        <time>2021-09-02T13:07:35.000Z</time>
      </trkpt>
      <trkpt lat="47.33893" lon="-2.34599">
        <ele>12.199999809265</ele>
        <time>2021-09-02T13:07:40.000Z</time>
      </trkpt>
      <trkpt lat="47.33888" lon="-2.34608">
        <ele>12.199999809265</ele>
        <time>2021-09-02T13:07:42.000Z</time>
      </trkpt>
      <trkpt lat="47.33886" lon="-2.3462">
        <ele>12.199999809265</ele>
        <time>2021-09-02T13:07:44.000Z</time>
      </trkpt>
      <trkpt lat="47.33884" lon="-2.3466">
        <ele>12.199999809265</ele>
        <time>2021-09-02T13:07:50.000Z</time>
      </trkpt>
      <trkpt lat="47.33878" lon="-2.3471">
        <ele>12.199999809265</ele>
        <time>2021-09-02T13:07:57.000Z</time>
      </trkpt>
      <trkpt lat="47.33877" lon="-2.34742">
        <ele>11.800000190735</ele>
        <time>2021-09-02T13:08:01.000Z</time>
      </trkpt>
      <trkpt lat="47.33876" lon="-2.34751">
        <ele>11.39999961853</ele>
        <time>2021-09-02T13:08:02.000Z</time>
      </trkpt>
      <trkpt lat="47.33876" lon="-2.34759">
        <ele>10.800000190735</ele>
        <time>2021-09-02T13:08:03.000Z</time>
      </trkpt>
      <trkpt lat="47.33876" lon="-2.34767">
        <ele>10.39999961853</ele>
        <time>2021-09-02T13:08:04.000Z</time>
      </trkpt>
      <trkpt lat="47.33875" lon="-2.34774">
        <ele>10</ele>
        <time>2021-09-02T13:08:05.000Z</time>
      </trkpt>
      <trkpt lat="47.33869" lon="-2.34812">
        <ele>10</ele>
        <time>2021-09-02T13:08:10.000Z</time>
      </trkpt>
      <trkpt lat="47.33867" lon="-2.34819">
        <ele>10</ele>
        <time>2021-09-02T13:08:11.000Z</time>
      </trkpt>
      <trkpt lat="47.33861" lon="-2.34833">
        <ele>10</ele>
        <time>2021-09-02T13:08:14.000Z</time>
      </trkpt>
      <trkpt lat="47.33844" lon="-2.34848">
        <ele>10</ele>
        <time>2021-09-02T13:08:19.000Z</time>
      </trkpt>
      <trkpt lat="47.33826" lon="-2.34867">
        <ele>10</ele>
        <time>2021-09-02T13:08:24.000Z</time>
      </trkpt>
      <trkpt lat="47.33811" lon="-2.34897">
        <ele>10</ele>
        <time>2021-09-02T13:08:30.000Z</time>
      </trkpt>
      <trkpt lat="47.33805" lon="-2.34909">
        <ele>10</ele>
        <time>2021-09-02T13:08:32.000Z</time>
      </trkpt>
      <trkpt lat="47.33795" lon="-2.34924">
        <ele>10</ele>
        <time>2021-09-02T13:08:35.000Z</time>
      </trkpt>
      <trkpt lat="47.33777" lon="-2.34949">
        <ele>10</ele>
        <time>2021-09-02T13:08:40.000Z</time>
      </trkpt>
      <trkpt lat="47.33772" lon="-2.34954">
        <ele>10</ele>
        <time>2021-09-02T13:08:41.000Z</time>
      </trkpt>
      <trkpt lat="47.33751" lon="-2.34972">
        <ele>10</ele>
        <time>2021-09-02T13:08:45.000Z</time>
      </trkpt>
      <trkpt lat="47.33738" lon="-2.34985">
        <ele>10</ele>
        <time>2021-09-02T13:08:48.000Z</time>
      </trkpt>
      <trkpt lat="47.33721" lon="-2.34999">
        <ele>10.39999961853</ele>
        <time>2021-09-02T13:08:52.000Z</time>
      </trkpt>
      <trkpt lat="47.33718" lon="-2.35002">
        <ele>10.800000190735</ele>
        <time>2021-09-02T13:08:53.000Z</time>
      </trkpt>
      <trkpt lat="47.33714" lon="-2.35003">
        <ele>11.199999809265</ele>
        <time>2021-09-02T13:08:54.000Z</time>
      </trkpt>
      <trkpt lat="47.33711" lon="-2.35003">
        <ele>11.60000038147</ele>
        <time>2021-09-02T13:08:55.000Z</time>
      </trkpt>
      <trkpt lat="47.33707" lon="-2.35003">
        <ele>12</ele>
        <time>2021-09-02T13:08:56.000Z</time>
      </trkpt>
      <trkpt lat="47.33701" lon="-2.34998">
        <ele>12</ele>
        <time>2021-09-02T13:08:58.000Z</time>
      </trkpt>
      <trkpt lat="47.33695" lon="-2.34989">
        <ele>12</ele>
        <time>2021-09-02T13:09:00.000Z</time>
      </trkpt>
      <trkpt lat="47.33686" lon="-2.34976">
        <ele>12</ele>
        <time>2021-09-02T13:09:03.000Z</time>
      </trkpt>
      <trkpt lat="47.33669" lon="-2.34961">
        <ele>12</ele>
        <time>2021-09-02T13:09:08.000Z</time>
      </trkpt>
      <trkpt lat="47.33665" lon="-2.34963">
        <ele>12</ele>
        <time>2021-09-02T13:09:09.000Z</time>
      </trkpt>
      <trkpt lat="47.33647" lon="-2.34966">
        <ele>12</ele>
        <time>2021-09-02T13:09:14.000Z</time>
      </trkpt>
      <trkpt lat="47.33629" lon="-2.34955">
        <ele>12</ele>
        <time>2021-09-02T13:09:20.000Z</time>
      </trkpt>
      <trkpt lat="47.33622" lon="-2.34952">
        <ele>12.39999961853</ele>
        <time>2021-09-02T13:09:22.000Z</time>
      </trkpt>
      <trkpt lat="47.3362" lon="-2.34951">
        <ele>12.800000190735</ele>
        <time>2021-09-02T13:09:23.000Z</time>
      </trkpt>
      <trkpt lat="47.33617" lon="-2.34949">
        <ele>13.199999809265</ele>
        <time>2021-09-02T13:09:24.000Z</time>
      </trkpt>
      <trkpt lat="47.33613" lon="-2.34947">
        <ele>13.60000038147</ele>
        <time>2021-09-02T13:09:25.000Z</time>
      </trkpt>
      <trkpt lat="47.3361" lon="-2.34945">
        <ele>14</ele>
        <time>2021-09-02T13:09:26.000Z</time>
      </trkpt>
      <trkpt lat="47.33606" lon="-2.34943">
        <ele>14</ele>
        <time>2021-09-02T13:09:27.000Z</time>
      </trkpt>
      <trkpt lat="47.33581" lon="-2.3493">
        <ele>14</ele>
        <time>2021-09-02T13:09:34.000Z</time>
      </trkpt>
      <trkpt lat="47.33562" lon="-2.34922">
        <ele>14</ele>
        <time>2021-09-02T13:09:40.000Z</time>
      </trkpt>
      <trkpt lat="47.33558" lon="-2.3492">
        <ele>14</ele>
        <time>2021-09-02T13:09:44.000Z</time>
      </trkpt>
      <trkpt lat="47.33534" lon="-2.34904">
        <ele>14</ele>
        <time>2021-09-02T13:11:32.000Z</time>
      </trkpt>
      <trkpt lat="47.33532" lon="-2.34902">
        <ele>14</ele>
        <time>2021-09-02T13:11:33.000Z</time>
      </trkpt>
      <trkpt lat="47.33523" lon="-2.34894">
        <ele>14.39999961853</ele>
        <time>2021-09-02T13:11:37.000Z</time>
      </trkpt>
      <trkpt lat="47.33519" lon="-2.34892">
        <ele>14.800000190735</ele>
        <time>2021-09-02T13:11:38.000Z</time>
      </trkpt>
      <trkpt lat="47.33515" lon="-2.34891">
        <ele>15.199999809265</ele>
        <time>2021-09-02T13:11:39.000Z</time>
      </trkpt>
      <trkpt lat="47.33512" lon="-2.34889">
        <ele>16</ele>
        <time>2021-09-02T13:11:40.000Z</time>
      </trkpt>
      <trkpt lat="47.33488" lon="-2.34892">
        <ele>16</ele>
        <time>2021-09-02T13:11:46.000Z</time>
      </trkpt>
      <trkpt lat="47.33464" lon="-2.34898">
        <ele>16</ele>
        <time>2021-09-02T13:11:52.000Z</time>
      </trkpt>
      <trkpt lat="47.33436" lon="-2.3491">
        <ele>16</ele>
        <time>2021-09-02T13:11:58.000Z</time>
      </trkpt>
      <trkpt lat="47.33405" lon="-2.34925">
        <ele>16</ele>
        <time>2021-09-02T13:12:04.000Z</time>
      </trkpt>
      <trkpt lat="47.33387" lon="-2.3493">
        <ele>16</ele>
        <time>2021-09-02T13:12:08.000Z</time>
      </trkpt>
      <trkpt lat="47.33381" lon="-2.34928">
        <ele>16</ele>
        <time>2021-09-02T13:12:10.000Z</time>
      </trkpt>
      <trkpt lat="47.33363" lon="-2.34935">
        <ele>16</ele>
        <time>2021-09-02T13:12:16.000Z</time>
      </trkpt>
      <trkpt lat="47.33348" lon="-2.34938">
        <ele>16</ele>
        <time>2021-09-02T13:12:19.000Z</time>
      </trkpt>
      <trkpt lat="47.33338" lon="-2.34938">
        <ele>16</ele>
        <time>2021-09-02T13:12:21.000Z</time>
      </trkpt>
      <trkpt lat="47.33328" lon="-2.34938">
        <ele>15.60000038147</ele>
        <time>2021-09-02T13:12:24.000Z</time>
      </trkpt>
      <trkpt lat="47.33325" lon="-2.34939">
        <ele>15.199999809265</ele>
        <time>2021-09-02T13:12:25.000Z</time>
      </trkpt>
      <trkpt lat="47.33323" lon="-2.34939">
        <ele>14.800000190735</ele>
        <time>2021-09-02T13:12:26.000Z</time>
      </trkpt>
      <trkpt lat="47.3332" lon="-2.34938">
        <ele>14.39999961853</ele>
        <time>2021-09-02T13:12:27.000Z</time>
      </trkpt>
      <trkpt lat="47.33317" lon="-2.34938">
        <ele>14</ele>
        <time>2021-09-02T13:12:28.000Z</time>
      </trkpt>
      <trkpt lat="47.33306" lon="-2.34938">
        <ele>14</ele>
        <time>2021-09-02T13:12:31.000Z</time>
      </trkpt>
      <trkpt lat="47.33301" lon="-2.34938">
        <ele>14</ele>
        <time>2021-09-02T13:12:32.000Z</time>
      </trkpt>
      <trkpt lat="47.33283" lon="-2.34939">
        <ele>14</ele>
        <time>2021-09-02T13:12:36.000Z</time>
      </trkpt>
      <trkpt lat="47.33264" lon="-2.34941">
        <ele>14</ele>
        <time>2021-09-02T13:12:40.000Z</time>
      </trkpt>
      <trkpt lat="47.33256" lon="-2.34943">
        <ele>14</ele>
        <time>2021-09-02T13:12:42.000Z</time>
      </trkpt>
      <trkpt lat="47.3323" lon="-2.34954">
        <ele>14</ele>
        <time>2021-09-02T13:12:49.000Z</time>
      </trkpt>
      <trkpt lat="47.33216" lon="-2.3497">
        <ele>14</ele>
        <time>2021-09-02T13:12:54.000Z</time>
      </trkpt>
      <trkpt lat="47.33198" lon="-2.34992">
        <ele>14</ele>
        <time>2021-09-02T13:13:00.000Z</time>
      </trkpt>
      <trkpt lat="47.33175" lon="-2.35015">
        <ele>14</ele>
        <time>2021-09-02T13:13:07.000Z</time>
      </trkpt>
      <trkpt lat="47.33171" lon="-2.35015">
        <ele>14</ele>
        <time>2021-09-02T13:13:08.000Z</time>
      </trkpt>
      <trkpt lat="47.33167" lon="-2.35013">
        <ele>14</ele>
        <time>2021-09-02T13:13:10.000Z</time>
      </trkpt>
      <trkpt lat="47.33157" lon="-2.35002">
        <ele>14</ele>
        <time>2021-09-02T13:13:13.000Z</time>
      </trkpt>
      <trkpt lat="47.33154" lon="-2.35001">
        <ele>14</ele>
        <time>2021-09-02T13:13:14.000Z</time>
      </trkpt>
      <trkpt lat="47.33151" lon="-2.35004">
        <ele>14</ele>
        <time>2021-09-02T13:13:15.000Z</time>
      </trkpt>
      <trkpt lat="47.33145" lon="-2.35011">
        <ele>14</ele>
        <time>2021-09-02T13:13:17.000Z</time>
      </trkpt>
      <trkpt lat="47.33139" lon="-2.35024">
        <ele>14</ele>
        <time>2021-09-02T13:13:20.000Z</time>
      </trkpt>
      <trkpt lat="47.33132" lon="-2.35038">
        <ele>14</ele>
        <time>2021-09-02T13:13:23.000Z</time>
      </trkpt>
      <trkpt lat="47.33111" lon="-2.35068">
        <ele>14</ele>
        <time>2021-09-02T13:13:30.000Z</time>
      </trkpt>
      <trkpt lat="47.33098" lon="-2.35089">
        <ele>14</ele>
        <time>2021-09-02T13:13:35.000Z</time>
      </trkpt>
      <trkpt lat="47.33085" lon="-2.35108">
        <ele>14</ele>
        <time>2021-09-02T13:13:39.000Z</time>
      </trkpt>
      <trkpt lat="47.33078" lon="-2.35117">
        <ele>14</ele>
        <time>2021-09-02T13:13:41.000Z</time>
      </trkpt>
      <trkpt lat="47.33058" lon="-2.35149">
        <ele>14</ele>
        <time>2021-09-02T13:13:48.000Z</time>
      </trkpt>
      <trkpt lat="47.33044" lon="-2.35179">
        <ele>14</ele>
        <time>2021-09-02T13:13:53.000Z</time>
      </trkpt>
      <trkpt lat="47.33036" lon="-2.35185">
        <ele>14</ele>
        <time>2021-09-02T13:13:55.000Z</time>
      </trkpt>
      <trkpt lat="47.33034" lon="-2.35185">
        <ele>14</ele>
        <time>2021-09-02T13:13:56.000Z</time>
      </trkpt>
      <trkpt lat="47.33024" lon="-2.35175">
        <ele>14</ele>
        <time>2021-09-02T13:14:00.000Z</time>
      </trkpt>
      <trkpt lat="47.33015" lon="-2.35149">
        <ele>14</ele>
        <time>2021-09-02T13:14:05.000Z</time>
      </trkpt>
      <trkpt lat="47.3301" lon="-2.35087">
        <ele>14</ele>
        <time>2021-09-02T13:14:13.000Z</time>
      </trkpt>
      <trkpt lat="47.33009" lon="-2.35056">
        <ele>14</ele>
        <time>2021-09-02T13:14:18.000Z</time>
      </trkpt>
      <trkpt lat="47.33" lon="-2.35024">
        <ele>14</ele>
        <time>2021-09-02T13:14:24.000Z</time>
      </trkpt>
      <trkpt lat="47.32987" lon="-2.34988">
        <ele>14</ele>
        <time>2021-09-02T13:14:29.000Z</time>
      </trkpt>
      <trkpt lat="47.32976" lon="-2.34955">
        <ele>14</ele>
        <time>2021-09-02T13:14:34.000Z</time>
      </trkpt>
      <trkpt lat="47.32958" lon="-2.34912">
        <ele>14</ele>
        <time>2021-09-02T13:14:40.000Z</time>
      </trkpt>
      <trkpt lat="47.32941" lon="-2.34868">
        <ele>13.60000038147</ele>
        <time>2021-09-02T13:14:47.000Z</time>
      </trkpt>
      <trkpt lat="47.32938" lon="-2.34862">
        <ele>13.199999809265</ele>
        <time>2021-09-02T13:14:48.000Z</time>
      </trkpt>
      <trkpt lat="47.32936" lon="-2.34855">
        <ele>12.800000190735</ele>
        <time>2021-09-02T13:14:49.000Z</time>
      </trkpt>
      <trkpt lat="47.32933" lon="-2.34847">
        <ele>12.39999961853</ele>
        <time>2021-09-02T13:14:50.000Z</time>
      </trkpt>
      <trkpt lat="47.3293" lon="-2.3484">
        <ele>11.800000190735</ele>
        <time>2021-09-02T13:14:51.000Z</time>
      </trkpt>
      <trkpt lat="47.32926" lon="-2.34827">
        <ele>11.800000190735</ele>
        <time>2021-09-02T13:14:53.000Z</time>
      </trkpt>
      <trkpt lat="47.32911" lon="-2.34791">
        <ele>11.800000190735</ele>
        <time>2021-09-02T13:14:59.000Z</time>
      </trkpt>
      <trkpt lat="47.32899" lon="-2.34786">
        <ele>11.800000190735</ele>
        <time>2021-09-02T13:15:02.000Z</time>
      </trkpt>
      <trkpt lat="47.32895" lon="-2.34788">
        <ele>11.800000190735</ele>
        <time>2021-09-02T13:15:03.000Z</time>
      </trkpt>
      <trkpt lat="47.32883" lon="-2.34795">
        <ele>11.800000190735</ele>
        <time>2021-09-02T13:15:06.000Z</time>
      </trkpt>
      <trkpt lat="47.32875" lon="-2.34801">
        <ele>11.800000190735</ele>
        <time>2021-09-02T13:15:08.000Z</time>
      </trkpt>
      <trkpt lat="47.32847" lon="-2.34821">
        <ele>11.800000190735</ele>
        <time>2021-09-02T13:15:15.000Z</time>
      </trkpt>
      <trkpt lat="47.3281" lon="-2.34847">
        <ele>11.800000190735</ele>
        <time>2021-09-02T13:15:23.000Z</time>
      </trkpt>
      <trkpt lat="47.32785" lon="-2.34867">
        <ele>11.800000190735</ele>
        <time>2021-09-02T13:15:29.000Z</time>
      </trkpt>
      <trkpt lat="47.3277" lon="-2.34878">
        <ele>11.800000190735</ele>
        <time>2021-09-02T13:15:34.000Z</time>
      </trkpt>
      <trkpt lat="47.32744" lon="-2.34895">
        <ele>11.800000190735</ele>
        <time>2021-09-02T13:15:42.000Z</time>
      </trkpt>
      <trkpt lat="47.32709" lon="-2.34921">
        <ele>11.800000190735</ele>
        <time>2021-09-02T13:15:53.000Z</time>
      </trkpt>
      <trkpt lat="47.32688" lon="-2.34938">
        <ele>12.199999809265</ele>
        <time>2021-09-02T13:16:00.000Z</time>
      </trkpt>
      <trkpt lat="47.32685" lon="-2.3494">
        <ele>12.800000190735</ele>
        <time>2021-09-02T13:16:01.000Z</time>
      </trkpt>
      <trkpt lat="47.32683" lon="-2.34942">
        <ele>13.199999809265</ele>
        <time>2021-09-02T13:16:02.000Z</time>
      </trkpt>
      <trkpt lat="47.3268" lon="-2.34944">
        <ele>13.60000038147</ele>
        <time>2021-09-02T13:16:03.000Z</time>
      </trkpt>
      <trkpt lat="47.32677" lon="-2.34946">
        <ele>14</ele>
        <time>2021-09-02T13:16:04.000Z</time>
      </trkpt>
      <trkpt lat="47.32664" lon="-2.34959">
        <ele>14</ele>
        <time>2021-09-02T13:16:09.000Z</time>
      </trkpt>
      <trkpt lat="47.32642" lon="-2.3497">
        <ele>14</ele>
        <time>2021-09-02T13:16:15.000Z</time>
      </trkpt>
      <trkpt lat="47.32613" lon="-2.34985">
        <ele>14</ele>
        <time>2021-09-02T13:16:23.000Z</time>
      </trkpt>
      <trkpt lat="47.32583" lon="-2.34998">
        <ele>14</ele>
        <time>2021-09-02T13:16:31.000Z</time>
      </trkpt>
      <trkpt lat="47.32559" lon="-2.3501">
        <ele>14.39999961853</ele>
        <time>2021-09-02T13:16:38.000Z</time>
      </trkpt>
      <trkpt lat="47.32555" lon="-2.35012">
        <ele>14.800000190735</ele>
        <time>2021-09-02T13:16:39.000Z</time>
      </trkpt>
      <trkpt lat="47.32551" lon="-2.35012">
        <ele>15.199999809265</ele>
        <time>2021-09-02T13:16:40.000Z</time>
      </trkpt>
      <trkpt lat="47.32547" lon="-2.35013">
        <ele>15.60000038147</ele>
        <time>2021-09-02T13:16:41.000Z</time>
      </trkpt>
      <trkpt lat="47.32543" lon="-2.35014">
        <ele>16</ele>
        <time>2021-09-02T13:16:42.000Z</time>
      </trkpt>
      <trkpt lat="47.32534" lon="-2.35016">
        <ele>16</ele>
        <time>2021-09-02T13:16:44.000Z</time>
      </trkpt>
      <trkpt lat="47.32511" lon="-2.35022">
        <ele>16</ele>
        <time>2021-09-02T13:16:50.000Z</time>
      </trkpt>
      <trkpt lat="47.32485" lon="-2.3503">
        <ele>16</ele>
        <time>2021-09-02T13:16:57.000Z</time>
      </trkpt>
      <trkpt lat="47.32462" lon="-2.35035">
        <ele>16</ele>
        <time>2021-09-02T13:17:03.000Z</time>
      </trkpt>
      <trkpt lat="47.32431" lon="-2.35043">
        <ele>16</ele>
        <time>2021-09-02T13:17:11.000Z</time>
      </trkpt>
      <trkpt lat="47.32409" lon="-2.35044">
        <ele>16.39999961853</ele>
        <time>2021-09-02T13:17:16.000Z</time>
      </trkpt>
      <trkpt lat="47.32405" lon="-2.35044">
        <ele>16.799999237061</ele>
        <time>2021-09-02T13:17:17.000Z</time>
      </trkpt>
      <trkpt lat="47.324" lon="-2.35045">
        <ele>17.200000762939</ele>
        <time>2021-09-02T13:17:18.000Z</time>
      </trkpt>
      <trkpt lat="47.32396" lon="-2.35046">
        <ele>17.60000038147</ele>
        <time>2021-09-02T13:17:19.000Z</time>
      </trkpt>
      <trkpt lat="47.32392" lon="-2.35046">
        <ele>18</ele>
        <time>2021-09-02T13:17:20.000Z</time>
      </trkpt>
      <trkpt lat="47.32385" lon="-2.35047">
        <ele>18</ele>
        <time>2021-09-02T13:17:22.000Z</time>
      </trkpt>
      <trkpt lat="47.32377" lon="-2.35048">
        <ele>18</ele>
        <time>2021-09-02T13:17:24.000Z</time>
      </trkpt>
      <trkpt lat="47.32345" lon="-2.35048">
        <ele>18</ele>
        <time>2021-09-02T13:17:31.000Z</time>
      </trkpt>
      <trkpt lat="47.32316" lon="-2.35049">
        <ele>17.60000038147</ele>
        <time>2021-09-02T13:17:37.000Z</time>
      </trkpt>
      <trkpt lat="47.32311" lon="-2.35049">
        <ele>17.200000762939</ele>
        <time>2021-09-02T13:17:38.000Z</time>
      </trkpt>
      <trkpt lat="47.32306" lon="-2.35048">
        <ele>16.799999237061</ele>
        <time>2021-09-02T13:17:39.000Z</time>
      </trkpt>
      <trkpt lat="47.32301" lon="-2.35047">
        <ele>16.39999961853</ele>
        <time>2021-09-02T13:17:40.000Z</time>
      </trkpt>
      <trkpt lat="47.32297" lon="-2.35046">
        <ele>16</ele>
        <time>2021-09-02T13:17:41.000Z</time>
      </trkpt>
      <trkpt lat="47.32282" lon="-2.35045">
        <ele>16</ele>
        <time>2021-09-02T13:17:44.000Z</time>
      </trkpt>
      <trkpt lat="47.3226" lon="-2.35041">
        <ele>16</ele>
        <time>2021-09-02T13:17:48.000Z</time>
      </trkpt>
      <trkpt lat="47.3225" lon="-2.35043">
        <ele>15.199999809265</ele>
        <time>2021-09-02T13:17:50.000Z</time>
      </trkpt>
      <trkpt lat="47.32245" lon="-2.35043">
        <ele>14.800000190735</ele>
        <time>2021-09-02T13:17:51.000Z</time>
      </trkpt>
      <trkpt lat="47.3224" lon="-2.35044">
        <ele>14.39999961853</ele>
        <time>2021-09-02T13:17:52.000Z</time>
      </trkpt>
      <trkpt lat="47.32235" lon="-2.35044">
        <ele>14</ele>
        <time>2021-09-02T13:17:53.000Z</time>
      </trkpt>
      <trkpt lat="47.3221" lon="-2.35049">
        <ele>14</ele>
        <time>2021-09-02T13:17:58.000Z</time>
      </trkpt>
      <trkpt lat="47.32174" lon="-2.35052">
        <ele>14</ele>
        <time>2021-09-02T13:18:05.000Z</time>
      </trkpt>
      <trkpt lat="47.32156" lon="-2.35055">
        <ele>14</ele>
        <time>2021-09-02T13:18:09.000Z</time>
      </trkpt>
      <trkpt lat="47.32142" lon="-2.35057">
        <ele>14</ele>
        <time>2021-09-02T13:18:12.000Z</time>
      </trkpt>
      <trkpt lat="47.32137" lon="-2.35057">
        <ele>14</ele>
        <time>2021-09-02T13:18:13.000Z</time>
      </trkpt>
      <trkpt lat="47.32103" lon="-2.3506">
        <ele>14</ele>
        <time>2021-09-02T13:18:20.000Z</time>
      </trkpt>
      <trkpt lat="47.32073" lon="-2.35061">
        <ele>14</ele>
        <time>2021-09-02T13:18:27.000Z</time>
      </trkpt>
      <trkpt lat="47.32047" lon="-2.35059">
        <ele>14</ele>
        <time>2021-09-02T13:18:34.000Z</time>
      </trkpt>
      <trkpt lat="47.32037" lon="-2.35058">
        <ele>13.60000038147</ele>
        <time>2021-09-02T13:18:38.000Z</time>
      </trkpt>
      <trkpt lat="47.32035" lon="-2.35059">
        <ele>13.199999809265</ele>
        <time>2021-09-02T13:18:39.000Z</time>
      </trkpt>
      <trkpt lat="47.32035" lon="-2.3506">
        <ele>12.39999961853</ele>
        <time>2021-09-02T13:18:40.000Z</time>
      </trkpt>
      <trkpt lat="47.32034" lon="-2.3506">
        <ele>12</ele>
        <time>2021-09-02T13:18:41.000Z</time>
      </trkpt>
      <trkpt lat="47.32034" lon="-2.35059">
        <ele>12</ele>
        <time>2021-09-02T13:18:42.000Z</time>
      </trkpt>
      <trkpt lat="47.32033" lon="-2.35064">
        <ele>12</ele>
        <time>2021-09-02T13:18:59.000Z</time>
      </trkpt>
      <trkpt lat="47.32038" lon="-2.35081">
        <ele>12</ele>
        <time>2021-09-02T13:19:03.000Z</time>
      </trkpt>
      <trkpt lat="47.3204" lon="-2.3509">
        <ele>12</ele>
        <time>2021-09-02T13:19:05.000Z</time>
      </trkpt>
      <trkpt lat="47.32039" lon="-2.35108">
        <ele>12</ele>
        <time>2021-09-02T13:19:08.000Z</time>
      </trkpt>
      <trkpt lat="47.32038" lon="-2.35114">
        <ele>12</ele>
        <time>2021-09-02T13:19:09.000Z</time>
      </trkpt>
      <trkpt lat="47.32031" lon="-2.35126">
        <ele>12</ele>
        <time>2021-09-02T13:19:12.000Z</time>
      </trkpt>
      <trkpt lat="47.32024" lon="-2.35134">
        <ele>12</ele>
        <time>2021-09-02T13:19:14.000Z</time>
      </trkpt>
      <trkpt lat="47.31995" lon="-2.35161">
        <ele>12</ele>
        <time>2021-09-02T13:19:21.000Z</time>
      </trkpt>
      <trkpt lat="47.31974" lon="-2.35183">
        <ele>12</ele>
        <time>2021-09-02T13:19:27.000Z</time>
      </trkpt>
      <trkpt lat="47.31949" lon="-2.35211">
        <ele>12</ele>
        <time>2021-09-02T13:19:34.000Z</time>
      </trkpt>
      <trkpt lat="47.31927" lon="-2.3523">
        <ele>12</ele>
        <time>2021-09-02T13:19:40.000Z</time>
      </trkpt>
      <trkpt lat="47.31901" lon="-2.35255">
        <ele>12</ele>
        <time>2021-09-02T13:19:47.000Z</time>
      </trkpt>
      <trkpt lat="47.31888" lon="-2.35265">
        <ele>12.39999961853</ele>
        <time>2021-09-02T13:19:50.000Z</time>
      </trkpt>
      <trkpt lat="47.31884" lon="-2.35269">
        <ele>12.800000190735</ele>
        <time>2021-09-02T13:19:51.000Z</time>
      </trkpt>
      <trkpt lat="47.31881" lon="-2.35272">
        <ele>13.199999809265</ele>
        <time>2021-09-02T13:19:52.000Z</time>
      </trkpt>
      <trkpt lat="47.31876" lon="-2.35275">
        <ele>13.60000038147</ele>
        <time>2021-09-02T13:19:53.000Z</time>
      </trkpt>
      <trkpt lat="47.31872" lon="-2.35278">
        <ele>14</ele>
        <time>2021-09-02T13:19:54.000Z</time>
      </trkpt>
      <trkpt lat="47.31859" lon="-2.35289">
        <ele>14</ele>
        <time>2021-09-02T13:19:57.000Z</time>
      </trkpt>
      <trkpt lat="47.31827" lon="-2.35311">
        <ele>14</ele>
        <time>2021-09-02T13:20:04.000Z</time>
      </trkpt>
      <trkpt lat="47.31802" lon="-2.35326">
        <ele>14.39999961853</ele>
        <time>2021-09-02T13:20:10.000Z</time>
      </trkpt>
      <trkpt lat="47.31798" lon="-2.35329">
        <ele>14.800000190735</ele>
        <time>2021-09-02T13:20:11.000Z</time>
      </trkpt>
      <trkpt lat="47.31794" lon="-2.35331">
        <ele>15.199999809265</ele>
        <time>2021-09-02T13:20:12.000Z</time>
      </trkpt>
      <trkpt lat="47.3179" lon="-2.35334">
        <ele>15.800000190735</ele>
        <time>2021-09-02T13:20:13.000Z</time>
      </trkpt>
      <trkpt lat="47.31787" lon="-2.35337">
        <ele>16.200000762939</ele>
        <time>2021-09-02T13:20:14.000Z</time>
      </trkpt>
      <trkpt lat="47.31776" lon="-2.35345">
        <ele>16.200000762939</ele>
        <time>2021-09-02T13:20:17.000Z</time>
      </trkpt>
      <trkpt lat="47.31755" lon="-2.35363">
        <ele>16.200000762939</ele>
        <time>2021-09-02T13:20:24.000Z</time>
      </trkpt>
      <trkpt lat="47.31758" lon="-2.35376">
        <ele>16.200000762939</ele>
        <time>2021-09-02T13:20:27.000Z</time>
      </trkpt>
      <trkpt lat="47.31763" lon="-2.35386">
        <ele>16.200000762939</ele>
        <time>2021-09-02T13:20:29.000Z</time>
      </trkpt>
      <trkpt lat="47.31772" lon="-2.35402">
        <ele>16.200000762939</ele>
        <time>2021-09-02T13:20:32.000Z</time>
      </trkpt>
      <trkpt lat="47.31794" lon="-2.35434">
        <ele>16.200000762939</ele>
        <time>2021-09-02T13:20:38.000Z</time>
      </trkpt>
      <trkpt lat="47.31802" lon="-2.35446">
        <ele>16.200000762939</ele>
        <time>2021-09-02T13:20:41.000Z</time>
      </trkpt>
      <trkpt lat="47.3181" lon="-2.35464">
        <ele>16.200000762939</ele>
        <time>2021-09-02T13:20:47.000Z</time>
      </trkpt>
      <trkpt lat="47.31821" lon="-2.35486">
        <ele>16.200000762939</ele>
        <time>2021-09-02T13:20:52.000Z</time>
      </trkpt>
      <trkpt lat="47.31834" lon="-2.35515">
        <ele>16.200000762939</ele>
        <time>2021-09-02T13:20:57.000Z</time>
      </trkpt>
      <trkpt lat="47.31836" lon="-2.35524">
        <ele>16.200000762939</ele>
        <time>2021-09-02T13:20:58.000Z</time>
      </trkpt>
      <trkpt lat="47.31838" lon="-2.35545">
        <ele>16.200000762939</ele>
        <time>2021-09-02T13:21:01.000Z</time>
      </trkpt>
      <trkpt lat="47.31838" lon="-2.3555">
        <ele>16.200000762939</ele>
        <time>2021-09-02T13:21:02.000Z</time>
      </trkpt>
      <trkpt lat="47.31833" lon="-2.35556">
        <ele>16.200000762939</ele>
        <time>2021-09-02T13:21:04.000Z</time>
      </trkpt>
      <trkpt lat="47.31817" lon="-2.35573">
        <ele>16.200000762939</ele>
        <time>2021-09-02T13:21:09.000Z</time>
      </trkpt>
      <trkpt lat="47.31814" lon="-2.35579">
        <ele>16.200000762939</ele>
        <time>2021-09-02T13:21:10.000Z</time>
      </trkpt>
      <trkpt lat="47.31804" lon="-2.35596">
        <ele>16.200000762939</ele>
        <time>2021-09-02T13:21:13.000Z</time>
      </trkpt>
      <trkpt lat="47.31792" lon="-2.35612">
        <ele>16.200000762939</ele>
        <time>2021-09-02T13:21:16.000Z</time>
      </trkpt>
      <trkpt lat="47.31789" lon="-2.35618">
        <ele>16.200000762939</ele>
        <time>2021-09-02T13:21:17.000Z</time>
      </trkpt>
      <trkpt lat="47.31783" lon="-2.35644">
        <ele>16.200000762939</ele>
        <time>2021-09-02T13:21:21.000Z</time>
      </trkpt>
      <trkpt lat="47.31782" lon="-2.35689">
        <ele>16.200000762939</ele>
        <time>2021-09-02T13:21:27.000Z</time>
      </trkpt>
      <trkpt lat="47.31782" lon="-2.35696">
        <ele>16.60000038147</ele>
        <time>2021-09-02T13:21:28.000Z</time>
      </trkpt>
      <trkpt lat="47.31782" lon="-2.35703">
        <ele>17</ele>
        <time>2021-09-02T13:21:29.000Z</time>
      </trkpt>
      <trkpt lat="47.31782" lon="-2.3571">
        <ele>17.39999961853</ele>
        <time>2021-09-02T13:21:30.000Z</time>
      </trkpt>
      <trkpt lat="47.31782" lon="-2.35717">
        <ele>17.799999237061</ele>
        <time>2021-09-02T13:21:31.000Z</time>
      </trkpt>
      <trkpt lat="47.31782" lon="-2.35724">
        <ele>18.200000762939</ele>
        <time>2021-09-02T13:21:32.000Z</time>
      </trkpt>
      <trkpt lat="47.31782" lon="-2.35731">
        <ele>18.200000762939</ele>
        <time>2021-09-02T13:21:33.000Z</time>
      </trkpt>
      <trkpt lat="47.31783" lon="-2.35763">
        <ele>18.60000038147</ele>
        <time>2021-09-02T13:21:38.000Z</time>
      </trkpt>
      <trkpt lat="47.31783" lon="-2.3577">
        <ele>19</ele>
        <time>2021-09-02T13:21:39.000Z</time>
      </trkpt>
      <trkpt lat="47.31783" lon="-2.35778">
        <ele>19.39999961853</ele>
        <time>2021-09-02T13:21:40.000Z</time>
      </trkpt>
      <trkpt lat="47.31783" lon="-2.35785">
        <ele>19.799999237061</ele>
        <time>2021-09-02T13:21:41.000Z</time>
      </trkpt>
      <trkpt lat="47.31786" lon="-2.35792">
        <ele>20.200000762939</ele>
        <time>2021-09-02T13:21:42.000Z</time>
      </trkpt>
      <trkpt lat="47.31792" lon="-2.35805">
        <ele>20.200000762939</ele>
        <time>2021-09-02T13:21:44.000Z</time>
      </trkpt>
      <trkpt lat="47.31799" lon="-2.35816">
        <ele>20.200000762939</ele>
        <time>2021-09-02T13:21:46.000Z</time>
      </trkpt>
      <trkpt lat="47.31815" lon="-2.35838">
        <ele>20.200000762939</ele>
        <time>2021-09-02T13:21:50.000Z</time>
      </trkpt>
      <trkpt lat="47.31823" lon="-2.35857">
        <ele>20.200000762939</ele>
        <time>2021-09-02T13:21:53.000Z</time>
      </trkpt>
      <trkpt lat="47.31824" lon="-2.35871">
        <ele>20.200000762939</ele>
        <time>2021-09-02T13:21:55.000Z</time>
      </trkpt>
      <trkpt lat="47.31816" lon="-2.35884">
        <ele>20.200000762939</ele>
        <time>2021-09-02T13:21:58.000Z</time>
      </trkpt>
      <trkpt lat="47.31812" lon="-2.35887">
        <ele>20.200000762939</ele>
        <time>2021-09-02T13:21:59.000Z</time>
      </trkpt>
      <trkpt lat="47.31808" lon="-2.35889">
        <ele>20.200000762939</ele>
        <time>2021-09-02T13:22:00.000Z</time>
      </trkpt>
      <trkpt lat="47.31793" lon="-2.35895">
        <ele>20.200000762939</ele>
        <time>2021-09-02T13:22:03.000Z</time>
      </trkpt>
      <trkpt lat="47.31788" lon="-2.35898">
        <ele>20.200000762939</ele>
        <time>2021-09-02T13:22:04.000Z</time>
      </trkpt>
      <trkpt lat="47.31777" lon="-2.35904">
        <ele>20.200000762939</ele>
        <time>2021-09-02T13:22:06.000Z</time>
      </trkpt>
      <trkpt lat="47.31768" lon="-2.35909">
        <ele>20.200000762939</ele>
        <time>2021-09-02T13:22:08.000Z</time>
      </trkpt>
      <trkpt lat="47.31736" lon="-2.35928">
        <ele>20.60000038147</ele>
        <time>2021-09-02T13:22:15.000Z</time>
      </trkpt>
      <trkpt lat="47.31732" lon="-2.35931">
        <ele>21</ele>
        <time>2021-09-02T13:22:16.000Z</time>
      </trkpt>
      <trkpt lat="47.31727" lon="-2.35934">
        <ele>21.60000038147</ele>
        <time>2021-09-02T13:22:17.000Z</time>
      </trkpt>
      <trkpt lat="47.31723" lon="-2.35936">
        <ele>22</ele>
        <time>2021-09-02T13:22:18.000Z</time>
      </trkpt>
      <trkpt lat="47.31718" lon="-2.35939">
        <ele>22.39999961853</ele>
        <time>2021-09-02T13:22:19.000Z</time>
      </trkpt>
      <trkpt lat="47.31714" lon="-2.35941">
        <ele>22.39999961853</ele>
        <time>2021-09-02T13:22:20.000Z</time>
      </trkpt>
      <trkpt lat="47.31691" lon="-2.35952">
        <ele>22.39999961853</ele>
        <time>2021-09-02T13:22:25.000Z</time>
      </trkpt>
      <trkpt lat="47.31687" lon="-2.35954">
        <ele>22.39999961853</ele>
        <time>2021-09-02T13:22:26.000Z</time>
      </trkpt>
      <trkpt lat="47.31661" lon="-2.35971">
        <ele>22.39999961853</ele>
        <time>2021-09-02T13:22:32.000Z</time>
      </trkpt>
      <trkpt lat="47.31656" lon="-2.35974">
        <ele>22.799999237061</ele>
        <time>2021-09-02T13:22:33.000Z</time>
      </trkpt>
      <trkpt lat="47.31652" lon="-2.35977">
        <ele>23.200000762939</ele>
        <time>2021-09-02T13:22:34.000Z</time>
      </trkpt>
      <trkpt lat="47.31648" lon="-2.35981">
        <ele>23.60000038147</ele>
        <time>2021-09-02T13:22:35.000Z</time>
      </trkpt>
      <trkpt lat="47.31644" lon="-2.35985">
        <ele>24.200000762939</ele>
        <time>2021-09-02T13:22:36.000Z</time>
      </trkpt>
      <trkpt lat="47.31641" lon="-2.35989">
        <ele>24.60000038147</ele>
        <time>2021-09-02T13:22:37.000Z</time>
      </trkpt>
      <trkpt lat="47.3163" lon="-2.36002">
        <ele>24.60000038147</ele>
        <time>2021-09-02T13:22:40.000Z</time>
      </trkpt>
      <trkpt lat="47.31618" lon="-2.36014">
        <ele>24.60000038147</ele>
        <time>2021-09-02T13:22:43.000Z</time>
      </trkpt>
      <trkpt lat="47.31591" lon="-2.36041">
        <ele>25</ele>
        <time>2021-09-02T13:22:50.000Z</time>
      </trkpt>
      <trkpt lat="47.31587" lon="-2.36045">
        <ele>25.39999961853</ele>
        <time>2021-09-02T13:22:51.000Z</time>
      </trkpt>
      <trkpt lat="47.31583" lon="-2.36049">
        <ele>25.799999237061</ele>
        <time>2021-09-02T13:22:52.000Z</time>
      </trkpt>
      <trkpt lat="47.3158" lon="-2.36052">
        <ele>26.200000762939</ele>
        <time>2021-09-02T13:22:53.000Z</time>
      </trkpt>
      <trkpt lat="47.31576" lon="-2.36055">
        <ele>26.60000038147</ele>
        <time>2021-09-02T13:22:54.000Z</time>
      </trkpt>
      <trkpt lat="47.31569" lon="-2.36062">
        <ele>26.60000038147</ele>
        <time>2021-09-02T13:22:56.000Z</time>
      </trkpt>
      <trkpt lat="47.31547" lon="-2.36085">
        <ele>26.60000038147</ele>
        <time>2021-09-02T13:23:02.000Z</time>
      </trkpt>
      <trkpt lat="47.31524" lon="-2.36111">
        <ele>26.60000038147</ele>
        <time>2021-09-02T13:23:08.000Z</time>
      </trkpt>
      <trkpt lat="47.315" lon="-2.36138">
        <ele>26.60000038147</ele>
        <time>2021-09-02T13:23:14.000Z</time>
      </trkpt>
      <trkpt lat="47.3147" lon="-2.36168">
        <ele>26.60000038147</ele>
        <time>2021-09-02T13:23:22.000Z</time>
      </trkpt>
      <trkpt lat="47.31465" lon="-2.36171">
        <ele>26.60000038147</ele>
        <time>2021-09-02T13:23:24.000Z</time>
      </trkpt>
      <trkpt lat="47.31464" lon="-2.36171">
        <ele>26.60000038147</ele>
        <time>2021-09-02T13:23:26.000Z</time>
      </trkpt>
      <trkpt lat="47.31462" lon="-2.36168">
        <ele>26.60000038147</ele>
        <time>2021-09-02T13:26:09.000Z</time>
      </trkpt>
      <trkpt lat="47.3146" lon="-2.36162">
        <ele>26.60000038147</ele>
        <time>2021-09-02T13:26:12.000Z</time>
      </trkpt>
      <trkpt lat="47.31453" lon="-2.36139">
        <ele>26.60000038147</ele>
        <time>2021-09-02T13:26:18.000Z</time>
      </trkpt>
      <trkpt lat="47.31442" lon="-2.361">
        <ele>26.60000038147</ele>
        <time>2021-09-02T13:26:26.000Z</time>
      </trkpt>
      <trkpt lat="47.31431" lon="-2.36059">
        <ele>26.60000038147</ele>
        <time>2021-09-02T13:26:32.000Z</time>
      </trkpt>
      <trkpt lat="47.31414" lon="-2.36011">
        <ele>26.60000038147</ele>
        <time>2021-09-02T13:26:38.000Z</time>
      </trkpt>
      <trkpt lat="47.31396" lon="-2.35967">
        <ele>26.60000038147</ele>
        <time>2021-09-02T13:26:43.000Z</time>
      </trkpt>
      <trkpt lat="47.31392" lon="-2.35958">
        <ele>26</ele>
        <time>2021-09-02T13:26:44.000Z</time>
      </trkpt>
      <trkpt lat="47.31388" lon="-2.35949">
        <ele>25.60000038147</ele>
        <time>2021-09-02T13:26:45.000Z</time>
      </trkpt>
      <trkpt lat="47.31383" lon="-2.35941">
        <ele>25.200000762939</ele>
        <time>2021-09-02T13:26:46.000Z</time>
      </trkpt>
      <trkpt lat="47.31378" lon="-2.35933">
        <ele>24.799999237061</ele>
        <time>2021-09-02T13:26:47.000Z</time>
      </trkpt>
      <trkpt lat="47.31374" lon="-2.35925">
        <ele>24.200000762939</ele>
        <time>2021-09-02T13:26:48.000Z</time>
      </trkpt>
      <trkpt lat="47.31353" lon="-2.35886">
        <ele>24.200000762939</ele>
        <time>2021-09-02T13:26:53.000Z</time>
      </trkpt>
      <trkpt lat="47.31342" lon="-2.35864">
        <ele>24.200000762939</ele>
        <time>2021-09-02T13:26:56.000Z</time>
      </trkpt>
      <trkpt lat="47.31336" lon="-2.3584">
        <ele>24.200000762939</ele>
        <time>2021-09-02T13:26:59.000Z</time>
      </trkpt>
      <trkpt lat="47.31336" lon="-2.35822">
        <ele>24.200000762939</ele>
        <time>2021-09-02T13:27:01.000Z</time>
      </trkpt>
      <trkpt lat="47.31333" lon="-2.35778">
        <ele>24.200000762939</ele>
        <time>2021-09-02T13:27:06.000Z</time>
      </trkpt>
      <trkpt lat="47.31332" lon="-2.35727">
        <ele>24.200000762939</ele>
        <time>2021-09-02T13:27:12.000Z</time>
      </trkpt>
      <trkpt lat="47.31332" lon="-2.35718">
        <ele>24.200000762939</ele>
        <time>2021-09-02T13:27:13.000Z</time>
      </trkpt>
      <trkpt lat="47.31332" lon="-2.35683">
        <ele>24.200000762939</ele>
        <time>2021-09-02T13:27:17.000Z</time>
      </trkpt>
      <trkpt lat="47.31331" lon="-2.35658">
        <ele>25</ele>
        <time>2021-09-02T13:27:20.000Z</time>
      </trkpt>
      <trkpt lat="47.3133" lon="-2.35649">
        <ele>25.39999961853</ele>
        <time>2021-09-02T13:27:21.000Z</time>
      </trkpt>
      <trkpt lat="47.3133" lon="-2.35641">
        <ele>25.799999237061</ele>
        <time>2021-09-02T13:27:22.000Z</time>
      </trkpt>
      <trkpt lat="47.3133" lon="-2.35633">
        <ele>26.200000762939</ele>
        <time>2021-09-02T13:27:23.000Z</time>
      </trkpt>
      <trkpt lat="47.3133" lon="-2.35625">
        <ele>26.200000762939</ele>
        <time>2021-09-02T13:27:24.000Z</time>
      </trkpt>
      <trkpt lat="47.31327" lon="-2.35565">
        <ele>26.200000762939</ele>
        <time>2021-09-02T13:27:31.000Z</time>
      </trkpt>
      <trkpt lat="47.31328" lon="-2.35556">
        <ele>25.799999237061</ele>
        <time>2021-09-02T13:27:32.000Z</time>
      </trkpt>
      <trkpt lat="47.31328" lon="-2.35547">
        <ele>25.39999961853</ele>
        <time>2021-09-02T13:27:33.000Z</time>
      </trkpt>
      <trkpt lat="47.31329" lon="-2.35537">
        <ele>25</ele>
        <time>2021-09-02T13:27:34.000Z</time>
      </trkpt>
      <trkpt lat="47.3133" lon="-2.35527">
        <ele>24.60000038147</ele>
        <time>2021-09-02T13:27:35.000Z</time>
      </trkpt>
      <trkpt lat="47.3133" lon="-2.35516">
        <ele>24.200000762939</ele>
        <time>2021-09-02T13:27:36.000Z</time>
      </trkpt>
      <trkpt lat="47.31332" lon="-2.35449">
        <ele>24.200000762939</ele>
        <time>2021-09-02T13:27:43.000Z</time>
      </trkpt>
      <trkpt lat="47.31334" lon="-2.35389">
        <ele>24.200000762939</ele>
        <time>2021-09-02T13:27:50.000Z</time>
      </trkpt>
      <trkpt lat="47.31335" lon="-2.35335">
        <ele>24.200000762939</ele>
        <time>2021-09-02T13:27:56.000Z</time>
      </trkpt>
      <trkpt lat="47.31337" lon="-2.35279">
        <ele>24.200000762939</ele>
        <time>2021-09-02T13:28:02.000Z</time>
      </trkpt>
      <trkpt lat="47.31339" lon="-2.35197">
        <ele>24.200000762939</ele>
        <time>2021-09-02T13:28:11.000Z</time>
      </trkpt>
      <trkpt lat="47.31343" lon="-2.35119">
        <ele>24.200000762939</ele>
        <time>2021-09-02T13:28:20.000Z</time>
      </trkpt>
      <trkpt lat="47.31344" lon="-2.35055">
        <ele>24.200000762939</ele>
        <time>2021-09-02T13:28:28.000Z</time>
      </trkpt>
      <trkpt lat="47.31344" lon="-2.35033">
        <ele>23.799999237061</ele>
        <time>2021-09-02T13:28:32.000Z</time>
      </trkpt>
      <trkpt lat="47.31344" lon="-2.35028">
        <ele>23.39999961853</ele>
        <time>2021-09-02T13:28:33.000Z</time>
      </trkpt>
      <trkpt lat="47.31344" lon="-2.35024">
        <ele>22.60000038147</ele>
        <time>2021-09-02T13:28:34.000Z</time>
      </trkpt>
      <trkpt lat="47.31344" lon="-2.35019">
        <ele>22.200000762939</ele>
        <time>2021-09-02T13:28:35.000Z</time>
      </trkpt>
      <trkpt lat="47.31341" lon="-2.34999">
        <ele>22.200000762939</ele>
        <time>2021-09-02T13:28:39.000Z</time>
      </trkpt>
      <trkpt lat="47.31333" lon="-2.34954">
        <ele>22.200000762939</ele>
        <time>2021-09-02T13:28:46.000Z</time>
      </trkpt>
      <trkpt lat="47.31316" lon="-2.34896">
        <ele>22.200000762939</ele>
        <time>2021-09-02T13:28:55.000Z</time>
      </trkpt>
      <trkpt lat="47.313" lon="-2.34838">
        <ele>22.200000762939</ele>
        <time>2021-09-02T13:29:04.000Z</time>
      </trkpt>
      <trkpt lat="47.31291" lon="-2.34798">
        <ele>22.200000762939</ele>
        <time>2021-09-02T13:29:10.000Z</time>
      </trkpt>
      <trkpt lat="47.3129" lon="-2.34791">
        <ele>22.200000762939</ele>
        <time>2021-09-02T13:29:11.000Z</time>
      </trkpt>
      <trkpt lat="47.31289" lon="-2.34785">
        <ele>22.200000762939</ele>
        <time>2021-09-02T13:29:12.000Z</time>
      </trkpt>
      <trkpt lat="47.31283" lon="-2.34753">
        <ele>22.200000762939</ele>
        <time>2021-09-02T13:29:17.000Z</time>
      </trkpt>
      <trkpt lat="47.31281" lon="-2.34741">
        <ele>22.200000762939</ele>
        <time>2021-09-02T13:29:19.000Z</time>
      </trkpt>
      <trkpt lat="47.31277" lon="-2.34712">
        <ele>22.200000762939</ele>
        <time>2021-09-02T13:29:24.000Z</time>
      </trkpt>
      <trkpt lat="47.3128" lon="-2.34698">
        <ele>22.200000762939</ele>
        <time>2021-09-02T13:29:28.000Z</time>
      </trkpt>
      <trkpt lat="47.31281" lon="-2.34691">
        <ele>22.200000762939</ele>
        <time>2021-09-02T13:29:32.000Z</time>
      </trkpt>
      <trkpt lat="47.31284" lon="-2.34678">
        <ele>22.200000762939</ele>
        <time>2021-09-02T13:29:35.000Z</time>
      </trkpt>
      <trkpt lat="47.31286" lon="-2.34673">
        <ele>22.200000762939</ele>
        <time>2021-09-02T13:29:36.000Z</time>
      </trkpt>
      <trkpt lat="47.3129" lon="-2.34645">
        <ele>22.200000762939</ele>
        <time>2021-09-02T13:29:40.000Z</time>
      </trkpt>
      <trkpt lat="47.3129" lon="-2.34637">
        <ele>22.200000762939</ele>
        <time>2021-09-02T13:29:41.000Z</time>
      </trkpt>
      <trkpt lat="47.31287" lon="-2.34598">
        <ele>22.200000762939</ele>
        <time>2021-09-02T13:29:45.000Z</time>
      </trkpt>
      <trkpt lat="47.31283" lon="-2.34556">
        <ele>21.60000038147</ele>
        <time>2021-09-02T13:29:49.000Z</time>
      </trkpt>
      <trkpt lat="47.31282" lon="-2.34545">
        <ele>21.200000762939</ele>
        <time>2021-09-02T13:29:50.000Z</time>
      </trkpt>
      <trkpt lat="47.31281" lon="-2.34534">
        <ele>20.799999237061</ele>
        <time>2021-09-02T13:29:51.000Z</time>
      </trkpt>
      <trkpt lat="47.31279" lon="-2.34523">
        <ele>20.39999961853</ele>
        <time>2021-09-02T13:29:52.000Z</time>
      </trkpt>
      <trkpt lat="47.31278" lon="-2.34512">
        <ele>19.799999237061</ele>
        <time>2021-09-02T13:29:53.000Z</time>
      </trkpt>
      <trkpt lat="47.3127" lon="-2.34434">
        <ele>19.799999237061</ele>
        <time>2021-09-02T13:30:00.000Z</time>
      </trkpt>
      <trkpt lat="47.31268" lon="-2.34422">
        <ele>19.39999961853</ele>
        <time>2021-09-02T13:30:01.000Z</time>
      </trkpt>
      <trkpt lat="47.31266" lon="-2.34412">
        <ele>19</ele>
        <time>2021-09-02T13:30:02.000Z</time>
      </trkpt>
      <trkpt lat="47.31264" lon="-2.34401">
        <ele>18.60000038147</ele>
        <time>2021-09-02T13:30:03.000Z</time>
      </trkpt>
      <trkpt lat="47.31262" lon="-2.3439">
        <ele>18.200000762939</ele>
        <time>2021-09-02T13:30:04.000Z</time>
      </trkpt>
      <trkpt lat="47.3126" lon="-2.34379">
        <ele>17.799999237061</ele>
        <time>2021-09-02T13:30:05.000Z</time>
      </trkpt>
      <trkpt lat="47.31256" lon="-2.34368">
        <ele>17.200000762939</ele>
        <time>2021-09-02T13:30:06.000Z</time>
      </trkpt>
      <trkpt lat="47.31252" lon="-2.34358">
        <ele>16.799999237061</ele>
        <time>2021-09-02T13:30:07.000Z</time>
      </trkpt>
      <trkpt lat="47.31247" lon="-2.34349">
        <ele>16.200000762939</ele>
        <time>2021-09-02T13:30:08.000Z</time>
      </trkpt>
      <trkpt lat="47.31241" lon="-2.34341">
        <ele>15.60000038147</ele>
        <time>2021-09-02T13:30:09.000Z</time>
      </trkpt>
      <trkpt lat="47.31235" lon="-2.34335">
        <ele>15.199999809265</ele>
        <time>2021-09-02T13:30:10.000Z</time>
      </trkpt>
      <trkpt lat="47.31221" lon="-2.34325">
        <ele>15.199999809265</ele>
        <time>2021-09-02T13:30:12.000Z</time>
      </trkpt>
      <trkpt lat="47.31211" lon="-2.34322">
        <ele>15.199999809265</ele>
        <time>2021-09-02T13:30:13.000Z</time>
      </trkpt>
      <trkpt lat="47.31204" lon="-2.34316">
        <ele>15.199999809265</ele>
        <time>2021-09-02T13:30:14.000Z</time>
      </trkpt>
      <trkpt lat="47.3119" lon="-2.34301">
        <ele>15.199999809265</ele>
        <time>2021-09-02T13:30:16.000Z</time>
      </trkpt>
      <trkpt lat="47.31166" lon="-2.34256">
        <ele>15.199999809265</ele>
        <time>2021-09-02T13:30:21.000Z</time>
      </trkpt>
      <trkpt lat="47.31142" lon="-2.3421">
        <ele>15.199999809265</ele>
        <time>2021-09-02T13:30:27.000Z</time>
      </trkpt>
      <trkpt lat="47.31121" lon="-2.34172">
        <ele>15.199999809265</ele>
        <time>2021-09-02T13:30:33.000Z</time>
      </trkpt>
      <trkpt lat="47.31103" lon="-2.34141">
        <ele>15.199999809265</ele>
        <time>2021-09-02T13:30:38.000Z</time>
      </trkpt>
      <trkpt lat="47.31095" lon="-2.3413">
        <ele>15.60000038147</ele>
        <time>2021-09-02T13:30:40.000Z</time>
      </trkpt>
      <trkpt lat="47.31092" lon="-2.34124">
        <ele>16</ele>
        <time>2021-09-02T13:30:41.000Z</time>
      </trkpt>
      <trkpt lat="47.31088" lon="-2.34117">
        <ele>16.60000038147</ele>
        <time>2021-09-02T13:30:42.000Z</time>
      </trkpt>
      <trkpt lat="47.31085" lon="-2.3411">
        <ele>17</ele>
        <time>2021-09-02T13:30:43.000Z</time>
      </trkpt>
      <trkpt lat="47.31082" lon="-2.34102">
        <ele>17.39999961853</ele>
        <time>2021-09-02T13:30:44.000Z</time>
      </trkpt>
      <trkpt lat="47.31079" lon="-2.34096">
        <ele>17.39999961853</ele>
        <time>2021-09-02T13:30:45.000Z</time>
      </trkpt>
      <trkpt lat="47.31071" lon="-2.34075">
        <ele>17.39999961853</ele>
        <time>2021-09-02T13:30:48.000Z</time>
      </trkpt>
      <trkpt lat="47.31068" lon="-2.34058">
        <ele>18</ele>
        <time>2021-09-02T13:30:50.000Z</time>
      </trkpt>
      <trkpt lat="47.31066" lon="-2.3405">
        <ele>18.39999961853</ele>
        <time>2021-09-02T13:30:51.000Z</time>
      </trkpt>
      <trkpt lat="47.31065" lon="-2.34043">
        <ele>19</ele>
        <time>2021-09-02T13:30:52.000Z</time>
      </trkpt>
      <trkpt lat="47.31064" lon="-2.34034">
        <ele>19.39999961853</ele>
        <time>2021-09-02T13:30:53.000Z</time>
      </trkpt>
      <trkpt lat="47.31063" lon="-2.34026">
        <ele>19.799999237061</ele>
        <time>2021-09-02T13:30:54.000Z</time>
      </trkpt>
      <trkpt lat="47.31061" lon="-2.34008">
        <ele>20.200000762939</ele>
        <time>2021-09-02T13:30:56.000Z</time>
      </trkpt>
      <trkpt lat="47.31061" lon="-2.34">
        <ele>20.799999237061</ele>
        <time>2021-09-02T13:30:57.000Z</time>
      </trkpt>
      <trkpt lat="47.31061" lon="-2.33991">
        <ele>21.200000762939</ele>
        <time>2021-09-02T13:30:58.000Z</time>
      </trkpt>
      <trkpt lat="47.31061" lon="-2.33983">
        <ele>21.60000038147</ele>
        <time>2021-09-02T13:30:59.000Z</time>
      </trkpt>
      <trkpt lat="47.31061" lon="-2.33974">
        <ele>22</ele>
        <time>2021-09-02T13:31:00.000Z</time>
      </trkpt>
      <trkpt lat="47.3106" lon="-2.33958">
        <ele>22</ele>
        <time>2021-09-02T13:31:02.000Z</time>
      </trkpt>
      <trkpt lat="47.31054" lon="-2.33947">
        <ele>22</ele>
        <time>2021-09-02T13:31:04.000Z</time>
      </trkpt>
      <trkpt lat="47.31038" lon="-2.33947">
        <ele>22</ele>
        <time>2021-09-02T13:31:07.000Z</time>
      </trkpt>
      <trkpt lat="47.31022" lon="-2.33949">
        <ele>22</ele>
        <time>2021-09-02T13:31:10.000Z</time>
      </trkpt>
      <trkpt lat="47.31006" lon="-2.33953">
        <ele>22</ele>
        <time>2021-09-02T13:31:13.000Z</time>
      </trkpt>
      <trkpt lat="47.30969" lon="-2.33955">
        <ele>22</ele>
        <time>2021-09-02T13:31:20.000Z</time>
      </trkpt>
      <trkpt lat="47.30964" lon="-2.33955">
        <ele>22.39999961853</ele>
        <time>2021-09-02T13:31:21.000Z</time>
      </trkpt>
      <trkpt lat="47.30958" lon="-2.33954">
        <ele>22.799999237061</ele>
        <time>2021-09-02T13:31:22.000Z</time>
      </trkpt>
      <trkpt lat="47.30953" lon="-2.33953">
        <ele>23.200000762939</ele>
        <time>2021-09-02T13:31:23.000Z</time>
      </trkpt>
      <trkpt lat="47.30948" lon="-2.33952">
        <ele>23.60000038147</ele>
        <time>2021-09-02T13:31:24.000Z</time>
      </trkpt>
      <trkpt lat="47.30943" lon="-2.33951">
        <ele>24</ele>
        <time>2021-09-02T13:31:25.000Z</time>
      </trkpt>
      <trkpt lat="47.30938" lon="-2.3395">
        <ele>24</ele>
        <time>2021-09-02T13:31:26.000Z</time>
      </trkpt>
      <trkpt lat="47.30922" lon="-2.33948">
        <ele>24</ele>
        <time>2021-09-02T13:31:29.000Z</time>
      </trkpt>
      <trkpt lat="47.309" lon="-2.33946">
        <ele>24</ele>
        <time>2021-09-02T13:31:33.000Z</time>
      </trkpt>
      <trkpt lat="47.30868" lon="-2.33951">
        <ele>24</ele>
        <time>2021-09-02T13:31:40.000Z</time>
      </trkpt>
      <trkpt lat="47.30827" lon="-2.33958">
        <ele>24</ele>
        <time>2021-09-02T13:31:48.000Z</time>
      </trkpt>
      <trkpt lat="47.30797" lon="-2.33965">
        <ele>24</ele>
        <time>2021-09-02T13:31:54.000Z</time>
      </trkpt>
      <trkpt lat="47.3078" lon="-2.33973">
        <ele>24</ele>
        <time>2021-09-02T13:31:59.000Z</time>
      </trkpt>
      <trkpt lat="47.30777" lon="-2.33982">
        <ele>24</ele>
        <time>2021-09-02T13:32:01.000Z</time>
      </trkpt>
      <trkpt lat="47.30777" lon="-2.33987">
        <ele>24</ele>
        <time>2021-09-02T13:32:02.000Z</time>
      </trkpt>
      <trkpt lat="47.30776" lon="-2.34013">
        <ele>24</ele>
        <time>2021-09-02T13:32:06.000Z</time>
      </trkpt>
      <trkpt lat="47.30776" lon="-2.34021">
        <ele>24</ele>
        <time>2021-09-02T13:32:07.000Z</time>
      </trkpt>
      <trkpt lat="47.30775" lon="-2.34029">
        <ele>24</ele>
        <time>2021-09-02T13:32:08.000Z</time>
      </trkpt>
      <trkpt lat="47.30774" lon="-2.34061">
        <ele>24</ele>
        <time>2021-09-02T13:32:12.000Z</time>
      </trkpt>
      <trkpt lat="47.30772" lon="-2.34108">
        <ele>24</ele>
        <time>2021-09-02T13:32:18.000Z</time>
      </trkpt>
      <trkpt lat="47.30772" lon="-2.34117">
        <ele>24</ele>
        <time>2021-09-02T13:32:19.000Z</time>
      </trkpt>
      <trkpt lat="47.30771" lon="-2.34125">
        <ele>24</ele>
        <time>2021-09-02T13:32:20.000Z</time>
      </trkpt>
      <trkpt lat="47.30769" lon="-2.34161">
        <ele>24</ele>
        <time>2021-09-02T13:32:24.000Z</time>
      </trkpt>
      <trkpt lat="47.30765" lon="-2.34208">
        <ele>24</ele>
        <time>2021-09-02T13:32:30.000Z</time>
      </trkpt>
      <trkpt lat="47.30757" lon="-2.34216">
        <ele>24</ele>
        <time>2021-09-02T13:32:32.000Z</time>
      </trkpt>
      <trkpt lat="47.30747" lon="-2.34219">
        <ele>24</ele>
        <time>2021-09-02T13:32:34.000Z</time>
      </trkpt>
      <trkpt lat="47.30737" lon="-2.34221">
        <ele>24</ele>
        <time>2021-09-02T13:32:36.000Z</time>
      </trkpt>
      <trkpt lat="47.3073" lon="-2.34227">
        <ele>24</ele>
        <time>2021-09-02T13:32:38.000Z</time>
      </trkpt>
      <trkpt lat="47.30727" lon="-2.34248">
        <ele>24</ele>
        <time>2021-09-02T13:32:41.000Z</time>
      </trkpt>
      <trkpt lat="47.30726" lon="-2.34255">
        <ele>24</ele>
        <time>2021-09-02T13:32:42.000Z</time>
      </trkpt>
      <trkpt lat="47.30721" lon="-2.34277">
        <ele>24</ele>
        <time>2021-09-02T13:32:45.000Z</time>
      </trkpt>
      <trkpt lat="47.30718" lon="-2.34284">
        <ele>24</ele>
        <time>2021-09-02T13:32:46.000Z</time>
      </trkpt>
      <trkpt lat="47.30716" lon="-2.34289">
        <ele>24</ele>
        <time>2021-09-02T13:32:47.000Z</time>
      </trkpt>
      <trkpt lat="47.307" lon="-2.34321">
        <ele>24</ele>
        <time>2021-09-02T13:32:52.000Z</time>
      </trkpt>
      <trkpt lat="47.30684" lon="-2.34353">
        <ele>24.39999961853</ele>
        <time>2021-09-02T13:32:57.000Z</time>
      </trkpt>
      <trkpt lat="47.30681" lon="-2.3436">
        <ele>24.799999237061</ele>
        <time>2021-09-02T13:32:58.000Z</time>
      </trkpt>
      <trkpt lat="47.30678" lon="-2.34366">
        <ele>25.200000762939</ele>
        <time>2021-09-02T13:32:59.000Z</time>
      </trkpt>
      <trkpt lat="47.30675" lon="-2.34372">
        <ele>25.60000038147</ele>
        <time>2021-09-02T13:33:00.000Z</time>
      </trkpt>
      <trkpt lat="47.30672" lon="-2.34378">
        <ele>26</ele>
        <time>2021-09-02T13:33:01.000Z</time>
      </trkpt>
      <trkpt lat="47.30661" lon="-2.34394">
        <ele>26</ele>
        <time>2021-09-02T13:33:04.000Z</time>
      </trkpt>
      <trkpt lat="47.30641" lon="-2.34424">
        <ele>26</ele>
        <time>2021-09-02T13:33:09.000Z</time>
      </trkpt>
      <trkpt lat="47.30632" lon="-2.34433">
        <ele>26</ele>
        <time>2021-09-02T13:33:11.000Z</time>
      </trkpt>
      <trkpt lat="47.306" lon="-2.34476">
        <ele>26</ele>
        <time>2021-09-02T13:33:18.000Z</time>
      </trkpt>
      <trkpt lat="47.30578" lon="-2.34523">
        <ele>26</ele>
        <time>2021-09-02T13:33:24.000Z</time>
      </trkpt>
      <trkpt lat="47.30554" lon="-2.34562">
        <ele>26</ele>
        <time>2021-09-02T13:33:29.000Z</time>
      </trkpt>
      <trkpt lat="47.30522" lon="-2.34608">
        <ele>26</ele>
        <time>2021-09-02T13:33:35.000Z</time>
      </trkpt>
      <trkpt lat="47.30502" lon="-2.34645">
        <ele>26</ele>
        <time>2021-09-02T13:33:40.000Z</time>
      </trkpt>
      <trkpt lat="47.30491" lon="-2.34661">
        <ele>26</ele>
        <time>2021-09-02T13:33:42.000Z</time>
      </trkpt>
      <trkpt lat="47.30474" lon="-2.34681">
        <ele>26</ele>
        <time>2021-09-02T13:33:45.000Z</time>
      </trkpt>
      <trkpt lat="47.30445" lon="-2.34707">
        <ele>26</ele>
        <time>2021-09-02T13:33:50.000Z</time>
      </trkpt>
      <trkpt lat="47.30429" lon="-2.34722">
        <ele>26</ele>
        <time>2021-09-02T13:33:53.000Z</time>
      </trkpt>
      <trkpt lat="47.30417" lon="-2.34731">
        <ele>26</ele>
        <time>2021-09-02T13:33:55.000Z</time>
      </trkpt>
      <trkpt lat="47.30376" lon="-2.34759">
        <ele>26</ele>
        <time>2021-09-02T13:34:02.000Z</time>
      </trkpt>
      <trkpt lat="47.30346" lon="-2.3478">
        <ele>26</ele>
        <time>2021-09-02T13:34:07.000Z</time>
      </trkpt>
      <trkpt lat="47.3034" lon="-2.34788">
        <ele>26</ele>
        <time>2021-09-02T13:34:08.000Z</time>
      </trkpt>
      <trkpt lat="47.30326" lon="-2.34813">
        <ele>26</ele>
        <time>2021-09-02T13:34:11.000Z</time>
      </trkpt>
      <trkpt lat="47.30322" lon="-2.3482">
        <ele>26</ele>
        <time>2021-09-02T13:34:12.000Z</time>
      </trkpt>
      <trkpt lat="47.30296" lon="-2.34852">
        <ele>26</ele>
        <time>2021-09-02T13:34:17.000Z</time>
      </trkpt>
      <trkpt lat="47.30272" lon="-2.34866">
        <ele>26</ele>
        <time>2021-09-02T13:34:21.000Z</time>
      </trkpt>
      <trkpt lat="47.30228" lon="-2.34896">
        <ele>26</ele>
        <time>2021-09-02T13:34:28.000Z</time>
      </trkpt>
      <trkpt lat="47.30217" lon="-2.34907">
        <ele>26</ele>
        <time>2021-09-02T13:34:30.000Z</time>
      </trkpt>
      <trkpt lat="47.30211" lon="-2.34922">
        <ele>26</ele>
        <time>2021-09-02T13:34:32.000Z</time>
      </trkpt>
      <trkpt lat="47.3021" lon="-2.34962">
        <ele>26</ele>
        <time>2021-09-02T13:34:36.000Z</time>
      </trkpt>
      <trkpt lat="47.3021" lon="-2.35027">
        <ele>26</ele>
        <time>2021-09-02T13:34:42.000Z</time>
      </trkpt>
      <trkpt lat="47.3021" lon="-2.35039">
        <ele>25.60000038147</ele>
        <time>2021-09-02T13:34:43.000Z</time>
      </trkpt>
      <trkpt lat="47.30211" lon="-2.3505">
        <ele>25.200000762939</ele>
        <time>2021-09-02T13:34:44.000Z</time>
      </trkpt>
      <trkpt lat="47.30211" lon="-2.35061">
        <ele>24.39999961853</ele>
        <time>2021-09-02T13:34:45.000Z</time>
      </trkpt>
      <trkpt lat="47.30211" lon="-2.35073">
        <ele>23.799999237061</ele>
        <time>2021-09-02T13:34:46.000Z</time>
      </trkpt>
      <trkpt lat="47.30211" lon="-2.35085">
        <ele>23.799999237061</ele>
        <time>2021-09-02T13:34:47.000Z</time>
      </trkpt>
      <trkpt lat="47.3021" lon="-2.35108">
        <ele>23.799999237061</ele>
        <time>2021-09-02T13:34:49.000Z</time>
      </trkpt>
      <trkpt lat="47.30209" lon="-2.35141">
        <ele>23.799999237061</ele>
        <time>2021-09-02T13:34:52.000Z</time>
      </trkpt>
      <trkpt lat="47.30208" lon="-2.35151">
        <ele>23.39999961853</ele>
        <time>2021-09-02T13:34:53.000Z</time>
      </trkpt>
      <trkpt lat="47.30206" lon="-2.35159">
        <ele>23</ele>
        <time>2021-09-02T13:34:54.000Z</time>
      </trkpt>
      <trkpt lat="47.30202" lon="-2.35164">
        <ele>22.39999961853</ele>
        <time>2021-09-02T13:34:55.000Z</time>
      </trkpt>
      <trkpt lat="47.30198" lon="-2.35167">
        <ele>22</ele>
        <time>2021-09-02T13:34:56.000Z</time>
      </trkpt>
      <trkpt lat="47.30194" lon="-2.35169">
        <ele>21.60000038147</ele>
        <time>2021-09-02T13:34:57.000Z</time>
      </trkpt>
      <trkpt lat="47.3019" lon="-2.3517">
        <ele>21.60000038147</ele>
        <time>2021-09-02T13:34:58.000Z</time>
      </trkpt>
      <trkpt lat="47.30175" lon="-2.35176">
        <ele>21.60000038147</ele>
        <time>2021-09-02T13:35:01.000Z</time>
      </trkpt>
      <trkpt lat="47.30166" lon="-2.35183">
        <ele>21.60000038147</ele>
        <time>2021-09-02T13:35:03.000Z</time>
      </trkpt>
      <trkpt lat="47.30158" lon="-2.35192">
        <ele>21.60000038147</ele>
        <time>2021-09-02T13:35:05.000Z</time>
      </trkpt>
      <trkpt lat="47.30152" lon="-2.35195">
        <ele>21.60000038147</ele>
        <time>2021-09-02T13:35:07.000Z</time>
      </trkpt>
      <trkpt lat="47.30134" lon="-2.35196">
        <ele>21.60000038147</ele>
        <time>2021-09-02T13:35:11.000Z</time>
      </trkpt>
      <trkpt lat="47.30129" lon="-2.35197">
        <ele>21.60000038147</ele>
        <time>2021-09-02T13:35:12.000Z</time>
      </trkpt>
      <trkpt lat="47.30122" lon="-2.352">
        <ele>21.60000038147</ele>
        <time>2021-09-02T13:35:13.000Z</time>
      </trkpt>
      <trkpt lat="47.30104" lon="-2.35208">
        <ele>21.60000038147</ele>
        <time>2021-09-02T13:35:16.000Z</time>
      </trkpt>
      <trkpt lat="47.30074" lon="-2.35221">
        <ele>21.60000038147</ele>
        <time>2021-09-02T13:35:21.000Z</time>
      </trkpt>
      <trkpt lat="47.30041" lon="-2.35238">
        <ele>21</ele>
        <time>2021-09-02T13:35:27.000Z</time>
      </trkpt>
      <trkpt lat="47.30036" lon="-2.35241">
        <ele>20.60000038147</ele>
        <time>2021-09-02T13:35:28.000Z</time>
      </trkpt>
      <trkpt lat="47.30031" lon="-2.35244">
        <ele>20.200000762939</ele>
        <time>2021-09-02T13:35:29.000Z</time>
      </trkpt>
      <trkpt lat="47.30028" lon="-2.35246">
        <ele>19.799999237061</ele>
        <time>2021-09-02T13:35:30.000Z</time>
      </trkpt>
      <trkpt lat="47.30026" lon="-2.35246">
        <ele>19.39999961853</ele>
        <time>2021-09-02T13:35:31.000Z</time>
      </trkpt>
      <trkpt lat="47.30022" lon="-2.35247">
        <ele>19.39999961853</ele>
        <time>2021-09-02T13:35:33.000Z</time>
      </trkpt>
      <trkpt lat="47.30014" lon="-2.35255">
        <ele>19.39999961853</ele>
        <time>2021-09-02T13:35:36.000Z</time>
      </trkpt>
      <trkpt lat="47.30004" lon="-2.35259">
        <ele>19.39999961853</ele>
        <time>2021-09-02T13:35:40.000Z</time>
      </trkpt>
      <trkpt lat="47.3" lon="-2.3526">
        <ele>19.39999961853</ele>
        <time>2021-09-02T13:35:43.000Z</time>
      </trkpt>
      <trkpt lat="47.29994" lon="-2.35265">
        <ele>19.39999961853</ele>
        <time>2021-09-02T13:38:49.000Z</time>
      </trkpt>
      <trkpt lat="47.2998" lon="-2.3528">
        <ele>19.39999961853</ele>
        <time>2021-09-02T13:38:56.000Z</time>
      </trkpt>
      <trkpt lat="47.29963" lon="-2.35301">
        <ele>19.39999961853</ele>
        <time>2021-09-02T13:39:02.000Z</time>
      </trkpt>
      <trkpt lat="47.29938" lon="-2.35334">
        <ele>19.39999961853</ele>
        <time>2021-09-02T13:39:10.000Z</time>
      </trkpt>
      <trkpt lat="47.2991" lon="-2.35369">
        <ele>19.39999961853</ele>
        <time>2021-09-02T13:39:19.000Z</time>
      </trkpt>
      <trkpt lat="47.29882" lon="-2.354">
        <ele>19.39999961853</ele>
        <time>2021-09-02T13:39:27.000Z</time>
      </trkpt>
      <trkpt lat="47.29857" lon="-2.35424">
        <ele>19.39999961853</ele>
        <time>2021-09-02T13:39:34.000Z</time>
      </trkpt>
      <trkpt lat="47.29829" lon="-2.35456">
        <ele>19.39999961853</ele>
        <time>2021-09-02T13:39:42.000Z</time>
      </trkpt>
      <trkpt lat="47.29824" lon="-2.35477">
        <ele>19.39999961853</ele>
        <time>2021-09-02T13:39:46.000Z</time>
      </trkpt>
      <trkpt lat="47.29831" lon="-2.35501">
        <ele>19.39999961853</ele>
        <time>2021-09-02T13:39:51.000Z</time>
      </trkpt>
      <trkpt lat="47.29845" lon="-2.35543">
        <ele>19.39999961853</ele>
        <time>2021-09-02T13:39:58.000Z</time>
      </trkpt>
      <trkpt lat="47.29856" lon="-2.35577">
        <ele>19.799999237061</ele>
        <time>2021-09-02T13:40:03.000Z</time>
      </trkpt>
      <trkpt lat="47.29858" lon="-2.35583">
        <ele>20.200000762939</ele>
        <time>2021-09-02T13:40:04.000Z</time>
      </trkpt>
      <trkpt lat="47.29859" lon="-2.3559">
        <ele>20.60000038147</ele>
        <time>2021-09-02T13:40:05.000Z</time>
      </trkpt>
      <trkpt lat="47.29861" lon="-2.35596">
        <ele>21</ele>
        <time>2021-09-02T13:40:06.000Z</time>
      </trkpt>
      <trkpt lat="47.29863" lon="-2.35602">
        <ele>21.39999961853</ele>
        <time>2021-09-02T13:40:07.000Z</time>
      </trkpt>
      <trkpt lat="47.29872" lon="-2.35639">
        <ele>21.39999961853</ele>
        <time>2021-09-02T13:40:13.000Z</time>
      </trkpt>
      <trkpt lat="47.2988" lon="-2.35683">
        <ele>21.39999961853</ele>
        <time>2021-09-02T13:40:20.000Z</time>
      </trkpt>
      <trkpt lat="47.29884" lon="-2.35701">
        <ele>21.799999237061</ele>
        <time>2021-09-02T13:40:23.000Z</time>
      </trkpt>
      <trkpt lat="47.29885" lon="-2.35706">
        <ele>22.200000762939</ele>
        <time>2021-09-02T13:40:24.000Z</time>
      </trkpt>
      <trkpt lat="47.29886" lon="-2.35712">
        <ele>22.799999237061</ele>
        <time>2021-09-02T13:40:25.000Z</time>
      </trkpt>
      <trkpt lat="47.29888" lon="-2.35717">
        <ele>23.200000762939</ele>
        <time>2021-09-02T13:40:26.000Z</time>
      </trkpt>
      <trkpt lat="47.29889" lon="-2.35722">
        <ele>23.60000038147</ele>
        <time>2021-09-02T13:40:27.000Z</time>
      </trkpt>
      <trkpt lat="47.29895" lon="-2.35747">
        <ele>23.60000038147</ele>
        <time>2021-09-02T13:40:33.000Z</time>
      </trkpt>
      <trkpt lat="47.29894" lon="-2.3575">
        <ele>23.60000038147</ele>
        <time>2021-09-02T13:40:34.000Z</time>
      </trkpt>
      <trkpt lat="47.29889" lon="-2.35756">
        <ele>23.60000038147</ele>
        <time>2021-09-02T13:40:36.000Z</time>
      </trkpt>
      <trkpt lat="47.29877" lon="-2.35769">
        <ele>23.60000038147</ele>
        <time>2021-09-02T13:40:40.000Z</time>
      </trkpt>
      <trkpt lat="47.29872" lon="-2.35772">
        <ele>23.60000038147</ele>
        <time>2021-09-02T13:40:41.000Z</time>
      </trkpt>
      <trkpt lat="47.29867" lon="-2.35775">
        <ele>23.60000038147</ele>
        <time>2021-09-02T13:40:42.000Z</time>
      </trkpt>
      <trkpt lat="47.29856" lon="-2.35779">
        <ele>23.60000038147</ele>
        <time>2021-09-02T13:40:44.000Z</time>
      </trkpt>
      <trkpt lat="47.29847" lon="-2.35783">
        <ele>23.60000038147</ele>
        <time>2021-09-02T13:40:46.000Z</time>
      </trkpt>
      <trkpt lat="47.29838" lon="-2.35787">
        <ele>23.60000038147</ele>
        <time>2021-09-02T13:40:48.000Z</time>
      </trkpt>
      <trkpt lat="47.29833" lon="-2.35788">
        <ele>23.60000038147</ele>
        <time>2021-09-02T13:40:49.000Z</time>
      </trkpt>
      <trkpt lat="47.298" lon="-2.35799">
        <ele>24.39999961853</ele>
        <time>2021-09-02T13:40:57.000Z</time>
      </trkpt>
      <trkpt lat="47.29797" lon="-2.358">
        <ele>24.799999237061</ele>
        <time>2021-09-02T13:40:58.000Z</time>
      </trkpt>
      <trkpt lat="47.29793" lon="-2.35801">
        <ele>25.200000762939</ele>
        <time>2021-09-02T13:40:59.000Z</time>
      </trkpt>
      <trkpt lat="47.29788" lon="-2.35803">
        <ele>25.60000038147</ele>
        <time>2021-09-02T13:41:00.000Z</time>
      </trkpt>
      <trkpt lat="47.2976" lon="-2.35812">
        <ele>25.60000038147</ele>
        <time>2021-09-02T13:41:06.000Z</time>
      </trkpt>
      <trkpt lat="47.29727" lon="-2.35826">
        <ele>25.60000038147</ele>
        <time>2021-09-02T13:41:12.000Z</time>
      </trkpt>
      <trkpt lat="47.29695" lon="-2.35843">
        <ele>25.200000762939</ele>
        <time>2021-09-02T13:41:17.000Z</time>
      </trkpt>
      <trkpt lat="47.29688" lon="-2.35845">
        <ele>24.60000038147</ele>
        <time>2021-09-02T13:41:18.000Z</time>
      </trkpt>
      <trkpt lat="47.29682" lon="-2.35846">
        <ele>24.200000762939</ele>
        <time>2021-09-02T13:41:19.000Z</time>
      </trkpt>
      <trkpt lat="47.29675" lon="-2.35848">
        <ele>23.60000038147</ele>
        <time>2021-09-02T13:41:20.000Z</time>
      </trkpt>
      <trkpt lat="47.29669" lon="-2.35852">
        <ele>23.200000762939</ele>
        <time>2021-09-02T13:41:21.000Z</time>
      </trkpt>
      <trkpt lat="47.29666" lon="-2.35856">
        <ele>23.200000762939</ele>
        <time>2021-09-02T13:41:22.000Z</time>
      </trkpt>
      <trkpt lat="47.29661" lon="-2.35865">
        <ele>23.200000762939</ele>
        <time>2021-09-02T13:41:25.000Z</time>
      </trkpt>
      <trkpt lat="47.29659" lon="-2.35866">
        <ele>23.200000762939</ele>
        <time>2021-09-02T13:41:27.000Z</time>
      </trkpt>
      <trkpt lat="47.29659" lon="-2.35865">
        <ele>22.799999237061</ele>
        <time>2021-09-02T13:41:29.000Z</time>
      </trkpt>
      <trkpt lat="47.29657" lon="-2.35865">
        <ele>21.200000762939</ele>
        <time>2021-09-02T13:41:57.000Z</time>
      </trkpt>
      <trkpt lat="47.29651" lon="-2.35867">
        <ele>21.200000762939</ele>
        <time>2021-09-02T13:42:00.000Z</time>
      </trkpt>
      <trkpt lat="47.29635" lon="-2.35876">
        <ele>21.200000762939</ele>
        <time>2021-09-02T13:42:05.000Z</time>
      </trkpt>
      <trkpt lat="47.29624" lon="-2.35883">
        <ele>21.200000762939</ele>
        <time>2021-09-02T13:42:08.000Z</time>
      </trkpt>
      <trkpt lat="47.29612" lon="-2.35888">
        <ele>21.200000762939</ele>
        <time>2021-09-02T13:42:11.000Z</time>
      </trkpt>
      <trkpt lat="47.29587" lon="-2.35906">
        <ele>21.200000762939</ele>
        <time>2021-09-02T13:42:17.000Z</time>
      </trkpt>
      <trkpt lat="47.29547" lon="-2.35929">
        <ele>21.200000762939</ele>
        <time>2021-09-02T13:42:26.000Z</time>
      </trkpt>
      <trkpt lat="47.29525" lon="-2.35938">
        <ele>21.200000762939</ele>
        <time>2021-09-02T13:42:31.000Z</time>
      </trkpt>
      <trkpt lat="47.2952" lon="-2.3594">
        <ele>21.200000762939</ele>
        <time>2021-09-02T13:42:32.000Z</time>
      </trkpt>
      <trkpt lat="47.29516" lon="-2.3594">
        <ele>21.200000762939</ele>
        <time>2021-09-02T13:42:33.000Z</time>
      </trkpt>
      <trkpt lat="47.29507" lon="-2.35931">
        <ele>21.200000762939</ele>
        <time>2021-09-02T13:42:36.000Z</time>
      </trkpt>
      <trkpt lat="47.29503" lon="-2.35919">
        <ele>21.200000762939</ele>
        <time>2021-09-02T13:42:38.000Z</time>
      </trkpt>
      <trkpt lat="47.295" lon="-2.35908">
        <ele>21.200000762939</ele>
        <time>2021-09-02T13:42:40.000Z</time>
      </trkpt>
      <trkpt lat="47.29497" lon="-2.35903">
        <ele>21.200000762939</ele>
        <time>2021-09-02T13:42:41.000Z</time>
      </trkpt>
      <trkpt lat="47.29486" lon="-2.35898">
        <ele>21.200000762939</ele>
        <time>2021-09-02T13:42:44.000Z</time>
      </trkpt>
      <trkpt lat="47.29475" lon="-2.359">
        <ele>21.200000762939</ele>
        <time>2021-09-02T13:42:47.000Z</time>
      </trkpt>
      <trkpt lat="47.29458" lon="-2.35903">
        <ele>21.200000762939</ele>
        <time>2021-09-02T13:42:51.000Z</time>
      </trkpt>
      <trkpt lat="47.29449" lon="-2.35907">
        <ele>21.200000762939</ele>
        <time>2021-09-02T13:42:55.000Z</time>
      </trkpt>
      <trkpt lat="47.2944" lon="-2.35915">
        <ele>21.200000762939</ele>
        <time>2021-09-02T13:43:00.000Z</time>
      </trkpt>
      <trkpt lat="47.29437" lon="-2.35915">
        <ele>21.200000762939</ele>
        <time>2021-09-02T13:43:01.000Z</time>
      </trkpt>
      <trkpt lat="47.29433" lon="-2.35908">
        <ele>21.200000762939</ele>
        <time>2021-09-02T13:43:03.000Z</time>
      </trkpt>
      <trkpt lat="47.29419" lon="-2.35886">
        <ele>21.200000762939</ele>
        <time>2021-09-02T13:43:08.000Z</time>
      </trkpt>
      <trkpt lat="47.29399" lon="-2.35862">
        <ele>21.200000762939</ele>
        <time>2021-09-02T13:43:13.000Z</time>
      </trkpt>
      <trkpt lat="47.29371" lon="-2.35833">
        <ele>21.200000762939</ele>
        <time>2021-09-02T13:43:20.000Z</time>
      </trkpt>
      <trkpt lat="47.29357" lon="-2.35822">
        <ele>21.200000762939</ele>
        <time>2021-09-02T13:43:23.000Z</time>
      </trkpt>
      <trkpt lat="47.29343" lon="-2.35811">
        <ele>21.200000762939</ele>
        <time>2021-09-02T13:43:26.000Z</time>
      </trkpt>
      <trkpt lat="47.29332" lon="-2.35799">
        <ele>21.200000762939</ele>
        <time>2021-09-02T13:43:29.000Z</time>
      </trkpt>
      <trkpt lat="47.29317" lon="-2.35788">
        <ele>21.200000762939</ele>
        <time>2021-09-02T13:43:32.000Z</time>
      </trkpt>
      <trkpt lat="47.29308" lon="-2.3578">
        <ele>21.200000762939</ele>
        <time>2021-09-02T13:43:34.000Z</time>
      </trkpt>
      <trkpt lat="47.29298" lon="-2.35771">
        <ele>21.200000762939</ele>
        <time>2021-09-02T13:43:36.000Z</time>
      </trkpt>
      <trkpt lat="47.29265" lon="-2.35741">
        <ele>21.200000762939</ele>
        <time>2021-09-02T13:43:44.000Z</time>
      </trkpt>
      <trkpt lat="47.29256" lon="-2.35736">
        <ele>21.200000762939</ele>
        <time>2021-09-02T13:43:46.000Z</time>
      </trkpt>
      <trkpt lat="47.29252" lon="-2.35739">
        <ele>21.200000762939</ele>
        <time>2021-09-02T13:43:47.000Z</time>
      </trkpt>
      <trkpt lat="47.29239" lon="-2.35756">
        <ele>21.200000762939</ele>
        <time>2021-09-02T13:43:50.000Z</time>
      </trkpt>
      <trkpt lat="47.29231" lon="-2.35768">
        <ele>21.200000762939</ele>
        <time>2021-09-02T13:43:52.000Z</time>
      </trkpt>
      <trkpt lat="47.29221" lon="-2.35777">
        <ele>21.200000762939</ele>
        <time>2021-09-02T13:43:54.000Z</time>
      </trkpt>
      <trkpt lat="47.29211" lon="-2.35787">
        <ele>21.200000762939</ele>
        <time>2021-09-02T13:43:56.000Z</time>
      </trkpt>
      <trkpt lat="47.29174" lon="-2.35816">
        <ele>21.200000762939</ele>
        <time>2021-09-02T13:44:03.000Z</time>
      </trkpt>
      <trkpt lat="47.29139" lon="-2.35848">
        <ele>21.200000762939</ele>
        <time>2021-09-02T13:44:10.000Z</time>
      </trkpt>
      <trkpt lat="47.29099" lon="-2.35893">
        <ele>21.200000762939</ele>
        <time>2021-09-02T13:44:18.000Z</time>
      </trkpt>
      <trkpt lat="47.29053" lon="-2.35948">
        <ele>21.200000762939</ele>
        <time>2021-09-02T13:44:27.000Z</time>
      </trkpt>
      <trkpt lat="47.29047" lon="-2.35954">
        <ele>21.200000762939</ele>
        <time>2021-09-02T13:44:28.000Z</time>
      </trkpt>
      <trkpt lat="47.29005" lon="-2.35998">
        <ele>21.200000762939</ele>
        <time>2021-09-02T13:44:36.000Z</time>
      </trkpt>
      <trkpt lat="47.28993" lon="-2.36008">
        <ele>21.200000762939</ele>
        <time>2021-09-02T13:44:38.000Z</time>
      </trkpt>
      <trkpt lat="47.28971" lon="-2.36029">
        <ele>21.200000762939</ele>
        <time>2021-09-02T13:44:42.000Z</time>
      </trkpt>
      <trkpt lat="47.2893" lon="-2.36059">
        <ele>21.200000762939</ele>
        <time>2021-09-02T13:44:49.000Z</time>
      </trkpt>
      <trkpt lat="47.28895" lon="-2.36088">
        <ele>21.200000762939</ele>
        <time>2021-09-02T13:44:55.000Z</time>
      </trkpt>
      <trkpt lat="47.28855" lon="-2.36129">
        <ele>21.200000762939</ele>
        <time>2021-09-02T13:45:03.000Z</time>
      </trkpt>
      <trkpt lat="47.28842" lon="-2.36144">
        <ele>21.200000762939</ele>
        <time>2021-09-02T13:45:06.000Z</time>
      </trkpt>
      <trkpt lat="47.28831" lon="-2.36162">
        <ele>21.200000762939</ele>
        <time>2021-09-02T13:45:09.000Z</time>
      </trkpt>
      <trkpt lat="47.28813" lon="-2.36182">
        <ele>21.200000762939</ele>
        <time>2021-09-02T13:45:13.000Z</time>
      </trkpt>
      <trkpt lat="47.28808" lon="-2.36186">
        <ele>21.200000762939</ele>
        <time>2021-09-02T13:45:14.000Z</time>
      </trkpt>
      <trkpt lat="47.28783" lon="-2.36202">
        <ele>21.200000762939</ele>
        <time>2021-09-02T13:45:19.000Z</time>
      </trkpt>
      <trkpt lat="47.28774" lon="-2.36209">
        <ele>21.200000762939</ele>
        <time>2021-09-02T13:45:21.000Z</time>
      </trkpt>
      <trkpt lat="47.2875" lon="-2.36222">
        <ele>21.200000762939</ele>
        <time>2021-09-02T13:45:27.000Z</time>
      </trkpt>
      <trkpt lat="47.2874" lon="-2.3623">
        <ele>21.200000762939</ele>
        <time>2021-09-02T13:45:32.000Z</time>
      </trkpt>
      <trkpt lat="47.2873" lon="-2.36237">
        <ele>21.200000762939</ele>
        <time>2021-09-02T13:45:40.000Z</time>
      </trkpt>
      <trkpt lat="47.28723" lon="-2.36248">
        <ele>21.200000762939</ele>
        <time>2021-09-02T13:45:47.000Z</time>
      </trkpt>
      <trkpt lat="47.28713" lon="-2.36263">
        <ele>21.200000762939</ele>
        <time>2021-09-02T13:45:53.000Z</time>
      </trkpt>
      <trkpt lat="47.2871" lon="-2.36267">
        <ele>21.60000038147</ele>
        <time>2021-09-02T13:45:55.000Z</time>
      </trkpt>
      <trkpt lat="47.28709" lon="-2.36269">
        <ele>22</ele>
        <time>2021-09-02T13:45:56.000Z</time>
      </trkpt>
      <trkpt lat="47.28707" lon="-2.3627">
        <ele>22.39999961853</ele>
        <time>2021-09-02T13:45:57.000Z</time>
      </trkpt>
      <trkpt lat="47.28705" lon="-2.36272">
        <ele>22.799999237061</ele>
        <time>2021-09-02T13:45:58.000Z</time>
      </trkpt>
      <trkpt lat="47.28703" lon="-2.36274">
        <ele>23.200000762939</ele>
        <time>2021-09-02T13:45:59.000Z</time>
      </trkpt>
      <trkpt lat="47.28694" lon="-2.36279">
        <ele>23.200000762939</ele>
        <time>2021-09-02T13:46:06.000Z</time>
      </trkpt>
      <trkpt lat="47.28688" lon="-2.36282">
        <ele>23.60000038147</ele>
        <time>2021-09-02T13:46:10.000Z</time>
      </trkpt>
      <trkpt lat="47.28687" lon="-2.36282">
        <ele>24</ele>
        <time>2021-09-02T13:46:11.000Z</time>
      </trkpt>
      <trkpt lat="47.28685" lon="-2.36283">
        <ele>24.39999961853</ele>
        <time>2021-09-02T13:46:12.000Z</time>
      </trkpt>
      <trkpt lat="47.28683" lon="-2.36283">
        <ele>24.799999237061</ele>
        <time>2021-09-02T13:46:13.000Z</time>
      </trkpt>
      <trkpt lat="47.28682" lon="-2.36282">
        <ele>25.39999961853</ele>
        <time>2021-09-02T13:46:14.000Z</time>
      </trkpt>
      <trkpt lat="47.2868" lon="-2.36281">
        <ele>25.39999961853</ele>
        <time>2021-09-02T13:46:15.000Z</time>
      </trkpt>
      <trkpt lat="47.28678" lon="-2.36274">
        <ele>25.39999961853</ele>
        <time>2021-09-02T13:46:19.000Z</time>
      </trkpt>
      <trkpt lat="47.28677" lon="-2.36269">
        <ele>25.39999961853</ele>
        <time>2021-09-02T13:46:21.000Z</time>
      </trkpt>
      <trkpt lat="47.28672" lon="-2.36247">
        <ele>25.39999961853</ele>
        <time>2021-09-02T13:46:26.000Z</time>
      </trkpt>
      <trkpt lat="47.28669" lon="-2.36234">
        <ele>25.799999237061</ele>
        <time>2021-09-02T13:46:29.000Z</time>
      </trkpt>
      <trkpt lat="47.28669" lon="-2.3623">
        <ele>26.200000762939</ele>
        <time>2021-09-02T13:46:30.000Z</time>
      </trkpt>
      <trkpt lat="47.28669" lon="-2.36226">
        <ele>26.60000038147</ele>
        <time>2021-09-02T13:46:31.000Z</time>
      </trkpt>
      <trkpt lat="47.28669" lon="-2.36222">
        <ele>27</ele>
        <time>2021-09-02T13:46:32.000Z</time>
      </trkpt>
      <trkpt lat="47.2867" lon="-2.36218">
        <ele>27.39999961853</ele>
        <time>2021-09-02T13:46:33.000Z</time>
      </trkpt>
      <trkpt lat="47.28666" lon="-2.36195">
        <ele>27.39999961853</ele>
        <time>2021-09-02T13:46:38.000Z</time>
      </trkpt>
      <trkpt lat="47.28654" lon="-2.3618">
        <ele>27.39999961853</ele>
        <time>2021-09-02T13:46:43.000Z</time>
      </trkpt>
      <trkpt lat="47.28651" lon="-2.36176">
        <ele>27.799999237061</ele>
        <time>2021-09-02T13:46:44.000Z</time>
      </trkpt>
      <trkpt lat="47.28648" lon="-2.36172">
        <ele>28.200000762939</ele>
        <time>2021-09-02T13:46:45.000Z</time>
      </trkpt>
      <trkpt lat="47.28646" lon="-2.36169">
        <ele>28.60000038147</ele>
        <time>2021-09-02T13:46:46.000Z</time>
      </trkpt>
      <trkpt lat="47.28644" lon="-2.36165">
        <ele>29</ele>
        <time>2021-09-02T13:46:47.000Z</time>
      </trkpt>
      <trkpt lat="47.28642" lon="-2.3616">
        <ele>29.60000038147</ele>
        <time>2021-09-02T13:46:48.000Z</time>
      </trkpt>
      <trkpt lat="47.28636" lon="-2.36152">
        <ele>29.60000038147</ele>
        <time>2021-09-02T13:46:50.000Z</time>
      </trkpt>
      <trkpt lat="47.28628" lon="-2.36145">
        <ele>30</ele>
        <time>2021-09-02T13:46:53.000Z</time>
      </trkpt>
      <trkpt lat="47.28625" lon="-2.36145">
        <ele>30.39999961853</ele>
        <time>2021-09-02T13:46:54.000Z</time>
      </trkpt>
      <trkpt lat="47.28621" lon="-2.36147">
        <ele>30.799999237061</ele>
        <time>2021-09-02T13:46:55.000Z</time>
      </trkpt>
      <trkpt lat="47.28618" lon="-2.36149">
        <ele>31.200000762939</ele>
        <time>2021-09-02T13:46:56.000Z</time>
      </trkpt>
      <trkpt lat="47.28615" lon="-2.36152">
        <ele>31.60000038147</ele>
        <time>2021-09-02T13:46:57.000Z</time>
      </trkpt>
      <trkpt lat="47.28608" lon="-2.36156">
        <ele>31.60000038147</ele>
        <time>2021-09-02T13:46:59.000Z</time>
      </trkpt>
      <trkpt lat="47.28591" lon="-2.36155">
        <ele>31.60000038147</ele>
        <time>2021-09-02T13:47:03.000Z</time>
      </trkpt>
      <trkpt lat="47.28574" lon="-2.36149">
        <ele>31.60000038147</ele>
        <time>2021-09-02T13:47:08.000Z</time>
      </trkpt>
      <trkpt lat="47.28569" lon="-2.36152">
        <ele>31.60000038147</ele>
        <time>2021-09-02T13:47:09.000Z</time>
      </trkpt>
      <trkpt lat="47.28554" lon="-2.36159">
        <ele>31</ele>
        <time>2021-09-02T13:47:12.000Z</time>
      </trkpt>
      <trkpt lat="47.28548" lon="-2.36154">
        <ele>30.60000038147</ele>
        <time>2021-09-02T13:47:13.000Z</time>
      </trkpt>
      <trkpt lat="47.28544" lon="-2.36149">
        <ele>30</ele>
        <time>2021-09-02T13:47:14.000Z</time>
      </trkpt>
      <trkpt lat="47.2854" lon="-2.36142">
        <ele>29.60000038147</ele>
        <time>2021-09-02T13:47:15.000Z</time>
      </trkpt>
      <trkpt lat="47.28536" lon="-2.36136">
        <ele>29</ele>
        <time>2021-09-02T13:47:16.000Z</time>
      </trkpt>
      <trkpt lat="47.2853" lon="-2.36111">
        <ele>29</ele>
        <time>2021-09-02T13:47:19.000Z</time>
      </trkpt>
      <trkpt lat="47.28529" lon="-2.36104">
        <ele>29</ele>
        <time>2021-09-02T13:47:20.000Z</time>
      </trkpt>
      <trkpt lat="47.28523" lon="-2.3608">
        <ele>29</ele>
        <time>2021-09-02T13:47:24.000Z</time>
      </trkpt>
      <trkpt lat="47.2852" lon="-2.36075">
        <ele>29</ele>
        <time>2021-09-02T13:47:25.000Z</time>
      </trkpt>
      <trkpt lat="47.28507" lon="-2.36053">
        <ele>29</ele>
        <time>2021-09-02T13:47:30.000Z</time>
      </trkpt>
      <trkpt lat="47.285" lon="-2.36045">
        <ele>29</ele>
        <time>2021-09-02T13:47:32.000Z</time>
      </trkpt>
      <trkpt lat="47.28492" lon="-2.3604">
        <ele>29</ele>
        <time>2021-09-02T13:47:34.000Z</time>
      </trkpt>
      <trkpt lat="47.28471" lon="-2.36024">
        <ele>29</ele>
        <time>2021-09-02T13:47:39.000Z</time>
      </trkpt>
      <trkpt lat="47.28462" lon="-2.36005">
        <ele>29</ele>
        <time>2021-09-02T13:47:42.000Z</time>
      </trkpt>
      <trkpt lat="47.28459" lon="-2.36">
        <ele>29</ele>
        <time>2021-09-02T13:47:43.000Z</time>
      </trkpt>
      <trkpt lat="47.28454" lon="-2.35997">
        <ele>29</ele>
        <time>2021-09-02T13:47:44.000Z</time>
      </trkpt>
      <trkpt lat="47.2844" lon="-2.36001">
        <ele>29</ele>
        <time>2021-09-02T13:47:47.000Z</time>
      </trkpt>
      <trkpt lat="47.28429" lon="-2.3601">
        <ele>29</ele>
        <time>2021-09-02T13:47:49.000Z</time>
      </trkpt>
      <trkpt lat="47.28415" lon="-2.36023">
        <ele>29</ele>
        <time>2021-09-02T13:47:52.000Z</time>
      </trkpt>
      <trkpt lat="47.28411" lon="-2.36026">
        <ele>29</ele>
        <time>2021-09-02T13:47:53.000Z</time>
      </trkpt>
      <trkpt lat="47.28398" lon="-2.36031">
        <ele>28.60000038147</ele>
        <time>2021-09-02T13:47:56.000Z</time>
      </trkpt>
      <trkpt lat="47.28393" lon="-2.36034">
        <ele>27.799999237061</ele>
        <time>2021-09-02T13:47:57.000Z</time>
      </trkpt>
      <trkpt lat="47.28387" lon="-2.36036">
        <ele>27.39999961853</ele>
        <time>2021-09-02T13:47:58.000Z</time>
      </trkpt>
      <trkpt lat="47.28382" lon="-2.36038">
        <ele>27</ele>
        <time>2021-09-02T13:47:59.000Z</time>
      </trkpt>
      <trkpt lat="47.28376" lon="-2.36041">
        <ele>26.39999961853</ele>
        <time>2021-09-02T13:48:00.000Z</time>
      </trkpt>
      <trkpt lat="47.28368" lon="-2.36044">
        <ele>26</ele>
        <time>2021-09-02T13:48:01.000Z</time>
      </trkpt>
      <trkpt lat="47.28359" lon="-2.3605">
        <ele>25.39999961853</ele>
        <time>2021-09-02T13:48:02.000Z</time>
      </trkpt>
      <trkpt lat="47.28351" lon="-2.36055">
        <ele>24.799999237061</ele>
        <time>2021-09-02T13:48:03.000Z</time>
      </trkpt>
      <trkpt lat="47.28343" lon="-2.3606">
        <ele>24</ele>
        <time>2021-09-02T13:48:04.000Z</time>
      </trkpt>
      <trkpt lat="47.28336" lon="-2.36063">
        <ele>23.39999961853</ele>
        <time>2021-09-02T13:48:05.000Z</time>
      </trkpt>
      <trkpt lat="47.2833" lon="-2.36063">
        <ele>22.60000038147</ele>
        <time>2021-09-02T13:48:06.000Z</time>
      </trkpt>
      <trkpt lat="47.28325" lon="-2.36063">
        <ele>22</ele>
        <time>2021-09-02T13:48:07.000Z</time>
      </trkpt>
      <trkpt lat="47.2832" lon="-2.36061">
        <ele>21.60000038147</ele>
        <time>2021-09-02T13:48:08.000Z</time>
      </trkpt>
      <trkpt lat="47.28315" lon="-2.3606">
        <ele>21.200000762939</ele>
        <time>2021-09-02T13:48:09.000Z</time>
      </trkpt>
      <trkpt lat="47.28309" lon="-2.36059">
        <ele>20.60000038147</ele>
        <time>2021-09-02T13:48:10.000Z</time>
      </trkpt>
      <trkpt lat="47.28304" lon="-2.36057">
        <ele>20.200000762939</ele>
        <time>2021-09-02T13:48:11.000Z</time>
      </trkpt>
      <trkpt lat="47.283" lon="-2.36054">
        <ele>19.799999237061</ele>
        <time>2021-09-02T13:48:12.000Z</time>
      </trkpt>
      <trkpt lat="47.28296" lon="-2.36049">
        <ele>19.799999237061</ele>
        <time>2021-09-02T13:48:13.000Z</time>
      </trkpt>
      <trkpt lat="47.28293" lon="-2.36043">
        <ele>19.200000762939</ele>
        <time>2021-09-02T13:48:14.000Z</time>
      </trkpt>
      <trkpt lat="47.2829" lon="-2.36036">
        <ele>18.799999237061</ele>
        <time>2021-09-02T13:48:15.000Z</time>
      </trkpt>
      <trkpt lat="47.28289" lon="-2.36029">
        <ele>18.200000762939</ele>
        <time>2021-09-02T13:48:16.000Z</time>
      </trkpt>
      <trkpt lat="47.28287" lon="-2.3602">
        <ele>17.39999961853</ele>
        <time>2021-09-02T13:48:17.000Z</time>
      </trkpt>
      <trkpt lat="47.28285" lon="-2.36011">
        <ele>16.60000038147</ele>
        <time>2021-09-02T13:48:18.000Z</time>
      </trkpt>
      <trkpt lat="47.28286" lon="-2.36">
        <ele>15.800000190735</ele>
        <time>2021-09-02T13:48:19.000Z</time>
      </trkpt>
      <trkpt lat="47.28286" lon="-2.35992">
        <ele>15.199999809265</ele>
        <time>2021-09-02T13:48:20.000Z</time>
      </trkpt>
      <trkpt lat="47.28285" lon="-2.35985">
        <ele>14.39999961853</ele>
        <time>2021-09-02T13:48:21.000Z</time>
      </trkpt>
      <trkpt lat="47.28283" lon="-2.35978">
        <ele>12.800000190735</ele>
        <time>2021-09-02T13:48:22.000Z</time>
      </trkpt>
      <trkpt lat="47.28281" lon="-2.35973">
        <ele>12</ele>
        <time>2021-09-02T13:48:23.000Z</time>
      </trkpt>
      <trkpt lat="47.2828" lon="-2.35968">
        <ele>12</ele>
        <time>2021-09-02T13:48:24.000Z</time>
      </trkpt>
      <trkpt lat="47.28278" lon="-2.35963">
        <ele>12</ele>
        <time>2021-09-02T13:48:25.000Z</time>
      </trkpt>
      <trkpt lat="47.28264" lon="-2.35928">
        <ele>12</ele>
        <time>2021-09-02T13:48:31.000Z</time>
      </trkpt>
      <trkpt lat="47.28255" lon="-2.35919">
        <ele>12</ele>
        <time>2021-09-02T13:48:34.000Z</time>
      </trkpt>
      <trkpt lat="47.28251" lon="-2.35919">
        <ele>12</ele>
        <time>2021-09-02T13:48:35.000Z</time>
      </trkpt>
      <trkpt lat="47.28236" lon="-2.35917">
        <ele>12</ele>
        <time>2021-09-02T13:48:38.000Z</time>
      </trkpt>
      <trkpt lat="47.28226" lon="-2.35916">
        <ele>12</ele>
        <time>2021-09-02T13:48:40.000Z</time>
      </trkpt>
      <trkpt lat="47.2821" lon="-2.359">
        <ele>12</ele>
        <time>2021-09-02T13:48:44.000Z</time>
      </trkpt>
      <trkpt lat="47.28201" lon="-2.3587">
        <ele>12</ele>
        <time>2021-09-02T13:48:48.000Z</time>
      </trkpt>
      <trkpt lat="47.282" lon="-2.35863">
        <ele>12</ele>
        <time>2021-09-02T13:48:49.000Z</time>
      </trkpt>
      <trkpt lat="47.28198" lon="-2.35855">
        <ele>12</ele>
        <time>2021-09-02T13:48:50.000Z</time>
      </trkpt>
      <trkpt lat="47.28192" lon="-2.35837">
        <ele>12</ele>
        <time>2021-09-02T13:48:53.000Z</time>
      </trkpt>
      <trkpt lat="47.28175" lon="-2.35802">
        <ele>12</ele>
        <time>2021-09-02T13:48:59.000Z</time>
      </trkpt>
      <trkpt lat="47.28164" lon="-2.35778">
        <ele>12</ele>
        <time>2021-09-02T13:49:04.000Z</time>
      </trkpt>
      <trkpt lat="47.28146" lon="-2.35757">
        <ele>12</ele>
        <time>2021-09-02T13:49:11.000Z</time>
      </trkpt>
      <trkpt lat="47.28141" lon="-2.35758">
        <ele>12</ele>
        <time>2021-09-02T13:49:12.000Z</time>
      </trkpt>
      <trkpt lat="47.28135" lon="-2.35758">
        <ele>11.60000038147</ele>
        <time>2021-09-02T13:49:13.000Z</time>
      </trkpt>
      <trkpt lat="47.2813" lon="-2.3576">
        <ele>11.199999809265</ele>
        <time>2021-09-02T13:49:14.000Z</time>
      </trkpt>
      <trkpt lat="47.28124" lon="-2.35762">
        <ele>10.800000190735</ele>
        <time>2021-09-02T13:49:15.000Z</time>
      </trkpt>
      <trkpt lat="47.28119" lon="-2.35766">
        <ele>10.39999961853</ele>
        <time>2021-09-02T13:49:16.000Z</time>
      </trkpt>
      <trkpt lat="47.28115" lon="-2.35771">
        <ele>10</ele>
        <time>2021-09-02T13:49:17.000Z</time>
      </trkpt>
      <trkpt lat="47.28112" lon="-2.35777">
        <ele>10</ele>
        <time>2021-09-02T13:49:18.000Z</time>
      </trkpt>
      <trkpt lat="47.28108" lon="-2.35782">
        <ele>10</ele>
        <time>2021-09-02T13:49:19.000Z</time>
      </trkpt>
      <trkpt lat="47.28091" lon="-2.35809">
        <ele>10</ele>
        <time>2021-09-02T13:49:25.000Z</time>
      </trkpt>
      <trkpt lat="47.28088" lon="-2.35805">
        <ele>10</ele>
        <time>2021-09-02T13:49:28.000Z</time>
      </trkpt>
      <trkpt lat="47.2809" lon="-2.35789">
        <ele>10</ele>
        <time>2021-09-02T13:49:31.000Z</time>
      </trkpt>
      <trkpt lat="47.28092" lon="-2.35785">
        <ele>10</ele>
        <time>2021-09-02T13:49:32.000Z</time>
      </trkpt>
      <trkpt lat="47.28093" lon="-2.35774">
        <ele>10.39999961853</ele>
        <time>2021-09-02T13:49:34.000Z</time>
      </trkpt>
      <trkpt lat="47.28094" lon="-2.35768">
        <ele>10.800000190735</ele>
        <time>2021-09-02T13:49:35.000Z</time>
      </trkpt>
      <trkpt lat="47.28094" lon="-2.35762">
        <ele>11.60000038147</ele>
        <time>2021-09-02T13:49:36.000Z</time>
      </trkpt>
      <trkpt lat="47.28095" lon="-2.35757">
        <ele>12</ele>
        <time>2021-09-02T13:49:37.000Z</time>
      </trkpt>
      <trkpt lat="47.28094" lon="-2.35729">
        <ele>12.39999961853</ele>
        <time>2021-09-02T13:49:42.000Z</time>
      </trkpt>
      <trkpt lat="47.28094" lon="-2.35725">
        <ele>12.800000190735</ele>
        <time>2021-09-02T13:49:43.000Z</time>
      </trkpt>
      <trkpt lat="47.28094" lon="-2.3572">
        <ele>13.39999961853</ele>
        <time>2021-09-02T13:49:44.000Z</time>
      </trkpt>
      <trkpt lat="47.28095" lon="-2.35715">
        <ele>13.800000190735</ele>
        <time>2021-09-02T13:49:45.000Z</time>
      </trkpt>
      <trkpt lat="47.28095" lon="-2.35709">
        <ele>14.199999809265</ele>
        <time>2021-09-02T13:49:46.000Z</time>
      </trkpt>
      <trkpt lat="47.28095" lon="-2.35692">
        <ele>14.199999809265</ele>
        <time>2021-09-02T13:49:49.000Z</time>
      </trkpt>
      <trkpt lat="47.28095" lon="-2.35684">
        <ele>14.199999809265</ele>
        <time>2021-09-02T13:49:50.000Z</time>
      </trkpt>
      <trkpt lat="47.28092" lon="-2.3567">
        <ele>14.199999809265</ele>
        <time>2021-09-02T13:49:52.000Z</time>
      </trkpt>
      <trkpt lat="47.28088" lon="-2.35657">
        <ele>13.60000038147</ele>
        <time>2021-09-02T13:49:54.000Z</time>
      </trkpt>
      <trkpt lat="47.28086" lon="-2.3565">
        <ele>13.199999809265</ele>
        <time>2021-09-02T13:49:55.000Z</time>
      </trkpt>
      <trkpt lat="47.28084" lon="-2.3564">
        <ele>12.60000038147</ele>
        <time>2021-09-02T13:49:56.000Z</time>
      </trkpt>
      <trkpt lat="47.28083" lon="-2.35632">
        <ele>12.199999809265</ele>
        <time>2021-09-02T13:49:57.000Z</time>
      </trkpt>
      <trkpt lat="47.28083" lon="-2.35624">
        <ele>11.60000038147</ele>
        <time>2021-09-02T13:49:58.000Z</time>
      </trkpt>
      <trkpt lat="47.28083" lon="-2.35618">
        <ele>11</ele>
        <time>2021-09-02T13:49:59.000Z</time>
      </trkpt>
      <trkpt lat="47.28085" lon="-2.35616">
        <ele>10.60000038147</ele>
        <time>2021-09-02T13:50:00.000Z</time>
      </trkpt>
      <trkpt lat="47.28087" lon="-2.35618">
        <ele>9.3999996185303</ele>
        <time>2021-09-02T13:50:01.000Z</time>
      </trkpt>
      <trkpt lat="47.28088" lon="-2.3562">
        <ele>8.8000001907349</ele>
        <time>2021-09-02T13:50:02.000Z</time>
      </trkpt>
      <trkpt lat="47.28089" lon="-2.35622">
        <ele>8.3999996185303</ele>
        <time>2021-09-02T13:50:03.000Z</time>
      </trkpt>
      <trkpt lat="47.2809" lon="-2.35624">
        <ele>7.8000001907349</ele>
        <time>2021-09-02T13:50:04.000Z</time>
      </trkpt>
      <trkpt lat="47.28091" lon="-2.35625">
        <ele>7.1999998092651</ele>
        <time>2021-09-02T13:50:05.000Z</time>
      </trkpt>
      <trkpt lat="47.28091" lon="-2.35625">
        <ele>7.1999998092651</ele>
        <time>2021-09-02T13:50:08.000Z</time>
      </trkpt>
      <trkpt lat="47.28088" lon="-2.35615">
        <ele>3.2000000476837</ele>
        <time>2021-09-02T14:06:35.000Z</time>
      </trkpt>
      <trkpt lat="47.28088" lon="-2.35613">
        <ele>3.2000000476837</ele>
        <time>2021-09-02T14:06:36.000Z</time>
      </trkpt>
      <trkpt lat="47.28084" lon="-2.35606">
        <ele>3.2000000476837</ele>
        <time>2021-09-02T14:06:39.000Z</time>
      </trkpt>
      <trkpt lat="47.28079" lon="-2.356">
        <ele>3.2000000476837</ele>
        <time>2021-09-02T14:06:41.000Z</time>
      </trkpt>
      <trkpt lat="47.28067" lon="-2.35585">
        <ele>3.2000000476837</ele>
        <time>2021-09-02T14:06:46.000Z</time>
      </trkpt>
      <trkpt lat="47.28047" lon="-2.35579">
        <ele>2.7999999523163</ele>
        <time>2021-09-02T14:06:51.000Z</time>
      </trkpt>
      <trkpt lat="47.28042" lon="-2.35577">
        <ele>2.4000000953674</ele>
        <time>2021-09-02T14:06:52.000Z</time>
      </trkpt>
      <trkpt lat="47.28037" lon="-2.35577">
        <ele>2</ele>
        <time>2021-09-02T14:06:53.000Z</time>
      </trkpt>
      <trkpt lat="47.28032" lon="-2.35576">
        <ele>1.2000000476837</ele>
        <time>2021-09-02T14:06:54.000Z</time>
      </trkpt>
      <trkpt lat="47.28022" lon="-2.35577">
        <ele>1.2000000476837</ele>
        <time>2021-09-02T14:06:56.000Z</time>
      </trkpt>
      <trkpt lat="47.28018" lon="-2.35578">
        <ele>1.2000000476837</ele>
        <time>2021-09-02T14:06:57.000Z</time>
      </trkpt>
      <trkpt lat="47.27989" lon="-2.35587">
        <ele>1.2000000476837</ele>
        <time>2021-09-02T14:07:03.000Z</time>
      </trkpt>
      <trkpt lat="47.27985" lon="-2.35587">
        <ele>1.2000000476837</ele>
        <time>2021-09-02T14:07:04.000Z</time>
      </trkpt>
      <trkpt lat="47.27972" lon="-2.35585">
        <ele>0.80000001192093</ele>
        <time>2021-09-02T14:07:07.000Z</time>
      </trkpt>
      <trkpt lat="47.27967" lon="-2.35584">
        <ele>0.40000000596046</ele>
        <time>2021-09-02T14:07:08.000Z</time>
      </trkpt>
      <trkpt lat="47.27962" lon="-2.35583">
        <ele>19.6</ele>
        <time>2021-09-02T14:07:09.000Z</time>
      </trkpt>
      <trkpt lat="47.27958" lon="-2.35583">
        <ele>-0.40000000596046</ele>
        <time>2021-09-02T14:07:10.000Z</time>
      </trkpt>
      <trkpt lat="47.27952" lon="-2.35584">
        <ele>-0.80000001192093</ele>
        <time>2021-09-02T14:07:11.000Z</time>
      </trkpt>
      <trkpt lat="47.27942" lon="-2.35586">
        <ele>-0.80000001192093</ele>
        <time>2021-09-02T14:07:13.000Z</time>
      </trkpt>
      <trkpt lat="47.27905" lon="-2.35596">
        <ele>-0.80000001192093</ele>
        <time>2021-09-02T14:07:20.000Z</time>
      </trkpt>
      <trkpt lat="47.27862" lon="-2.35606">
        <ele>-1.3999999761581</ele>
        <time>2021-09-02T14:07:27.000Z</time>
      </trkpt>
      <trkpt lat="47.27856" lon="-2.35608">
        <ele>-1.7999999523163</ele>
        <time>2021-09-02T14:07:28.000Z</time>
      </trkpt>
      <trkpt lat="47.2785" lon="-2.3561">
        <ele>-2.2000000476837</ele>
        <time>2021-09-02T14:07:29.000Z</time>
      </trkpt>
      <trkpt lat="47.27843" lon="-2.35612">
        <ele>-2.5999999046326</ele>
        <time>2021-09-02T14:07:30.000Z</time>
      </trkpt>
      <trkpt lat="47.27836" lon="-2.35613">
        <ele>-3</ele>
        <time>2021-09-02T14:07:31.000Z</time>
      </trkpt>
      <trkpt lat="47.27802" lon="-2.35623">
        <ele>-3</ele>
        <time>2021-09-02T14:07:36.000Z</time>
      </trkpt>
      <trkpt lat="47.27768" lon="-2.35645">
        <ele>-3.4000000953674</ele>
        <time>2021-09-02T14:07:41.000Z</time>
      </trkpt>
      <trkpt lat="47.27762" lon="-2.35651">
        <ele>-3.7999999523163</ele>
        <time>2021-09-02T14:07:42.000Z</time>
      </trkpt>
      <trkpt lat="47.27756" lon="-2.35658">
        <ele>-4.5999999046326</ele>
        <time>2021-09-02T14:07:43.000Z</time>
      </trkpt>
      <trkpt lat="47.27751" lon="-2.35665">
        <ele>-5</ele>
        <time>2021-09-02T14:07:44.000Z</time>
      </trkpt>
      <trkpt lat="47.27741" lon="-2.35679">
        <ele>-5</ele>
        <time>2021-09-02T14:07:46.000Z</time>
      </trkpt>
      <trkpt lat="47.27708" lon="-2.35721">
        <ele>-5</ele>
        <time>2021-09-02T14:07:52.000Z</time>
      </trkpt>
      <trkpt lat="47.27701" lon="-2.35727">
        <ele>-5.4000000953674</ele>
        <time>2021-09-02T14:07:53.000Z</time>
      </trkpt>
      <trkpt lat="47.27695" lon="-2.35732">
        <ele>-6</ele>
        <time>2021-09-02T14:07:54.000Z</time>
      </trkpt>
      <trkpt lat="47.27689" lon="-2.35737">
        <ele>-6.4000000953674</ele>
        <time>2021-09-02T14:07:55.000Z</time>
      </trkpt>
      <trkpt lat="47.27683" lon="-2.35742">
        <ele>-6.8000001907349</ele>
        <time>2021-09-02T14:07:56.000Z</time>
      </trkpt>
      <trkpt lat="47.27678" lon="-2.35747">
        <ele>-7.1999998092651</ele>
        <time>2021-09-02T14:07:57.000Z</time>
      </trkpt>
      <trkpt lat="47.27673" lon="-2.35748">
        <ele>-7.1999998092651</ele>
        <time>2021-09-02T14:07:58.000Z</time>
      </trkpt>
      <trkpt lat="47.27668" lon="-2.35746">
        <ele>-7.1999998092651</ele>
        <time>2021-09-02T14:07:59.000Z</time>
      </trkpt>
      <trkpt lat="47.27655" lon="-2.35731">
        <ele>-7.1999998092651</ele>
        <time>2021-09-02T14:08:02.000Z</time>
      </trkpt>
      <trkpt lat="47.27631" lon="-2.35721">
        <ele>-7.1999998092651</ele>
        <time>2021-09-02T14:08:06.000Z</time>
      </trkpt>
      <trkpt lat="47.27625" lon="-2.35719">
        <ele>-7.5999999046326</ele>
        <time>2021-09-02T14:08:07.000Z</time>
      </trkpt>
      <trkpt lat="47.27618" lon="-2.35717">
        <ele>-8.6000003814697</ele>
        <time>2021-09-02T14:08:08.000Z</time>
      </trkpt>
      <trkpt lat="47.27612" lon="-2.35715">
        <ele>-9</ele>
        <time>2021-09-02T14:08:09.000Z</time>
      </trkpt>
      <trkpt lat="47.27605" lon="-2.35713">
        <ele>-9.3999996185303</ele>
        <time>2021-09-02T14:08:10.000Z</time>
      </trkpt>
      <trkpt lat="47.27572" lon="-2.35704">
        <ele>-9.3999996185303</ele>
        <time>2021-09-02T14:08:15.000Z</time>
      </trkpt>
      <trkpt lat="47.27534" lon="-2.35695">
        <ele>-9.3999996185303</ele>
        <time>2021-09-02T14:08:21.000Z</time>
      </trkpt>
      <trkpt lat="47.27528" lon="-2.35694">
        <ele>-9.8000001907349</ele>
        <time>2021-09-02T14:08:22.000Z</time>
      </trkpt>
      <trkpt lat="47.27521" lon="-2.35693">
        <ele>-10.199999809265</ele>
        <time>2021-09-02T14:08:23.000Z</time>
      </trkpt>
      <trkpt lat="47.27515" lon="-2.35691">
        <ele>-10.60000038147</ele>
        <time>2021-09-02T14:08:24.000Z</time>
      </trkpt>
      <trkpt lat="47.27509" lon="-2.3569">
        <ele>-11</ele>
        <time>2021-09-02T14:08:25.000Z</time>
      </trkpt>
      <trkpt lat="47.27503" lon="-2.35688">
        <ele>-11.39999961853</ele>
        <time>2021-09-02T14:08:26.000Z</time>
      </trkpt>
      <trkpt lat="47.2749" lon="-2.35686">
        <ele>-11.39999961853</ele>
        <time>2021-09-02T14:08:28.000Z</time>
      </trkpt>
      <trkpt lat="47.27442" lon="-2.35674">
        <ele>-11.800000190735</ele>
        <time>2021-09-02T14:08:36.000Z</time>
      </trkpt>
      <trkpt lat="47.27436" lon="-2.35673">
        <ele>-12.199999809265</ele>
        <time>2021-09-02T14:08:37.000Z</time>
      </trkpt>
      <trkpt lat="47.27431" lon="-2.35672">
        <ele>-12.800000190735</ele>
        <time>2021-09-02T14:08:38.000Z</time>
      </trkpt>
      <trkpt lat="47.27426" lon="-2.35671">
        <ele>-13.199999809265</ele>
        <time>2021-09-02T14:08:39.000Z</time>
      </trkpt>
      <trkpt lat="47.27422" lon="-2.3567">
        <ele>-13.60000038147</ele>
        <time>2021-09-02T14:08:40.000Z</time>
      </trkpt>
      <trkpt lat="47.27414" lon="-2.3567">
        <ele>-13.60000038147</ele>
        <time>2021-09-02T14:08:42.000Z</time>
      </trkpt>
      <trkpt lat="47.27405" lon="-2.35671">
        <ele>-13.60000038147</ele>
        <time>2021-09-02T14:08:44.000Z</time>
      </trkpt>
      <trkpt lat="47.27392" lon="-2.35678">
        <ele>-13.60000038147</ele>
        <time>2021-09-02T14:08:47.000Z</time>
      </trkpt>
      <trkpt lat="47.27378" lon="-2.35686">
        <ele>-13.60000038147</ele>
        <time>2021-09-02T14:08:50.000Z</time>
      </trkpt>
      <trkpt lat="47.27364" lon="-2.35697">
        <ele>-13.60000038147</ele>
        <time>2021-09-02T14:08:53.000Z</time>
      </trkpt>
      <trkpt lat="47.27327" lon="-2.3573">
        <ele>-13.60000038147</ele>
        <time>2021-09-02T14:09:01.000Z</time>
      </trkpt>
      <trkpt lat="47.27317" lon="-2.35743">
        <ele>-13.60000038147</ele>
        <time>2021-09-02T14:09:05.000Z</time>
      </trkpt>
      <trkpt lat="47.27314" lon="-2.35744">
        <ele>-13.60000038147</ele>
        <time>2021-09-02T14:09:06.000Z</time>
      </trkpt>
      <trkpt lat="47.27309" lon="-2.35734">
        <ele>-13.60000038147</ele>
        <time>2021-09-02T14:09:09.000Z</time>
      </trkpt>
      <trkpt lat="47.27315" lon="-2.35724">
        <ele>-13.60000038147</ele>
        <time>2021-09-02T14:09:12.000Z</time>
      </trkpt>
      <trkpt lat="47.27323" lon="-2.35719">
        <ele>-13.60000038147</ele>
        <time>2021-09-02T14:09:14.000Z</time>
      </trkpt>
      <trkpt lat="47.27335" lon="-2.3571">
        <ele>-13.60000038147</ele>
        <time>2021-09-02T14:09:17.000Z</time>
      </trkpt>
      <trkpt lat="47.2734" lon="-2.35707">
        <ele>-13.60000038147</ele>
        <time>2021-09-02T14:09:18.000Z</time>
      </trkpt>
      <trkpt lat="47.27345" lon="-2.35695">
        <ele>-13.60000038147</ele>
        <time>2021-09-02T14:09:20.000Z</time>
      </trkpt>
      <trkpt lat="47.27339" lon="-2.35677">
        <ele>-13.60000038147</ele>
        <time>2021-09-02T14:09:23.000Z</time>
      </trkpt>
      <trkpt lat="47.27323" lon="-2.35634">
        <ele>-13.60000038147</ele>
        <time>2021-09-02T14:09:30.000Z</time>
      </trkpt>
      <trkpt lat="47.27314" lon="-2.35606">
        <ele>-13.60000038147</ele>
        <time>2021-09-02T14:09:36.000Z</time>
      </trkpt>
      <trkpt lat="47.27309" lon="-2.35589">
        <ele>-13.60000038147</ele>
        <time>2021-09-02T14:09:42.000Z</time>
      </trkpt>
      <trkpt lat="47.27303" lon="-2.35553">
        <ele>-13.60000038147</ele>
        <time>2021-09-02T14:09:48.000Z</time>
      </trkpt>
      <trkpt lat="47.27294" lon="-2.35501">
        <ele>-13.60000038147</ele>
        <time>2021-09-02T14:09:56.000Z</time>
      </trkpt>
      <trkpt lat="47.27291" lon="-2.35488">
        <ele>-13.199999809265</ele>
        <time>2021-09-02T14:09:58.000Z</time>
      </trkpt>
      <trkpt lat="47.2729" lon="-2.3548">
        <ele>-12.60000038147</ele>
        <time>2021-09-02T14:09:59.000Z</time>
      </trkpt>
      <trkpt lat="47.27289" lon="-2.35473">
        <ele>-12.199999809265</ele>
        <time>2021-09-02T14:10:00.000Z</time>
      </trkpt>
      <trkpt lat="47.27288" lon="-2.35466">
        <ele>-11.800000190735</ele>
        <time>2021-09-02T14:10:01.000Z</time>
      </trkpt>
      <trkpt lat="47.27287" lon="-2.3546">
        <ele>-11.39999961853</ele>
        <time>2021-09-02T14:10:02.000Z</time>
      </trkpt>
      <trkpt lat="47.27286" lon="-2.35453">
        <ele>-11.39999961853</ele>
        <time>2021-09-02T14:10:03.000Z</time>
      </trkpt>
      <trkpt lat="47.27274" lon="-2.354">
        <ele>-11.39999961853</ele>
        <time>2021-09-02T14:10:11.000Z</time>
      </trkpt>
      <trkpt lat="47.27262" lon="-2.35352">
        <ele>-11.39999961853</ele>
        <time>2021-09-02T14:10:19.000Z</time>
      </trkpt>
      <trkpt lat="47.27256" lon="-2.35335">
        <ele>-11</ele>
        <time>2021-09-02T14:10:22.000Z</time>
      </trkpt>
      <trkpt lat="47.27254" lon="-2.35329">
        <ele>-10.39999961853</ele>
        <time>2021-09-02T14:10:23.000Z</time>
      </trkpt>
      <trkpt lat="47.27253" lon="-2.35324">
        <ele>-10</ele>
        <time>2021-09-02T14:10:24.000Z</time>
      </trkpt>
      <trkpt lat="47.27251" lon="-2.35318">
        <ele>-9.6000003814697</ele>
        <time>2021-09-02T14:10:25.000Z</time>
      </trkpt>
      <trkpt lat="47.27249" lon="-2.35313">
        <ele>-9.1999998092651</ele>
        <time>2021-09-02T14:10:26.000Z</time>
      </trkpt>
      <trkpt lat="47.27236" lon="-2.35286">
        <ele>-9.1999998092651</ele>
        <time>2021-09-02T14:10:31.000Z</time>
      </trkpt>
      <trkpt lat="47.27214" lon="-2.35237">
        <ele>-9.1999998092651</ele>
        <time>2021-09-02T14:10:39.000Z</time>
      </trkpt>
      <trkpt lat="47.27195" lon="-2.35193">
        <ele>-9.1999998092651</ele>
        <time>2021-09-02T14:10:46.000Z</time>
      </trkpt>
      <trkpt lat="47.27178" lon="-2.35151">
        <ele>-9.1999998092651</ele>
        <time>2021-09-02T14:10:52.000Z</time>
      </trkpt>
      <trkpt lat="47.2716" lon="-2.35112">
        <ele>-9.1999998092651</ele>
        <time>2021-09-02T14:10:58.000Z</time>
      </trkpt>
      <trkpt lat="47.27144" lon="-2.35069">
        <ele>-9.1999998092651</ele>
        <time>2021-09-02T14:11:05.000Z</time>
      </trkpt>
      <trkpt lat="47.27131" lon="-2.35031">
        <ele>-9.1999998092651</ele>
        <time>2021-09-02T14:11:11.000Z</time>
      </trkpt>
      <trkpt lat="47.27129" lon="-2.35025">
        <ele>-9.1999998092651</ele>
        <time>2021-09-02T14:11:12.000Z</time>
      </trkpt>
      <trkpt lat="47.27122" lon="-2.35">
        <ele>-8.8000001907349</ele>
        <time>2021-09-02T14:11:16.000Z</time>
      </trkpt>
      <trkpt lat="47.2712" lon="-2.34993">
        <ele>-8.3999996185303</ele>
        <time>2021-09-02T14:11:17.000Z</time>
      </trkpt>
      <trkpt lat="47.27118" lon="-2.34986">
        <ele>-8</ele>
        <time>2021-09-02T14:11:18.000Z</time>
      </trkpt>
      <trkpt lat="47.27117" lon="-2.3498">
        <ele>-7.5999999046326</ele>
        <time>2021-09-02T14:11:19.000Z</time>
      </trkpt>
      <trkpt lat="47.27115" lon="-2.34973">
        <ele>-7.1999998092651</ele>
        <time>2021-09-02T14:11:20.000Z</time>
      </trkpt>
      <trkpt lat="47.27107" lon="-2.34942">
        <ele>-7.1999998092651</ele>
        <time>2021-09-02T14:11:25.000Z</time>
      </trkpt>
      <trkpt lat="47.27094" lon="-2.34889">
        <ele>-7.1999998092651</ele>
        <time>2021-09-02T14:11:33.000Z</time>
      </trkpt>
      <trkpt lat="47.27078" lon="-2.3483">
        <ele>-7.1999998092651</ele>
        <time>2021-09-02T14:11:42.000Z</time>
      </trkpt>
      <trkpt lat="47.27062" lon="-2.34774">
        <ele>-7.1999998092651</ele>
        <time>2021-09-02T14:11:50.000Z</time>
      </trkpt>
      <trkpt lat="47.27046" lon="-2.34719">
        <ele>-7.1999998092651</ele>
        <time>2021-09-02T14:11:58.000Z</time>
      </trkpt>
      <trkpt lat="47.27034" lon="-2.34672">
        <ele>-7.1999998092651</ele>
        <time>2021-09-02T14:12:05.000Z</time>
      </trkpt>
      <trkpt lat="47.27022" lon="-2.34619">
        <ele>-7.1999998092651</ele>
        <time>2021-09-02T14:12:12.000Z</time>
      </trkpt>
      <trkpt lat="47.27009" lon="-2.34571">
        <ele>-7.1999998092651</ele>
        <time>2021-09-02T14:12:19.000Z</time>
      </trkpt>
      <trkpt lat="47.27001" lon="-2.34547">
        <ele>-7.1999998092651</ele>
        <time>2021-09-02T14:12:23.000Z</time>
      </trkpt>
      <trkpt lat="47.26998" lon="-2.34535">
        <ele>-7.1999998092651</ele>
        <time>2021-09-02T14:12:25.000Z</time>
      </trkpt>
      <trkpt lat="47.26995" lon="-2.34517">
        <ele>-7.5999999046326</ele>
        <time>2021-09-02T14:12:28.000Z</time>
      </trkpt>
      <trkpt lat="47.26993" lon="-2.34512">
        <ele>-8</ele>
        <time>2021-09-02T14:12:29.000Z</time>
      </trkpt>
      <trkpt lat="47.26992" lon="-2.34506">
        <ele>-8.3999996185303</ele>
        <time>2021-09-02T14:12:30.000Z</time>
      </trkpt>
      <trkpt lat="47.26991" lon="-2.345">
        <ele>-8.8000001907349</ele>
        <time>2021-09-02T14:12:31.000Z</time>
      </trkpt>
      <trkpt lat="47.2699" lon="-2.34494">
        <ele>-9.1999998092651</ele>
        <time>2021-09-02T14:12:32.000Z</time>
      </trkpt>
      <trkpt lat="47.26991" lon="-2.34487">
        <ele>-9.1999998092651</ele>
        <time>2021-09-02T14:12:33.000Z</time>
      </trkpt>
      <trkpt lat="47.26995" lon="-2.34478">
        <ele>-9.1999998092651</ele>
        <time>2021-09-02T14:12:35.000Z</time>
      </trkpt>
      <trkpt lat="47.27007" lon="-2.34473">
        <ele>-9.1999998092651</ele>
        <time>2021-09-02T14:12:38.000Z</time>
      </trkpt>
      <trkpt lat="47.27011" lon="-2.34471">
        <ele>-9.1999998092651</ele>
        <time>2021-09-02T14:12:39.000Z</time>
      </trkpt>
      <trkpt lat="47.27015" lon="-2.34468">
        <ele>-8.3999996185303</ele>
        <time>2021-09-02T14:12:40.000Z</time>
      </trkpt>
      <trkpt lat="47.27019" lon="-2.34466">
        <ele>-8</ele>
        <time>2021-09-02T14:12:41.000Z</time>
      </trkpt>
      <trkpt lat="47.27023" lon="-2.34463">
        <ele>-7.5999999046326</ele>
        <time>2021-09-02T14:12:42.000Z</time>
      </trkpt>
      <trkpt lat="47.27026" lon="-2.34458">
        <ele>-7.1999998092651</ele>
        <time>2021-09-02T14:12:43.000Z</time>
      </trkpt>
      <trkpt lat="47.27028" lon="-2.34452">
        <ele>-7.1999998092651</ele>
        <time>2021-09-02T14:12:44.000Z</time>
      </trkpt>
      <trkpt lat="47.27029" lon="-2.34428">
        <ele>-7.1999998092651</ele>
        <time>2021-09-02T14:12:48.000Z</time>
      </trkpt>
      <trkpt lat="47.27023" lon="-2.34388">
        <ele>-7.5999999046326</ele>
        <time>2021-09-02T14:12:55.000Z</time>
      </trkpt>
      <trkpt lat="47.27022" lon="-2.34383">
        <ele>-8</ele>
        <time>2021-09-02T14:12:56.000Z</time>
      </trkpt>
      <trkpt lat="47.27021" lon="-2.34377">
        <ele>-8.3999996185303</ele>
        <time>2021-09-02T14:12:57.000Z</time>
      </trkpt>
      <trkpt lat="47.27019" lon="-2.34371">
        <ele>-8.8000001907349</ele>
        <time>2021-09-02T14:12:58.000Z</time>
      </trkpt>
      <trkpt lat="47.27018" lon="-2.34365">
        <ele>-9.3999996185303</ele>
        <time>2021-09-02T14:12:59.000Z</time>
      </trkpt>
      <trkpt lat="47.27016" lon="-2.34353">
        <ele>-9.3999996185303</ele>
        <time>2021-09-02T14:13:01.000Z</time>
      </trkpt>
      <trkpt lat="47.2701" lon="-2.3434">
        <ele>-9.3999996185303</ele>
        <time>2021-09-02T14:13:05.000Z</time>
      </trkpt>
      <trkpt lat="47.2701" lon="-2.3434">
        <ele>-9.3999996185303</ele>
        <time>2021-09-02T14:13:07.000Z</time>
      </trkpt>
      <trkpt lat="47.27009" lon="-2.34336">
        <ele>-9.3999996185303</ele>
        <time>2021-09-02T14:13:16.000Z</time>
      </trkpt>
      <trkpt lat="47.27009" lon="-2.34333">
        <ele>-9.3999996185303</ele>
        <time>2021-09-02T14:13:17.000Z</time>
      </trkpt>
      <trkpt lat="47.27009" lon="-2.34329">
        <ele>-9.3999996185303</ele>
        <time>2021-09-02T14:13:20.000Z</time>
      </trkpt>
      <trkpt lat="47.27009" lon="-2.34325">
        <ele>-9.3999996185303</ele>
        <time>2021-09-02T14:13:24.000Z</time>
      </trkpt>
      <trkpt lat="47.27007" lon="-2.34312">
        <ele>-9.3999996185303</ele>
        <time>2021-09-02T14:13:28.000Z</time>
      </trkpt>
      <trkpt lat="47.27006" lon="-2.34307">
        <ele>-9.3999996185303</ele>
        <time>2021-09-02T14:13:29.000Z</time>
      </trkpt>
      <trkpt lat="47.27007" lon="-2.34284">
        <ele>-9.3999996185303</ele>
        <time>2021-09-02T14:13:33.000Z</time>
      </trkpt>
      <trkpt lat="47.27002" lon="-2.34256">
        <ele>-9.3999996185303</ele>
        <time>2021-09-02T14:13:37.000Z</time>
      </trkpt>
      <trkpt lat="47.27" lon="-2.3425">
        <ele>-9.3999996185303</ele>
        <time>2021-09-02T14:13:38.000Z</time>
      </trkpt>
      <trkpt lat="47.26988" lon="-2.34194">
        <ele>-9.3999996185303</ele>
        <time>2021-09-02T14:13:46.000Z</time>
      </trkpt>
      <trkpt lat="47.26975" lon="-2.34137">
        <ele>-9.3999996185303</ele>
        <time>2021-09-02T14:13:54.000Z</time>
      </trkpt>
      <trkpt lat="47.26961" lon="-2.34082">
        <ele>-9.3999996185303</ele>
        <time>2021-09-02T14:14:02.000Z</time>
      </trkpt>
      <trkpt lat="47.2695" lon="-2.34034">
        <ele>-9.3999996185303</ele>
        <time>2021-09-02T14:14:09.000Z</time>
      </trkpt>
      <trkpt lat="47.26936" lon="-2.33982">
        <ele>-9.3999996185303</ele>
        <time>2021-09-02T14:14:17.000Z</time>
      </trkpt>
      <trkpt lat="47.26932" lon="-2.33967">
        <ele>-9.3999996185303</ele>
        <time>2021-09-02T14:14:20.000Z</time>
      </trkpt>
      <trkpt lat="47.26929" lon="-2.33966">
        <ele>-9.3999996185303</ele>
        <time>2021-09-02T14:14:21.000Z</time>
      </trkpt>
      <trkpt lat="47.2692" lon="-2.33972">
        <ele>-9.3999996185303</ele>
        <time>2021-09-02T14:14:24.000Z</time>
      </trkpt>
      <trkpt lat="47.26893" lon="-2.33992">
        <ele>-9.3999996185303</ele>
        <time>2021-09-02T14:14:32.000Z</time>
      </trkpt>
      <trkpt lat="47.26866" lon="-2.34016">
        <ele>-9.3999996185303</ele>
        <time>2021-09-02T14:14:40.000Z</time>
      </trkpt>
      <trkpt lat="47.26853" lon="-2.34029">
        <ele>-9.3999996185303</ele>
        <time>2021-09-02T14:14:45.000Z</time>
      </trkpt>
      <trkpt lat="47.26848" lon="-2.34032">
        <ele>-9.3999996185303</ele>
        <time>2021-09-02T14:14:48.000Z</time>
      </trkpt>
      <trkpt lat="47.26848" lon="-2.34032">
        <ele>-9.3999996185303</ele>
        <time>2021-09-02T14:14:49.000Z</time>
      </trkpt>
      <trkpt lat="47.26852" lon="-2.3403">
        <ele>-5.1999998092651</ele>
        <time>2021-09-02T14:44:23.000Z</time>
      </trkpt>
      <trkpt lat="47.26854" lon="-2.34027">
        <ele>-5.1999998092651</ele>
        <time>2021-09-02T14:44:26.000Z</time>
      </trkpt>
      <trkpt lat="47.26856" lon="-2.3401">
        <ele>-5.1999998092651</ele>
        <time>2021-09-02T14:44:30.000Z</time>
      </trkpt>
      <trkpt lat="47.26848" lon="-2.33997">
        <ele>-5.1999998092651</ele>
        <time>2021-09-02T14:44:33.000Z</time>
      </trkpt>
      <trkpt lat="47.26831" lon="-2.33969">
        <ele>-5.1999998092651</ele>
        <time>2021-09-02T14:44:39.000Z</time>
      </trkpt>
      <trkpt lat="47.26809" lon="-2.3393">
        <ele>-5.1999998092651</ele>
        <time>2021-09-02T14:44:47.000Z</time>
      </trkpt>
      <trkpt lat="47.268" lon="-2.33908">
        <ele>-5.1999998092651</ele>
        <time>2021-09-02T14:44:51.000Z</time>
      </trkpt>
      <trkpt lat="47.26794" lon="-2.33892">
        <ele>-5.1999998092651</ele>
        <time>2021-09-02T14:44:54.000Z</time>
      </trkpt>
      <trkpt lat="47.26782" lon="-2.33864">
        <ele>-5.1999998092651</ele>
        <time>2021-09-02T14:44:59.000Z</time>
      </trkpt>
      <trkpt lat="47.26779" lon="-2.33859">
        <ele>-5.1999998092651</ele>
        <time>2021-09-02T14:45:00.000Z</time>
      </trkpt>
      <trkpt lat="47.26766" lon="-2.33836">
        <ele>-4.8000001907349</ele>
        <time>2021-09-02T14:45:05.000Z</time>
      </trkpt>
      <trkpt lat="47.26763" lon="-2.33832">
        <ele>-4.4000000953674</ele>
        <time>2021-09-02T14:45:06.000Z</time>
      </trkpt>
      <trkpt lat="47.26759" lon="-2.33828">
        <ele>-4</ele>
        <time>2021-09-02T14:45:07.000Z</time>
      </trkpt>
      <trkpt lat="47.26757" lon="-2.33823">
        <ele>-3.5999999046326</ele>
        <time>2021-09-02T14:45:08.000Z</time>
      </trkpt>
      <trkpt lat="47.26753" lon="-2.33819">
        <ele>-3.2000000476837</ele>
        <time>2021-09-02T14:45:09.000Z</time>
      </trkpt>
      <trkpt lat="47.2674" lon="-2.33798">
        <ele>-3.2000000476837</ele>
        <time>2021-09-02T14:45:15.000Z</time>
      </trkpt>
      <trkpt lat="47.26744" lon="-2.33784">
        <ele>-3.5999999046326</ele>
        <time>2021-09-02T14:45:19.000Z</time>
      </trkpt>
      <trkpt lat="47.26746" lon="-2.3378">
        <ele>-4</ele>
        <time>2021-09-02T14:45:20.000Z</time>
      </trkpt>
      <trkpt lat="47.26749" lon="-2.33775">
        <ele>-4.4000000953674</ele>
        <time>2021-09-02T14:45:21.000Z</time>
      </trkpt>
      <trkpt lat="47.26752" lon="-2.3377">
        <ele>-4.8000001907349</ele>
        <time>2021-09-02T14:45:22.000Z</time>
      </trkpt>
      <trkpt lat="47.26755" lon="-2.33764">
        <ele>-5.1999998092651</ele>
        <time>2021-09-02T14:45:23.000Z</time>
      </trkpt>
      <trkpt lat="47.26761" lon="-2.33753">
        <ele>-5.1999998092651</ele>
        <time>2021-09-02T14:45:25.000Z</time>
      </trkpt>
      <trkpt lat="47.26774" lon="-2.33723">
        <ele>-5.1999998092651</ele>
        <time>2021-09-02T14:45:30.000Z</time>
      </trkpt>
      <trkpt lat="47.26774" lon="-2.33716">
        <ele>-5.1999998092651</ele>
        <time>2021-09-02T14:45:31.000Z</time>
      </trkpt>
      <trkpt lat="47.26771" lon="-2.33705">
        <ele>-5.1999998092651</ele>
        <time>2021-09-02T14:45:34.000Z</time>
      </trkpt>
      <trkpt lat="47.26764" lon="-2.337">
        <ele>-6.1999998092651</ele>
        <time>2021-09-02T14:45:36.000Z</time>
      </trkpt>
      <trkpt lat="47.26759" lon="-2.33699">
        <ele>-6.5999999046326</ele>
        <time>2021-09-02T14:45:37.000Z</time>
      </trkpt>
      <trkpt lat="47.26755" lon="-2.33698">
        <ele>-7</ele>
        <time>2021-09-02T14:45:38.000Z</time>
      </trkpt>
      <trkpt lat="47.2675" lon="-2.33698">
        <ele>-7.4000000953674</ele>
        <time>2021-09-02T14:45:39.000Z</time>
      </trkpt>
      <trkpt lat="47.26724" lon="-2.33699">
        <ele>-7.4000000953674</ele>
        <time>2021-09-02T14:45:44.000Z</time>
      </trkpt>
      <trkpt lat="47.26689" lon="-2.33699">
        <ele>-7.4000000953674</ele>
        <time>2021-09-02T14:45:51.000Z</time>
      </trkpt>
      <trkpt lat="47.26657" lon="-2.33699">
        <ele>-7.4000000953674</ele>
        <time>2021-09-02T14:45:58.000Z</time>
      </trkpt>
      <trkpt lat="47.26647" lon="-2.337">
        <ele>-7.4000000953674</ele>
        <time>2021-09-02T14:46:00.000Z</time>
      </trkpt>
      <trkpt lat="47.26633" lon="-2.337">
        <ele>-7.4000000953674</ele>
        <time>2021-09-02T14:46:03.000Z</time>
      </trkpt>
      <trkpt lat="47.26629" lon="-2.337">
        <ele>-7.4000000953674</ele>
        <time>2021-09-02T14:46:04.000Z</time>
      </trkpt>
      <trkpt lat="47.26618" lon="-2.33701">
        <ele>-7.4000000953674</ele>
        <time>2021-09-02T14:46:07.000Z</time>
      </trkpt>
      <trkpt lat="47.26608" lon="-2.33708">
        <ele>-7.4000000953674</ele>
        <time>2021-09-02T14:46:11.000Z</time>
      </trkpt>
      <trkpt lat="47.26604" lon="-2.33707">
        <ele>-7.4000000953674</ele>
        <time>2021-09-02T14:46:12.000Z</time>
      </trkpt>
      <trkpt lat="47.26597" lon="-2.33702">
        <ele>-7.4000000953674</ele>
        <time>2021-09-02T14:46:14.000Z</time>
      </trkpt>
      <trkpt lat="47.2659" lon="-2.33696">
        <ele>-7.4000000953674</ele>
        <time>2021-09-02T14:46:16.000Z</time>
      </trkpt>
      <trkpt lat="47.26582" lon="-2.3369">
        <ele>-7.4000000953674</ele>
        <time>2021-09-02T14:46:18.000Z</time>
      </trkpt>
      <trkpt lat="47.26574" lon="-2.33684">
        <ele>-7.4000000953674</ele>
        <time>2021-09-02T14:46:20.000Z</time>
      </trkpt>
      <trkpt lat="47.26572" lon="-2.33663">
        <ele>-7.4000000953674</ele>
        <time>2021-09-02T14:46:23.000Z</time>
      </trkpt>
      <trkpt lat="47.26571" lon="-2.33639">
        <ele>-7.4000000953674</ele>
        <time>2021-09-02T14:46:26.000Z</time>
      </trkpt>
      <trkpt lat="47.2657" lon="-2.33629">
        <ele>-7.4000000953674</ele>
        <time>2021-09-02T14:46:27.000Z</time>
      </trkpt>
      <trkpt lat="47.26559" lon="-2.33554">
        <ele>-7.8000001907349</ele>
        <time>2021-09-02T14:46:36.000Z</time>
      </trkpt>
      <trkpt lat="47.26557" lon="-2.33546">
        <ele>-8.1999998092651</ele>
        <time>2021-09-02T14:46:37.000Z</time>
      </trkpt>
      <trkpt lat="47.26556" lon="-2.33538">
        <ele>-8.6000003814697</ele>
        <time>2021-09-02T14:46:38.000Z</time>
      </trkpt>
      <trkpt lat="47.26555" lon="-2.33531">
        <ele>-9</ele>
        <time>2021-09-02T14:46:39.000Z</time>
      </trkpt>
      <trkpt lat="47.26554" lon="-2.33524">
        <ele>-9.3999996185303</ele>
        <time>2021-09-02T14:46:40.000Z</time>
      </trkpt>
      <trkpt lat="47.26549" lon="-2.33503">
        <ele>-9.3999996185303</ele>
        <time>2021-09-02T14:46:43.000Z</time>
      </trkpt>
      <trkpt lat="47.26547" lon="-2.33497">
        <ele>-9.3999996185303</ele>
        <time>2021-09-02T14:46:44.000Z</time>
      </trkpt>
      <trkpt lat="47.26538" lon="-2.3347">
        <ele>-9.3999996185303</ele>
        <time>2021-09-02T14:46:48.000Z</time>
      </trkpt>
      <trkpt lat="47.26534" lon="-2.33442">
        <ele>-9.3999996185303</ele>
        <time>2021-09-02T14:46:52.000Z</time>
      </trkpt>
      <trkpt lat="47.26531" lon="-2.33422">
        <ele>-9.3999996185303</ele>
        <time>2021-09-02T14:46:55.000Z</time>
      </trkpt>
      <trkpt lat="47.26525" lon="-2.33374">
        <ele>-9.3999996185303</ele>
        <time>2021-09-02T14:47:02.000Z</time>
      </trkpt>
      <trkpt lat="47.26523" lon="-2.33368">
        <ele>-9.3999996185303</ele>
        <time>2021-09-02T14:47:03.000Z</time>
      </trkpt>
      <trkpt lat="47.26517" lon="-2.33355">
        <ele>-9.8000001907349</ele>
        <time>2021-09-02T14:47:06.000Z</time>
      </trkpt>
      <trkpt lat="47.26514" lon="-2.33352">
        <ele>-10.199999809265</ele>
        <time>2021-09-02T14:47:07.000Z</time>
      </trkpt>
      <trkpt lat="47.2651" lon="-2.33349">
        <ele>-10.60000038147</ele>
        <time>2021-09-02T14:47:08.000Z</time>
      </trkpt>
      <trkpt lat="47.26506" lon="-2.33347">
        <ele>-11</ele>
        <time>2021-09-02T14:47:09.000Z</time>
      </trkpt>
      <trkpt lat="47.26501" lon="-2.33345">
        <ele>-11.39999961853</ele>
        <time>2021-09-02T14:47:10.000Z</time>
      </trkpt>
      <trkpt lat="47.26496" lon="-2.33345">
        <ele>-11.39999961853</ele>
        <time>2021-09-02T14:47:11.000Z</time>
      </trkpt>
      <trkpt lat="47.26488" lon="-2.33339">
        <ele>-11.39999961853</ele>
        <time>2021-09-02T14:47:14.000Z</time>
      </trkpt>
      <trkpt lat="47.26486" lon="-2.33335">
        <ele>-11.39999961853</ele>
        <time>2021-09-02T14:47:15.000Z</time>
      </trkpt>
      <trkpt lat="47.26477" lon="-2.33317">
        <ele>-11.39999961853</ele>
        <time>2021-09-02T14:47:19.000Z</time>
      </trkpt>
      <trkpt lat="47.26476" lon="-2.33311">
        <ele>-11.39999961853</ele>
        <time>2021-09-02T14:47:20.000Z</time>
      </trkpt>
      <trkpt lat="47.26478" lon="-2.3329">
        <ele>-11.39999961853</ele>
        <time>2021-09-02T14:47:23.000Z</time>
      </trkpt>
      <trkpt lat="47.26473" lon="-2.33273">
        <ele>-11.39999961853</ele>
        <time>2021-09-02T14:47:26.000Z</time>
      </trkpt>
      <trkpt lat="47.26459" lon="-2.33269">
        <ele>-11.39999961853</ele>
        <time>2021-09-02T14:47:29.000Z</time>
      </trkpt>
      <trkpt lat="47.26453" lon="-2.33269">
        <ele>-11.39999961853</ele>
        <time>2021-09-02T14:47:30.000Z</time>
      </trkpt>
      <trkpt lat="47.26406" lon="-2.33264">
        <ele>-11.39999961853</ele>
        <time>2021-09-02T14:47:39.000Z</time>
      </trkpt>
      <trkpt lat="47.26392" lon="-2.3326">
        <ele>-11.39999961853</ele>
        <time>2021-09-02T14:47:42.000Z</time>
      </trkpt>
      <trkpt lat="47.26384" lon="-2.33251">
        <ele>-11.39999961853</ele>
        <time>2021-09-02T14:47:44.000Z</time>
      </trkpt>
      <trkpt lat="47.26379" lon="-2.3323">
        <ele>-11.39999961853</ele>
        <time>2021-09-02T14:47:47.000Z</time>
      </trkpt>
      <trkpt lat="47.26378" lon="-2.33223">
        <ele>-11.39999961853</ele>
        <time>2021-09-02T14:47:48.000Z</time>
      </trkpt>
      <trkpt lat="47.26375" lon="-2.33173">
        <ele>-11.39999961853</ele>
        <time>2021-09-02T14:47:55.000Z</time>
      </trkpt>
      <trkpt lat="47.26372" lon="-2.3312">
        <ele>-11.39999961853</ele>
        <time>2021-09-02T14:48:02.000Z</time>
      </trkpt>
      <trkpt lat="47.26369" lon="-2.33089">
        <ele>-11.39999961853</ele>
        <time>2021-09-02T14:48:06.000Z</time>
      </trkpt>
      <trkpt lat="47.26368" lon="-2.33065">
        <ele>-11.39999961853</ele>
        <time>2021-09-02T14:48:09.000Z</time>
      </trkpt>
      <trkpt lat="47.26365" lon="-2.32988">
        <ele>-11.39999961853</ele>
        <time>2021-09-02T14:48:19.000Z</time>
      </trkpt>
      <trkpt lat="47.26356" lon="-2.3297">
        <ele>-11.39999961853</ele>
        <time>2021-09-02T14:48:22.000Z</time>
      </trkpt>
      <trkpt lat="47.26351" lon="-2.32966">
        <ele>-11.39999961853</ele>
        <time>2021-09-02T14:48:23.000Z</time>
      </trkpt>
      <trkpt lat="47.26348" lon="-2.3296">
        <ele>-11.39999961853</ele>
        <time>2021-09-02T14:48:24.000Z</time>
      </trkpt>
      <trkpt lat="47.26344" lon="-2.32946">
        <ele>-11.39999961853</ele>
        <time>2021-09-02T14:48:26.000Z</time>
      </trkpt>
      <trkpt lat="47.26327" lon="-2.32898">
        <ele>-11.39999961853</ele>
        <time>2021-09-02T14:48:33.000Z</time>
      </trkpt>
      <trkpt lat="47.26315" lon="-2.32865">
        <ele>-11.39999961853</ele>
        <time>2021-09-02T14:48:38.000Z</time>
      </trkpt>
      <trkpt lat="47.26311" lon="-2.3286">
        <ele>-11.39999961853</ele>
        <time>2021-09-02T14:48:39.000Z</time>
      </trkpt>
      <trkpt lat="47.26296" lon="-2.32853">
        <ele>-11.39999961853</ele>
        <time>2021-09-02T14:48:42.000Z</time>
      </trkpt>
      <trkpt lat="47.26292" lon="-2.32849">
        <ele>-11.39999961853</ele>
        <time>2021-09-02T14:48:43.000Z</time>
      </trkpt>
      <trkpt lat="47.26287" lon="-2.32836">
        <ele>-11.39999961853</ele>
        <time>2021-09-02T14:48:45.000Z</time>
      </trkpt>
      <trkpt lat="47.26285" lon="-2.32821">
        <ele>-11.39999961853</ele>
        <time>2021-09-02T14:48:47.000Z</time>
      </trkpt>
      <trkpt lat="47.26283" lon="-2.32814">
        <ele>-11.39999961853</ele>
        <time>2021-09-02T14:48:48.000Z</time>
      </trkpt>
      <trkpt lat="47.26279" lon="-2.32801">
        <ele>-11.39999961853</ele>
        <time>2021-09-02T14:48:50.000Z</time>
      </trkpt>
      <trkpt lat="47.26268" lon="-2.32775">
        <ele>-11.39999961853</ele>
        <time>2021-09-02T14:48:54.000Z</time>
      </trkpt>
      <trkpt lat="47.26258" lon="-2.32756">
        <ele>-11.39999961853</ele>
        <time>2021-09-02T14:48:57.000Z</time>
      </trkpt>
      <trkpt lat="47.26229" lon="-2.32713">
        <ele>-11.39999961853</ele>
        <time>2021-09-02T14:49:05.000Z</time>
      </trkpt>
      <trkpt lat="47.2621" lon="-2.32689">
        <ele>-11</ele>
        <time>2021-09-02T14:49:10.000Z</time>
      </trkpt>
      <trkpt lat="47.26206" lon="-2.32684">
        <ele>-10.60000038147</ele>
        <time>2021-09-02T14:49:11.000Z</time>
      </trkpt>
      <trkpt lat="47.26202" lon="-2.3268">
        <ele>-10.199999809265</ele>
        <time>2021-09-02T14:49:12.000Z</time>
      </trkpt>
      <trkpt lat="47.26198" lon="-2.32675">
        <ele>-9.8000001907349</ele>
        <time>2021-09-02T14:49:13.000Z</time>
      </trkpt>
      <trkpt lat="47.26193" lon="-2.3267">
        <ele>-9.3999996185303</ele>
        <time>2021-09-02T14:49:14.000Z</time>
      </trkpt>
      <trkpt lat="47.26166" lon="-2.32647">
        <ele>-9.3999996185303</ele>
        <time>2021-09-02T14:49:20.000Z</time>
      </trkpt>
      <trkpt lat="47.26136" lon="-2.32634">
        <ele>-9.3999996185303</ele>
        <time>2021-09-02T14:49:26.000Z</time>
      </trkpt>
      <trkpt lat="47.26116" lon="-2.32632">
        <ele>-9.3999996185303</ele>
        <time>2021-09-02T14:49:30.000Z</time>
      </trkpt>
      <trkpt lat="47.26105" lon="-2.32633">
        <ele>-9.3999996185303</ele>
        <time>2021-09-02T14:49:32.000Z</time>
      </trkpt>
      <trkpt lat="47.26067" lon="-2.32639">
        <ele>-9.3999996185303</ele>
        <time>2021-09-02T14:49:39.000Z</time>
      </trkpt>
      <trkpt lat="47.26026" lon="-2.3265">
        <ele>-9.3999996185303</ele>
        <time>2021-09-02T14:49:47.000Z</time>
      </trkpt>
      <trkpt lat="47.26016" lon="-2.3265">
        <ele>-9.8000001907349</ele>
        <time>2021-09-02T14:49:49.000Z</time>
      </trkpt>
      <trkpt lat="47.26011" lon="-2.32651">
        <ele>-10.199999809265</ele>
        <time>2021-09-02T14:49:50.000Z</time>
      </trkpt>
      <trkpt lat="47.26007" lon="-2.32652">
        <ele>-10.60000038147</ele>
        <time>2021-09-02T14:49:51.000Z</time>
      </trkpt>
      <trkpt lat="47.26003" lon="-2.32653">
        <ele>-11</ele>
        <time>2021-09-02T14:49:52.000Z</time>
      </trkpt>
      <trkpt lat="47.25999" lon="-2.32654">
        <ele>-11.39999961853</ele>
        <time>2021-09-02T14:49:53.000Z</time>
      </trkpt>
      <trkpt lat="47.25994" lon="-2.32654">
        <ele>-11.39999961853</ele>
        <time>2021-09-02T14:49:54.000Z</time>
      </trkpt>
      <trkpt lat="47.25981" lon="-2.32655">
        <ele>-11.39999961853</ele>
        <time>2021-09-02T14:49:57.000Z</time>
      </trkpt>
      <trkpt lat="47.25977" lon="-2.32654">
        <ele>-11.39999961853</ele>
        <time>2021-09-02T14:49:58.000Z</time>
      </trkpt>
      <trkpt lat="47.25965" lon="-2.32653">
        <ele>-11.39999961853</ele>
        <time>2021-09-02T14:50:02.000Z</time>
      </trkpt>
      <trkpt lat="47.2596" lon="-2.32656">
        <ele>-11.39999961853</ele>
        <time>2021-09-02T14:50:06.000Z</time>
      </trkpt>
      <trkpt lat="47.25952" lon="-2.32653">
        <ele>-11.39999961853</ele>
        <time>2021-09-02T14:50:08.000Z</time>
      </trkpt>
      <trkpt lat="47.25948" lon="-2.3265">
        <ele>-11.39999961853</ele>
        <time>2021-09-02T14:50:09.000Z</time>
      </trkpt>
      <trkpt lat="47.25931" lon="-2.32627">
        <ele>-11.39999961853</ele>
        <time>2021-09-02T14:50:13.000Z</time>
      </trkpt>
      <trkpt lat="47.25895" lon="-2.32581">
        <ele>-11.39999961853</ele>
        <time>2021-09-02T14:50:21.000Z</time>
      </trkpt>
      <trkpt lat="47.2589" lon="-2.32578">
        <ele>-11.39999961853</ele>
        <time>2021-09-02T14:50:22.000Z</time>
      </trkpt>
      <trkpt lat="47.25872" lon="-2.32556">
        <ele>-11.39999961853</ele>
        <time>2021-09-02T14:50:26.000Z</time>
      </trkpt>
      <trkpt lat="47.25843" lon="-2.32515">
        <ele>-11.39999961853</ele>
        <time>2021-09-02T14:50:33.000Z</time>
      </trkpt>
      <trkpt lat="47.25825" lon="-2.32487">
        <ele>-11.39999961853</ele>
        <time>2021-09-02T14:50:39.000Z</time>
      </trkpt>
      <trkpt lat="47.25828" lon="-2.32479">
        <ele>-11.39999961853</ele>
        <time>2021-09-02T14:50:42.000Z</time>
      </trkpt>
      <trkpt lat="47.25836" lon="-2.3248">
        <ele>-11.39999961853</ele>
        <time>2021-09-02T14:50:44.000Z</time>
      </trkpt>
      <trkpt lat="47.25841" lon="-2.32481">
        <ele>-11.39999961853</ele>
        <time>2021-09-02T14:50:45.000Z</time>
      </trkpt>
      <trkpt lat="47.25871" lon="-2.32485">
        <ele>-11.39999961853</ele>
        <time>2021-09-02T14:50:51.000Z</time>
      </trkpt>
      <trkpt lat="47.2588" lon="-2.32484">
        <ele>-11.39999961853</ele>
        <time>2021-09-02T14:50:53.000Z</time>
      </trkpt>
      <trkpt lat="47.2589" lon="-2.32474">
        <ele>-11.39999961853</ele>
        <time>2021-09-02T14:50:56.000Z</time>
      </trkpt>
      <trkpt lat="47.25898" lon="-2.32456">
        <ele>-11.39999961853</ele>
        <time>2021-09-02T14:51:00.000Z</time>
      </trkpt>
      <trkpt lat="47.25909" lon="-2.32443">
        <ele>-11.39999961853</ele>
        <time>2021-09-02T14:51:03.000Z</time>
      </trkpt>
      <trkpt lat="47.25917" lon="-2.32433">
        <ele>-11.39999961853</ele>
        <time>2021-09-02T14:51:05.000Z</time>
      </trkpt>
      <trkpt lat="47.25947" lon="-2.32394">
        <ele>-11.39999961853</ele>
        <time>2021-09-02T14:51:13.000Z</time>
      </trkpt>
      <trkpt lat="47.25977" lon="-2.32351">
        <ele>-11.39999961853</ele>
        <time>2021-09-02T14:51:21.000Z</time>
      </trkpt>
      <trkpt lat="47.26014" lon="-2.32306">
        <ele>-11.39999961853</ele>
        <time>2021-09-02T14:51:30.000Z</time>
      </trkpt>
      <trkpt lat="47.26045" lon="-2.3227">
        <ele>-11.39999961853</ele>
        <time>2021-09-02T14:51:37.000Z</time>
      </trkpt>
      <trkpt lat="47.26076" lon="-2.32237">
        <ele>-11.39999961853</ele>
        <time>2021-09-02T14:51:44.000Z</time>
      </trkpt>
      <trkpt lat="47.26098" lon="-2.32201">
        <ele>-11.39999961853</ele>
        <time>2021-09-02T14:51:50.000Z</time>
      </trkpt>
      <trkpt lat="47.26122" lon="-2.32146">
        <ele>-11.39999961853</ele>
        <time>2021-09-02T14:51:58.000Z</time>
      </trkpt>
      <trkpt lat="47.26136" lon="-2.32103">
        <ele>-11.39999961853</ele>
        <time>2021-09-02T14:52:04.000Z</time>
      </trkpt>
      <trkpt lat="47.2615" lon="-2.32054">
        <ele>-11.39999961853</ele>
        <time>2021-09-02T14:52:11.000Z</time>
      </trkpt>
      <trkpt lat="47.26159" lon="-2.32028">
        <ele>-11.39999961853</ele>
        <time>2021-09-02T14:52:15.000Z</time>
      </trkpt>
      <trkpt lat="47.26165" lon="-2.32019">
        <ele>-11.39999961853</ele>
        <time>2021-09-02T14:52:17.000Z</time>
      </trkpt>
      <trkpt lat="47.26176" lon="-2.32017">
        <ele>-11.39999961853</ele>
        <time>2021-09-02T14:52:20.000Z</time>
      </trkpt>
      <trkpt lat="47.2618" lon="-2.32017">
        <ele>-11.39999961853</ele>
        <time>2021-09-02T14:52:21.000Z</time>
      </trkpt>
      <trkpt lat="47.26191" lon="-2.32022">
        <ele>-11.39999961853</ele>
        <time>2021-09-02T14:52:25.000Z</time>
      </trkpt>
      <trkpt lat="47.26194" lon="-2.32021">
        <ele>-11.39999961853</ele>
        <time>2021-09-02T14:52:27.000Z</time>
      </trkpt>
      <trkpt lat="47.26196" lon="-2.32014">
        <ele>-11.39999961853</ele>
        <time>2021-09-02T14:52:29.000Z</time>
      </trkpt>
      <trkpt lat="47.26202" lon="-2.32">
        <ele>-11.39999961853</ele>
        <time>2021-09-02T14:52:33.000Z</time>
      </trkpt>
      <trkpt lat="47.26209" lon="-2.31993">
        <ele>-11.39999961853</ele>
        <time>2021-09-02T14:52:36.000Z</time>
      </trkpt>
      <trkpt lat="47.26214" lon="-2.31988">
        <ele>-11.39999961853</ele>
        <time>2021-09-02T14:52:38.000Z</time>
      </trkpt>
      <trkpt lat="47.26217" lon="-2.31986">
        <ele>-11.39999961853</ele>
        <time>2021-09-02T14:52:39.000Z</time>
      </trkpt>
      <trkpt lat="47.26224" lon="-2.31981">
        <ele>-11.39999961853</ele>
        <time>2021-09-02T14:52:41.000Z</time>
      </trkpt>
      <trkpt lat="47.26232" lon="-2.31979">
        <ele>-11.39999961853</ele>
        <time>2021-09-02T14:52:43.000Z</time>
      </trkpt>
      <trkpt lat="47.26246" lon="-2.31962">
        <ele>-11.39999961853</ele>
        <time>2021-09-02T14:52:47.000Z</time>
      </trkpt>
      <trkpt lat="47.26249" lon="-2.31956">
        <ele>-11.39999961853</ele>
        <time>2021-09-02T14:52:48.000Z</time>
      </trkpt>
      <trkpt lat="47.26258" lon="-2.31937">
        <ele>-11.39999961853</ele>
        <time>2021-09-02T14:52:52.000Z</time>
      </trkpt>
      <trkpt lat="47.26271" lon="-2.31914">
        <ele>-11.39999961853</ele>
        <time>2021-09-02T14:52:58.000Z</time>
      </trkpt>
      <trkpt lat="47.26286" lon="-2.31891">
        <ele>-11.39999961853</ele>
        <time>2021-09-02T14:53:04.000Z</time>
      </trkpt>
      <trkpt lat="47.26293" lon="-2.31861">
        <ele>-11.39999961853</ele>
        <time>2021-09-02T14:53:09.000Z</time>
      </trkpt>
      <trkpt lat="47.26298" lon="-2.31828">
        <ele>-11.39999961853</ele>
        <time>2021-09-02T14:53:14.000Z</time>
      </trkpt>
      <trkpt lat="47.26302" lon="-2.31771">
        <ele>-11.39999961853</ele>
        <time>2021-09-02T14:53:22.000Z</time>
      </trkpt>
      <trkpt lat="47.263" lon="-2.31722">
        <ele>-11.39999961853</ele>
        <time>2021-09-02T14:53:30.000Z</time>
      </trkpt>
      <trkpt lat="47.26305" lon="-2.31711">
        <ele>-11.39999961853</ele>
        <time>2021-09-02T14:53:32.000Z</time>
      </trkpt>
      <trkpt lat="47.26308" lon="-2.31709">
        <ele>-11.39999961853</ele>
        <time>2021-09-02T14:53:33.000Z</time>
      </trkpt>
      <trkpt lat="47.2632" lon="-2.31705">
        <ele>-11.39999961853</ele>
        <time>2021-09-02T14:53:36.000Z</time>
      </trkpt>
      <trkpt lat="47.26328" lon="-2.31702">
        <ele>-11.39999961853</ele>
        <time>2021-09-02T14:53:38.000Z</time>
      </trkpt>
      <trkpt lat="47.2633" lon="-2.31696">
        <ele>-11.39999961853</ele>
        <time>2021-09-02T14:53:39.000Z</time>
      </trkpt>
      <trkpt lat="47.26333" lon="-2.31687">
        <ele>-11.39999961853</ele>
        <time>2021-09-02T14:53:41.000Z</time>
      </trkpt>
      <trkpt lat="47.26342" lon="-2.31681">
        <ele>-11</ele>
        <time>2021-09-02T14:53:44.000Z</time>
      </trkpt>
      <trkpt lat="47.26346" lon="-2.3168">
        <ele>-10.60000038147</ele>
        <time>2021-09-02T14:53:45.000Z</time>
      </trkpt>
      <trkpt lat="47.2635" lon="-2.31678">
        <ele>-10.199999809265</ele>
        <time>2021-09-02T14:53:46.000Z</time>
      </trkpt>
      <trkpt lat="47.26353" lon="-2.31676">
        <ele>-9.8000001907349</ele>
        <time>2021-09-02T14:53:47.000Z</time>
      </trkpt>
      <trkpt lat="47.26356" lon="-2.31675">
        <ele>-9.3999996185303</ele>
        <time>2021-09-02T14:53:48.000Z</time>
      </trkpt>
      <trkpt lat="47.26366" lon="-2.31671">
        <ele>-9.3999996185303</ele>
        <time>2021-09-02T14:53:51.000Z</time>
      </trkpt>
      <trkpt lat="47.26389" lon="-2.31661">
        <ele>-9.3999996185303</ele>
        <time>2021-09-02T14:53:58.000Z</time>
      </trkpt>
      <trkpt lat="47.26404" lon="-2.31653">
        <ele>-9.3999996185303</ele>
        <time>2021-09-02T14:54:04.000Z</time>
      </trkpt>
      <trkpt lat="47.26409" lon="-2.31642">
        <ele>-9</ele>
        <time>2021-09-02T14:54:07.000Z</time>
      </trkpt>
      <trkpt lat="47.26409" lon="-2.31639">
        <ele>-8.6000003814697</ele>
        <time>2021-09-02T14:54:08.000Z</time>
      </trkpt>
      <trkpt lat="47.26409" lon="-2.31635">
        <ele>-8.1999998092651</ele>
        <time>2021-09-02T14:54:09.000Z</time>
      </trkpt>
      <trkpt lat="47.26409" lon="-2.31631">
        <ele>-7.8000001907349</ele>
        <time>2021-09-02T14:54:10.000Z</time>
      </trkpt>
      <trkpt lat="47.26408" lon="-2.31626">
        <ele>-7.4000000953674</ele>
        <time>2021-09-02T14:54:11.000Z</time>
      </trkpt>
      <trkpt lat="47.26409" lon="-2.31607">
        <ele>-7.4000000953674</ele>
        <time>2021-09-02T14:54:15.000Z</time>
      </trkpt>
      <trkpt lat="47.26409" lon="-2.31568">
        <ele>-7.4000000953674</ele>
        <time>2021-09-02T14:54:23.000Z</time>
      </trkpt>
      <trkpt lat="47.26412" lon="-2.31551">
        <ele>-7.4000000953674</ele>
        <time>2021-09-02T14:54:28.000Z</time>
      </trkpt>
      <trkpt lat="47.26414" lon="-2.31552">
        <ele>-7.4000000953674</ele>
        <time>2021-09-02T14:54:29.000Z</time>
      </trkpt>
      <trkpt lat="47.26415" lon="-2.31553">
        <ele>-7.4000000953674</ele>
        <time>2021-09-02T14:54:31.000Z</time>
      </trkpt>
      <trkpt lat="47.26416" lon="-2.31553">
        <ele>-7.4000000953674</ele>
        <time>2021-09-02T14:54:32.000Z</time>
      </trkpt>
    </trkseg>
  </trk>
</gpx>